Provisional Data: South Branch Tunkhannock Creek near La Plume, PA


Please select a monitoring station.
Please select start date.
Please select start date.

Toggle Unit: C/F Toggle Unit: C/F
Sample Time Temperature (C) Temperature (F) Specific Conductivity (mS/cm) pH   Turbidity (NTU+) DO (mg/L)
6/3/2022 12:00:00 AM 19.95 67.91 0.215 7.33 7.12 8.16
6/3/2022 12:15:00 AM 19.93 67.874 0.214 7.34 6.94 8.16
6/3/2022 12:30:00 AM 19.9 67.82 0.212 7.34 7.04 8.17
6/3/2022 12:45:00 AM 19.87 67.766 0.212 7.34 6.71 8.17
6/3/2022 1:00:00 AM 19.84 67.712 0.212 7.34 6.64 8.17
6/3/2022 1:15:00 AM 19.81 67.658 0.212 7.34 6.48 8.18
6/3/2022 1:30:00 AM 19.79 67.622 0.212 7.35 6.52 8.18
6/3/2022 1:45:00 AM 19.75 67.55 0.213 7.35 6.77 8.19
6/3/2022 2:00:00 AM 19.72 67.496 0.213 7.35 6.63 8.2
6/3/2022 2:15:00 AM 19.68 67.424 0.213 7.35 6.25 8.21
6/3/2022 2:30:00 AM 19.63 67.334 0.213 7.35 6.34 8.22
6/3/2022 2:45:00 AM 19.59 67.262 0.213 7.35 6.09 8.21
6/3/2022 3:00:00 AM 19.54 67.172 0.213 7.35 6.54 8.24
6/3/2022 3:15:00 AM 19.5 67.1 0.214 7.35 6.26 8.24
6/3/2022 3:30:00 AM 19.45 67.01 0.214 7.35 6.03 8.26
6/3/2022 3:45:00 AM 19.39 66.902 0.214 7.35 6.08 8.26
6/3/2022 4:00:00 AM 19.35 66.83 0.214 7.35 6.77 8.28
6/3/2022 4:15:00 AM 19.29 66.722 0.214 7.35 6.22 8.29
6/3/2022 4:30:00 AM 19.24 66.632 0.214 7.35 5.93 8.3
6/3/2022 4:45:00 AM 19.18 66.524 0.215 7.35 5.94 8.31
6/3/2022 5:00:00 AM 19.13 66.434 0.215 7.35 6.51 8.32
6/3/2022 5:15:00 AM 19.08 66.344 0.215 7.35 6.14 8.32
6/3/2022 5:30:00 AM 19.03 66.254 0.216 7.35 6.29 8.34
6/3/2022 5:45:00 AM 18.98 66.164 0.216 7.35 5.97 8.35
6/3/2022 6:00:00 AM 18.94 66.092 0.216 7.35 7.04 8.37
6/3/2022 6:15:00 AM 18.89 66.002 0.217 7.35 10.43 8.37
6/3/2022 6:30:00 AM 18.86 65.948 0.217 7.35 5.67 8.4
6/3/2022 6:45:00 AM 18.82 65.876 0.217 7.35 11.52 8.42
6/3/2022 7:00:00 AM 18.78 65.804 0.218 7.36 7.76 8.45
6/3/2022 7:15:00 AM 18.75 65.75 0.218 7.36 6.1 8.47
6/3/2022 7:30:00 AM 18.75 65.75 0.218 7.38 5.3 8.54
6/3/2022 7:45:00 AM 18.75 65.75 0.219 7.39 5.12 8.59
6/3/2022 8:00:00 AM 18.7 65.66 0.219 7.39 5.21 8.59
6/3/2022 8:15:00 AM 18.72 65.696 0.219 7.4 5.83 8.61
6/3/2022 8:30:00 AM 18.72 65.696 0.22 7.4 4.93 8.63
6/3/2022 8:45:00 AM 18.71 65.67799 0.22 7.41 6.54 8.62
6/3/2022 9:00:00 AM 18.73 65.714 0.22 7.41 16.16 8.66
6/3/2022 9:15:00 AM 18.78 65.804 0.22 7.42 5.71 8.68
6/3/2022 9:30:00 AM 18.8 65.84 0.22 7.43 8.95 8.68
6/3/2022 9:45:00 AM 18.84 65.912 0.22 7.43 6.68 8.69
6/3/2022 10:00:00 AM 18.88 65.984 0.22 7.44 4.36 8.71
6/3/2022 10:15:00 AM 18.96 66.128 0.22 7.44 4.41 8.72
6/3/2022 10:30:00 AM 19.04 66.272 0.22 7.45 4.49 8.74
6/3/2022 10:45:00 AM 19.14 66.452 0.22 7.46 4.42 8.74
6/3/2022 11:00:00 AM 19.25 66.65 0.219 7.47 3.97 8.74
6/3/2022 11:15:00 AM 19.37 66.866 0.219 7.48 4.05 8.74
6/3/2022 11:30:00 AM 19.52 67.136 0.219 7.49 4.16 8.74
6/3/2022 11:45:00 AM 19.67 67.406 0.219 7.5 4.05 8.75
6/3/2022 12:00:00 PM 19.83 67.694 0.219 7.51 4.04 8.73
6/3/2022 12:15:00 PM 20.01 68.018 0.219 7.52 3.98 8.73
6/3/2022 12:30:00 PM 20.17 68.306 0.219 7.53 4.01 8.72
6/3/2022 12:45:00 PM 20.34 68.612 0.219 7.53 3.75 8.7
6/3/2022 1:00:00 PM 20.53 68.954 0.219 7.54 3.71 8.7
6/3/2022 1:15:00 PM 20.71 69.278 0.219 7.55 4.1 8.68
6/3/2022 1:30:00 PM 20.87 69.566 0.219 7.55 3.89 8.66
6/3/2022 1:45:00 PM 21.03 69.854 0.219 7.56 3.77 8.64
6/3/2022 2:00:00 PM 21.17 70.106 0.22 7.56 4.18 8.61
6/3/2022 2:15:00 PM 21.32 70.376 0.22 7.56 3.81 8.59
6/3/2022 2:30:00 PM 21.44 70.592 0.22 7.56 5.28 8.56
6/3/2022 2:45:00 PM 21.54 70.772 0.221 7.57 4.06 8.54
6/3/2022 3:00:00 PM 21.62 70.916 0.221 7.57 3.81 8.51
6/3/2022 3:15:00 PM 21.69 71.042 0.236 7.56 4.1 8.48
6/3/2022 3:30:00 PM 21.68 71.024 0.222 7.56 3.85 8.46
6/3/2022 3:45:00 PM 21.65 70.97 0.222 7.55 3.82 8.42
6/3/2022 4:00:00 PM 21.6 70.88 0.222 7.55 3.89 8.39
6/3/2022 4:15:00 PM 21.57 70.826 0.223 7.54 3.71 8.36
6/3/2022 4:30:00 PM 21.53 70.754 0.223 7.53 4.32 8.33
6/3/2022 4:45:00 PM 21.53 70.754 0.224 7.53 3.83 8.33
6/3/2022 5:00:00 PM 21.48 70.664 0.224 7.52 3.98 8.29
6/3/2022 5:15:00 PM 21.45 70.61 0.224 7.52 3.99 8.28
6/3/2022 5:30:00 PM 21.37 70.466 0.225 7.51 3.79 8.26
6/3/2022 5:45:00 PM 21.29 70.32201 0.225 7.5 3.87 8.24
6/3/2022 6:00:00 PM 21.2 70.16 0.225 7.49 3.72 8.21
6/3/2022 6:15:00 PM 21.1 69.98 0.225 7.48 3.79 8.2
6/3/2022 6:30:00 PM 21.02 69.836 0.225 7.47 3.89 8.18
6/3/2022 6:45:00 PM 20.92 69.656 0.226 7.46 3.89 8.16
6/3/2022 7:00:00 PM 20.82 69.476 0.226 7.45 4.16 8.15
6/3/2022 7:15:00 PM 20.72 69.296 0.226 7.44 4.17 8.13
6/3/2022 7:30:00 PM 20.64 69.152 0.226 7.43 4.02 8.11
6/3/2022 7:45:00 PM 20.54 68.972 0.226 7.42 4.31 8.1
6/3/2022 8:00:00 PM 20.44 68.792 0.226 7.41 4.04 8.09
6/3/2022 8:15:00 PM 20.34 68.612 0.226 7.41 3.88 8.09
6/3/2022 8:30:00 PM 20.24 68.432 0.226 7.4 4.28 8.1
6/3/2022 8:45:00 PM 20.14 68.252 0.227 7.39 4.09 8.1
6/3/2022 9:00:00 PM 20.04 68.07201 0.227 7.39 4.24 8.09
6/3/2022 9:15:00 PM 19.95 67.91 0.227 7.38 4.13 8.09
6/3/2022 9:30:00 PM 19.86 67.748 0.227 7.38 4.21 8.1
6/3/2022 9:45:00 PM 19.77 67.586 0.227 7.38 4.05 8.11
6/3/2022 10:00:00 PM 19.68 67.424 0.227 7.37 4.47 8.13
6/3/2022 10:15:00 PM 19.59 67.262 0.227 7.37 4.05 8.14
6/3/2022 10:30:00 PM 19.5 67.1 0.227 7.37 4.62 8.16
6/3/2022 10:45:00 PM 19.42 66.956 0.227 7.37 4.13 8.17
6/3/2022 11:00:00 PM 19.34 66.812 0.227 7.36 4.26 8.17
6/3/2022 11:15:00 PM 19.27 66.686 0.227 7.36 5.06 8.18
6/3/2022 11:30:00 PM 19.19 66.542 0.227 7.36 4.09 8.22
6/3/2022 11:45:00 PM 19.12 66.416 0.227 7.36 4.36 8.23
6/4/2022 12:00:00 AM 19.04 66.272 0.227 7.36 3.96 8.24
6/4/2022 12:15:00 AM 18.97 66.146 0.227 7.35 4.53 8.26
6/4/2022 12:30:00 AM 18.9 66.02 0.228 7.35 4.33 8.26
6/4/2022 12:45:00 AM 18.83 65.894 0.228 7.35 4.26 8.27
6/4/2022 1:00:00 AM 18.76 65.768 0.228 7.35 4.18 8.31
6/4/2022 1:15:00 AM 18.7 65.66 0.228 7.34 3.95 8.31
6/4/2022 1:30:00 AM 18.63 65.534 0.228 7.32 4.28 8.33
6/4/2022 1:45:00 AM 18.56 65.408 0.228 7.32 4.11 8.32
6/4/2022 2:00:00 AM 18.5 65.3 0.23 7.32 3.85 8.36
6/4/2022 2:15:00 AM 18.44 65.192 0.229 7.32 4.02 8.37
6/4/2022 2:30:00 AM 18.37 65.066 0.229 7.32 4.02 8.38
6/4/2022 2:45:00 AM 18.31 64.958 0.229 7.32 3.81 8.4
6/4/2022 3:00:00 AM 18.24 64.832 0.229 7.32 3.81 8.42
6/4/2022 3:15:00 AM 18.18 64.724 0.229 7.32 3.73 8.43
6/4/2022 3:30:00 AM 18.1 64.58 0.233 7.32 3.76 8.42
6/4/2022 3:45:00 AM 18.04 64.472 0.234 7.32 3.89 8.45
6/4/2022 4:00:00 AM 17.96 64.328 0.233 7.31 3.74 8.45
6/4/2022 4:15:00 AM 17.9 64.22 0.233 7.32 3.98 8.48
6/4/2022 4:30:00 AM 17.83 64.094 0.234 7.31 3.88 8.5
6/4/2022 4:45:00 AM 17.76 63.968 0.235 7.31 3.88 8.49
6/4/2022 5:00:00 AM 17.69 63.842 0.235 7.31 4.98 8.51
6/4/2022 5:15:00 AM 17.62 63.716 0.234 7.31 4.25 8.52
6/4/2022 5:30:00 AM 17.55 63.59 0.233 7.3 3.69 8.55
6/4/2022 5:45:00 AM 17.48 63.464 0.235 7.31 4.34 8.57
6/4/2022 6:00:00 AM 17.42 63.356 0.234 7.31 4.02 8.58
6/4/2022 6:15:00 AM 17.36 63.248 0.234 7.31 3.84 8.61
6/4/2022 6:30:00 AM 17.3 63.14 0.244 7.32 3.74 8.64
6/4/2022 6:45:00 AM 17.25 63.05 0.24 7.32 3.96 8.67
6/4/2022 7:00:00 AM 17.22 62.996 0.24 7.33 3.92 8.71
6/4/2022 7:15:00 AM 17.18 62.924 0.24 7.34 4.78 8.75
6/4/2022 7:30:00 AM 17.18 62.924 0.24 7.35 4.86 8.8
6/4/2022 7:45:00 AM 17.19 62.942 0.24 7.36 3.48 8.84
6/4/2022 8:00:00 AM 17.21 62.978 0.241 7.37 3.32 8.88
6/4/2022 8:15:00 AM 17.24 63.032 0.241 7.39 3.36 8.92
6/4/2022 8:30:00 AM 17.28 63.104 0.242 7.39 3.79 8.94
6/4/2022 8:45:00 AM 17.33 63.194 0.244 7.41 3.59 8.96
6/4/2022 9:00:00 AM 17.4 63.32 0.243 7.41 102.86 8.98
6/4/2022 9:15:00 AM 17.47 63.446 0.234 7.42 4.41 8.97
6/4/2022 9:30:00 AM 17.55 63.59 0.234 7.44 2.94 9
6/4/2022 9:45:00 AM 17.64 63.752 0.236 7.45 3 9
6/4/2022 10:00:00 AM 17.74 63.932 0.236 7.46 5.11 9.02
6/4/2022 10:15:00 AM 17.85 64.13 0.237 7.47 5.5 9.03
6/4/2022 10:30:00 AM 17.98 64.364 0.238 7.48 4.98 9.01
6/4/2022 10:45:00 AM 18.12 64.616 0.238 7.48 2.85 9.01
6/4/2022 11:00:00 AM 18.29 64.922 0.238 7.5 3.74 9.02
6/4/2022 11:15:00 AM 18.48 65.264 0.238 7.51 82.63 9.03
6/4/2022 11:30:00 AM 18.67 65.606 0.238 7.51 7.43 9.01
6/4/2022 11:45:00 AM 18.88 65.984 0.238 7.53 2.61 9.01
6/4/2022 12:00:00 PM 19.1 66.38 0.238 7.54 2.87 8.98
6/4/2022 12:15:00 PM 19.32 66.776 0.238 7.55 2.49 8.96
6/4/2022 12:30:00 PM 19.56 67.208 0.238 7.56 2.51 8.94
6/4/2022 12:45:00 PM 19.78 67.604 0.238 7.56 2.78 8.92
6/4/2022 1:00:00 PM 20.04 68.07201 0.239 7.58 2.73 8.9
6/4/2022 1:15:00 PM 20.28 68.504 0.238 7.59 2.97 8.87
6/4/2022 1:30:00 PM 20.51 68.918 0.239 7.59 2.94 8.84
6/4/2022 1:45:00 PM 20.72 69.296 0.239 7.6 3.75 8.8
6/4/2022 2:00:00 PM 20.92 69.656 0.239 7.6 3.14 8.77
6/4/2022 2:15:00 PM 21.12 70.016 0.24 7.61 2.71 8.75
6/4/2022 2:30:00 PM 21.29 70.32201 0.24 7.62 3.68 8.72
6/4/2022 2:45:00 PM 21.43 70.574 0.241 7.61 3.34 8.68
6/4/2022 3:00:00 PM 21.55 70.79 0.241 7.62 2.57 8.65
6/4/2022 3:15:00 PM 21.65 70.97 0.241 7.62 2.34 8.62
6/4/2022 3:30:00 PM 21.72 71.096 0.241 7.61 2.57 8.56
6/4/2022 3:45:00 PM 21.78 71.204 0.239 7.6 2.29 8.53
6/4/2022 4:00:00 PM 21.79 71.222 0.236 7.6 2.47 8.49
6/4/2022 4:15:00 PM 21.79 71.222 0.236 7.59 2.61 8.43
6/4/2022 4:30:00 PM 21.77 71.186 0.235 7.58 2.4 8.41
6/4/2022 4:45:00 PM 21.74 71.132 0.235 7.57 2.51 8.37
6/4/2022 5:00:00 PM 21.69 71.042 0.237 7.57 2.93 8.34
6/4/2022 5:15:00 PM 21.59 70.862 0.236 7.55 2.92 8.3
6/4/2022 5:30:00 PM 21.51 70.718 0.236 7.55 2.75 8.26
6/4/2022 5:45:00 PM 21.45 70.61 0.236 7.54 2.69 8.24
6/4/2022 6:00:00 PM 21.34 70.412 0.237 7.52 2.79 8.2
6/4/2022 6:15:00 PM 21.24 70.232 0.237 7.52 2.64 8.2
6/4/2022 6:30:00 PM 21.14 70.052 0.237 7.51 2.72 8.18
6/4/2022 6:45:00 PM 21.03 69.854 0.239 7.49 3.49 8.16
6/4/2022 7:00:00 PM 20.92 69.656 0.245 7.48 4.41 8.13
6/4/2022 7:15:00 PM 20.78 69.404 0.238 7.47 2.74 8.11
6/4/2022 7:30:00 PM 20.65 69.17 0.165 7.45 3.59 8.08
6/4/2022 7:45:00 PM 20.5 68.9 0.238 7.45 2.56 8.08
6/4/2022 8:00:00 PM 20.35 68.63 0.239 7.43 3.12 8.08
6/4/2022 8:15:00 PM 20.21 68.378 0.236 7.42 11.57 8.07
6/4/2022 8:30:00 PM 20.06 68.108 0.241 7.41 5.22 8.07
6/4/2022 8:45:00 PM 19.9 67.82 0.239 7.41 4.05 8.09
6/4/2022 9:00:00 PM 19.74 67.532 0.242 7.4 4.53 8.09
6/4/2022 9:15:00 PM 19.58 67.244 0.24 7.39 3.4 8.11
6/4/2022 9:30:00 PM 19.43 66.974 0.249 7.39 5.72 8.13
6/4/2022 9:45:00 PM 19.27 66.686 0.248 7.38 4.86 8.16
6/4/2022 10:00:00 PM 19.11 66.398 0.248 7.38 3.71 8.17
6/4/2022 10:15:00 PM 18.96 66.128 0.249 7.38 3.34 8.21
6/4/2022 10:30:00 PM 18.81 65.858 0.248 7.38 3.22 8.25
6/4/2022 10:45:00 PM 18.67 65.606 0.248 7.37 3.21 8.27
6/4/2022 11:00:00 PM 18.53 65.354 0.248 7.37 3.58 8.29
6/4/2022 11:15:00 PM 18.4 65.12 0.248 7.38 3.5 8.34
6/4/2022 11:30:00 PM 18.28 64.904 0.244 7.38 3.29 8.36
6/4/2022 11:45:00 PM 18.16 64.688 0.24 7.37 3.58 8.38
6/5/2022 12:00:00 AM 18.05 64.49 0.24 7.37 3.36 8.39
6/5/2022 12:15:00 AM 17.95 64.31 0.24 7.37 3.32 8.43
6/5/2022 12:30:00 AM 17.85 64.13 0.24 7.37 3.43 8.44
6/5/2022 12:45:00 AM 17.76 63.968 0.241 7.37 3.17 8.46
6/5/2022 1:00:00 AM 17.66 63.788 0.241 7.36 3.18 8.48
6/5/2022 1:15:00 AM 17.56 63.608 0.241 7.37 3.6 8.51
6/5/2022 1:30:00 AM 17.46 63.428 0.241 7.36 3.35 8.52
6/5/2022 1:45:00 AM 17.37 63.266 0.241 7.37 3.21 8.55
6/5/2022 2:00:00 AM 17.29 63.122 0.241 7.35 3.23 8.56
6/5/2022 2:15:00 AM 17.2 62.96 0.241 7.35 3.32 8.58
6/5/2022 2:30:00 AM 17.11 62.798 0.241 7.33 3.42 8.59
6/5/2022 2:45:00 AM 17.02 62.636 0.241 7.33 3.26 8.61
6/5/2022 3:00:00 AM 16.94 62.492 0.241 7.33 3.45 8.63
6/5/2022 3:15:00 AM 16.86 62.348 0.242 7.33 3.15 8.66
6/5/2022 3:30:00 AM 16.77 62.186 0.241 7.33 3.15 8.67
6/5/2022 3:45:00 AM 16.69 62.042 0.241 7.34 3.07 8.69
6/5/2022 4:00:00 AM 16.6 61.88 0.242 7.34 3.38 8.73
6/5/2022 4:15:00 AM 16.52 61.736 0.242 7.35 3.17 8.75
6/5/2022 4:30:00 AM 16.44 61.592 0.242 7.32 3.29 8.76
6/5/2022 4:45:00 AM 16.36 61.448 0.242 7.33 3.4 8.77
6/5/2022 5:00:00 AM 16.27 61.286 0.242 7.32 3.46 8.78
6/5/2022 5:15:00 AM 16.2 61.16 0.242 7.32 3.55 8.8
6/5/2022 5:30:00 AM 16.12 61.016 0.242 7.33 3.04 8.83
6/5/2022 5:45:00 AM 16.04 60.872 0.242 7.32 3.34 8.85
6/5/2022 6:00:00 AM 15.96 60.728 0.242 7.32 3.15 8.89
6/5/2022 6:15:00 AM 15.9 60.62 0.242 7.32 3.2 8.92
6/5/2022 6:30:00 AM 15.84 60.512 0.242 7.33 3.05 8.97
6/5/2022 6:45:00 AM 15.79 60.422 0.243 7.34 3.06 9
6/5/2022 7:00:00 AM 15.76 60.368 0.243 7.35 3.13 9.06
6/5/2022 7:15:00 AM 15.73 60.314 0.16 7.36 6.34 9.12
6/5/2022 7:30:00 AM 15.74 60.332 0.243 7.38 3.11 9.18
6/5/2022 7:45:00 AM 15.75 60.35 0.243 7.39 3.09 9.23
6/5/2022 8:00:00 AM 15.79 60.422 0.243 7.41 2.91 9.28
6/5/2022 8:15:00 AM 15.82 60.476 0.241 7.43 5.04 9.34
6/5/2022 8:30:00 AM 15.85 60.53 0.243 7.44 4.76 9.37
6/5/2022 8:45:00 AM 15.89 60.602 0.243 7.47 2.93 9.43
6/5/2022 9:00:00 AM 15.93 60.674 0.243 7.48 2.89 9.46
6/5/2022 9:15:00 AM 16 60.8 0.243 7.5 3.03 9.5
6/5/2022 9:30:00 AM 16.11 60.998 0.243 7.52 2.84 9.54
6/5/2022 9:45:00 AM 16.2 61.16 0.243 7.54 2.89 9.58
6/5/2022 10:00:00 AM 16.26 61.268 0.243 7.56 2.94 9.6
6/5/2022 10:15:00 AM 16.36 61.448 0.243 7.57 2.75 9.63
6/5/2022 10:30:00 AM 16.46 61.628 0.243 7.59 2.67 9.64
6/5/2022 10:45:00 AM 16.6 61.88 0.243 7.61 2.6 9.66
6/5/2022 11:00:00 AM 16.68 62.024 0.243 7.62 2.71 9.67
6/5/2022 11:15:00 AM 16.78 62.204 0.248 7.63 2.64 9.69
6/5/2022 11:30:00 AM 16.9 62.42 0.252 7.65 2.76 9.71
6/5/2022 11:45:00 AM 17.01 62.618 0.253 7.67 2.88 9.7
6/5/2022 12:00:00 PM 17.16 62.888 0.253 7.68 2.6 9.7
6/5/2022 12:15:00 PM 17.3 63.14 0.253 7.69 3.03 9.68
6/5/2022 12:30:00 PM 17.52 63.536 0.257 7.69 2.62 9.64
6/5/2022 12:45:00 PM 17.73 63.914 0.277 7.69 4.32 9.6
6/5/2022 1:00:00 PM 17.93 64.274 0.258 7.71 2.51 9.59
6/5/2022 1:15:00 PM 18.13 64.634 0.258 7.71 2.75 9.54
6/5/2022 1:30:00 PM 18.37 65.066 0.258 7.72 2.6 9.51
6/5/2022 1:45:00 PM 18.63 65.534 0.259 7.72 3.4 9.46
6/5/2022 2:00:00 PM 18.86 65.948 0.259 7.72 2.7 9.4
6/5/2022 2:15:00 PM 19.1 66.38 0.259 7.72 2.6 9.36
6/5/2022 2:30:00 PM 19.31 66.758 0.259 7.72 2.72 9.29
6/5/2022 2:45:00 PM 19.5 67.1 0.259 7.71 2.65 9.24
6/5/2022 3:00:00 PM 19.66 67.388 0.259 7.71 3.48 9.19
6/5/2022 3:15:00 PM 19.83 67.694 0.261 7.71 2.77 9.13
6/5/2022 3:30:00 PM 19.96 67.92799 0.26 7.7 3.31 9.07
6/5/2022 3:45:00 PM 20.05 68.09 0.261 7.7 2.55 9.02
6/5/2022 4:00:00 PM 20.1 68.18 0.262 7.68 2.56 8.96
6/5/2022 4:15:00 PM 20.16 68.288 0.262 7.68 2.51 8.92
6/5/2022 4:30:00 PM 20.19 68.342 0.262 7.67 2.68 8.87
6/5/2022 4:45:00 PM 20.22 68.396 0.262 7.66 2.93 8.82
6/5/2022 5:00:00 PM 20.22 68.396 0.268 7.64 3.14 8.76
6/5/2022 5:15:00 PM 20.21 68.378 0.255 7.63 2.66 8.72
6/5/2022 5:30:00 PM 20.2 68.36 0.269 7.62 2.75 8.66
6/5/2022 5:45:00 PM 20.17 68.306 0.255 7.6 2.79 8.62
6/5/2022 6:00:00 PM 20.15 68.27 0.263 7.59 2.9 8.58
6/5/2022 6:15:00 PM 20.12 68.216 0.264 7.57 3.31 8.54
6/5/2022 6:30:00 PM 20.08 68.144 0.272 7.56 2.66 8.49
6/5/2022 6:45:00 PM 20.03 68.054 0.259 7.55 2.67 8.45
6/5/2022 7:00:00 PM 19.98 67.964 0.256 7.53 2.74 8.41
6/5/2022 7:15:00 PM 19.92 67.856 0.257 7.51 2.83 8.35
6/5/2022 7:30:00 PM 19.85 67.73 0.258 7.5 2.63 8.31
6/5/2022 7:45:00 PM 19.79 67.622 0.256 7.48 2.68 8.27
6/5/2022 8:00:00 PM 19.71 67.478 0.257 7.47 3.41 8.24
6/5/2022 8:15:00 PM 19.62 67.316 0.259 7.46 3.11 8.23
6/5/2022 8:30:00 PM 19.53 67.154 0.259 7.45 2.73 8.21
6/5/2022 8:45:00 PM 19.43 66.974 0.256 7.44 2.92 8.21
6/5/2022 9:00:00 PM 19.32 66.776 0.276 7.43 2.59 8.19
6/5/2022 9:15:00 PM 19.21 66.578 0.263 7.43 2.9 8.19
6/5/2022 9:30:00 PM 19.09 66.362 0.264 7.42 3.42 8.2
6/5/2022 9:45:00 PM 18.99 66.182 0.264 7.42 2.83 8.23
6/5/2022 10:00:00 PM 18.86 65.948 0.266 7.41 2.79 8.24
6/5/2022 10:15:00 PM 18.75 65.75 0.267 7.41 2.94 8.26
6/5/2022 10:30:00 PM 18.64 65.552 0.268 7.41 2.92 8.28
6/5/2022 10:45:00 PM 18.53 65.354 0.268 7.4 3.7 8.3
6/5/2022 11:00:00 PM 18.41 65.138 0.267 7.4 3.32 8.32
6/5/2022 11:15:00 PM 18.3 64.94 0.261 7.4 3.06 8.36
6/5/2022 11:30:00 PM 18.19 64.742 0.256 7.4 3.18 8.38
6/5/2022 11:45:00 PM 18.08 64.544 0.255 7.4 2.85 8.39
6/6/2022 12:00:00 AM 17.97 64.346 0.254 7.39 3.07 8.41
6/6/2022 12:15:00 AM 17.87 64.166 0.25 7.39 3.49 8.45
6/6/2022 12:30:00 AM 17.76 63.968 0.249 7.39 2.85 8.46
6/6/2022 12:45:00 AM 17.66 63.788 0.248 7.39 3.09 8.49
6/6/2022 1:00:00 AM 17.57 63.626 0.248 7.38 3.21 8.51
6/6/2022 1:15:00 AM 17.48 63.464 0.248 7.38 2.96 8.53
6/6/2022 1:30:00 AM 17.4 63.32 0.248 7.38 2.88 8.55
6/6/2022 1:45:00 AM 17.33 63.194 0.248 7.38 3.14 8.57
6/6/2022 2:00:00 AM 17.25 63.05 0.248 7.37 3.19 8.59
6/6/2022 2:15:00 AM 17.18 62.924 0.248 7.37 3 8.6
6/6/2022 2:30:00 AM 17.11 62.798 0.248 7.37 3.45 8.62
6/6/2022 2:45:00 AM 17.04 62.672 0.248 7.37 2.95 8.63
6/6/2022 3:00:00 AM 16.98 62.564 0.248 7.37 3.01 8.65
6/6/2022 3:15:00 AM 16.91 62.438 0.248 7.36 2.93 8.66
6/6/2022 3:30:00 AM 16.84 62.312 0.248 7.36 2.8 8.67
6/6/2022 3:45:00 AM 16.77 62.186 0.248 7.35 3.38 8.69
6/6/2022 4:00:00 AM 16.7 62.06 0.248 7.35 3.14 8.71
6/6/2022 4:15:00 AM 16.64 61.952 0.248 7.35 2.89 8.72
6/6/2022 4:30:00 AM 16.58 61.844 0.248 7.34 3.39 8.72
6/6/2022 4:45:00 AM 16.52 61.736 0.247 7.34 3.24 8.75
6/6/2022 5:00:00 AM 16.45 61.61 0.247 7.34 2.9 8.77
6/6/2022 5:15:00 AM 16.39 61.502 0.248 7.34 3.28 8.79
6/6/2022 5:30:00 AM 16.32 61.376 0.247 7.34 2.96 8.79
6/6/2022 5:45:00 AM 16.27 61.286 0.248 7.34 3.77 8.82
6/6/2022 6:00:00 AM 16.2 61.16 0.247 7.34 3.98 8.85
6/6/2022 6:15:00 AM 16.15 61.07 0.247 7.35 2.91 8.89
6/6/2022 6:30:00 AM 16.1 60.98 0.248 7.35 5.94 8.93
6/6/2022 6:45:00 AM 16.07 60.926 0.248 7.36 2.87 8.97
6/6/2022 7:00:00 AM 16.04 60.872 0.248 7.37 2.82 9.03
6/6/2022 7:15:00 AM 16.02 60.836 0.248 7.38 3.03 9.08
6/6/2022 7:30:00 AM 16.04 60.872 0.248 7.4 3.37 9.16
6/6/2022 7:45:00 AM 16.08 60.944 0.248 7.42 3.88 9.23
6/6/2022 8:00:00 AM 16.12 61.016 0.248 7.44 2.56 9.29
6/6/2022 8:15:00 AM 16.19 61.142 0.248 7.46 3.75 9.34
6/6/2022 8:30:00 AM 16.25 61.25 0.251 7.47 2.73 9.38
6/6/2022 8:45:00 AM 16.33 61.394 0.248 7.48 2.96 9.41
6/6/2022 9:00:00 AM 16.42 61.556 0.248 7.5 2.5 9.43
6/6/2022 9:15:00 AM 16.52 61.736 0.248 7.52 2.52 9.45
6/6/2022 9:30:00 AM 16.62 61.916 0.257 7.53 2.58 9.46
6/6/2022 9:45:00 AM 16.74 62.132 0.26 7.54 2.6 9.47
6/6/2022 10:00:00 AM 16.86 62.348 0.262 7.56 2.62 9.48
6/6/2022 10:15:00 AM 17 62.6 0.265 7.58 2.45 9.49
6/6/2022 10:30:00 AM 17.13 62.834 0.267 7.58 2.48 9.48
6/6/2022 10:45:00 AM 17.28 63.104 0.271 7.6 2.45 9.49
6/6/2022 11:00:00 AM 17.45 63.41 0.267 7.61 2.52 9.49
6/6/2022 11:15:00 AM 17.64 63.752 0.266 7.63 2.64 9.48
6/6/2022 11:30:00 AM 17.85 64.13 0.266 7.64 2.37 9.47
6/6/2022 11:45:00 AM 18.08 64.544 0.267 7.66 2.56 9.46
6/6/2022 12:00:00 PM 18.33 64.994 0.265 7.67 2.45 9.46
6/6/2022 12:15:00 PM 18.57 65.426 0.264 7.69 2.46 9.45
6/6/2022 12:30:00 PM 18.82 65.876 0.265 7.7 2.68 9.42
6/6/2022 12:45:00 PM 19.1 66.38 0.266 7.72 2.55 9.42
6/6/2022 1:00:00 PM 19.39 66.902 0.265 7.74 2.46 9.4
6/6/2022 1:15:00 PM 19.67 67.406 0.264 7.74 2.4 9.35
6/6/2022 1:30:00 PM 19.93 67.874 0.263 7.75 2.47 9.31
6/6/2022 1:45:00 PM 20.22 68.396 0.261 7.76 2.57 9.27
6/6/2022 2:00:00 PM 20.47 68.846 0.262 7.76 2.43 9.23
6/6/2022 2:15:00 PM 20.72 69.296 0.262 7.78 2.42 9.19
6/6/2022 2:30:00 PM 20.93 69.674 0.262 7.78 2.44 9.16
6/6/2022 2:45:00 PM 21.12 70.016 0.263 7.78 2.62 9.12
6/6/2022 3:00:00 PM 21.32 70.376 0.262 7.8 2.78 9.11
6/6/2022 3:15:00 PM 21.38 70.484 0.262 7.8 2.37 9.06
6/6/2022 3:30:00 PM 21.5 70.7 0.261 7.8 2.48 9.02
6/6/2022 3:45:00 PM 21.58 70.844 0.261 7.79 2.39 8.96
6/6/2022 4:00:00 PM 21.6 70.88 0.261 7.79 2.56 8.95
6/6/2022 4:15:00 PM 21.6 70.88 0.262 7.79 2.43 8.9
6/6/2022 4:30:00 PM 21.65 70.97 0.261 7.78 2.39 8.88
6/6/2022 4:45:00 PM 21.67 71.006 0.259 7.78 2.48 8.83
6/6/2022 5:00:00 PM 21.64 70.952 0.258 7.76 2.51 8.78
6/6/2022 5:15:00 PM 21.62 70.916 0.258 7.74 2.49 8.73
6/6/2022 5:30:00 PM 21.59 70.862 0.257 7.72 2.51 8.68
6/6/2022 5:45:00 PM 21.55 70.79 0.258 7.71 2.49 8.63
6/6/2022 6:00:00 PM 21.5 70.7 0.255 7.68 2.41 8.57
6/6/2022 6:15:00 PM 21.49 70.682 0.256 7.67 2.4 8.54
6/6/2022 6:30:00 PM 21.45 70.61 0.256 7.65 2.19 8.5
6/6/2022 6:45:00 PM 21.41 70.538 0.256 7.64 2.44 8.46
6/6/2022 7:00:00 PM 21.35 70.43 0.257 7.61 2.49 8.38
6/6/2022 7:15:00 PM 21.29 70.32201 0.255 7.59 2.41 8.32
6/6/2022 7:30:00 PM 21.21 70.17799 0.253 7.57 2.4 8.24
6/6/2022 7:45:00 PM 21.14 70.052 0.254 7.54 2.44 8.16
6/6/2022 8:00:00 PM 21.06 69.908 0.254 7.52 2.58 8.1
6/6/2022 8:15:00 PM 20.97 69.746 0.256 7.5 2.3 8.06
6/6/2022 8:30:00 PM 20.88 69.584 0.258 7.48 2.42 8.01
6/6/2022 8:45:00 PM 20.78 69.404 0.262 7.46 2.48 7.97
6/6/2022 9:00:00 PM 20.68 69.224 0.264 7.45 2.46 7.95
6/6/2022 9:15:00 PM 20.57 69.026 0.268 7.44 2.75 7.94
6/6/2022 9:30:00 PM 20.47 68.846 0.273 7.43 2.64 7.94
6/6/2022 9:45:00 PM 20.36 68.648 0.276 7.42 2.73 7.94
6/6/2022 10:00:00 PM 20.25 68.45 0.278 7.42 2.6 7.95
6/6/2022 10:15:00 PM 20.15 68.27 0.28 7.42 2.6 7.98
6/6/2022 10:30:00 PM 20.03 68.054 0.281 7.41 2.75 7.99
6/6/2022 10:45:00 PM 19.92 67.856 0.279 7.41 3.19 8
6/6/2022 11:00:00 PM 19.81 67.658 0.279 7.41 2.55 8.04
6/6/2022 11:15:00 PM 19.69 67.442 0.28 7.41 2.64 8.06
6/6/2022 11:30:00 PM 19.57 67.226 0.28 7.4 2.82 8.08
6/6/2022 11:45:00 PM 19.46 67.028 0.276 7.4 2.7 8.11
6/7/2022 12:00:00 AM 19.35 66.83 0.269 7.39 2.87 8.11
6/7/2022 12:15:00 AM 19.25 66.65 0.268 7.4 2.9 8.15
6/7/2022 12:30:00 AM 19.15 66.47 0.262 7.39 3.66 8.17
6/7/2022 12:45:00 AM 19.06 66.308 0.262 7.39 2.65 8.19
6/7/2022 1:00:00 AM 18.98 66.164 0.262 7.39 2.86 8.19
6/7/2022 1:15:00 AM 18.91 66.038 0.262 7.39 2.66 8.22
6/7/2022 1:30:00 AM 18.84 65.912 0.262 7.39 2.5 8.24
6/7/2022 1:45:00 AM 18.77 65.786 0.262 7.39 2.8 8.26
6/7/2022 2:00:00 AM 18.68 65.624 0.262 7.39 2.8 8.27
6/7/2022 2:15:00 AM 18.6 65.48 0.263 7.39 2.96 8.28
6/7/2022 2:30:00 AM 18.52 65.336 0.263 7.39 2.65 8.3
6/7/2022 2:45:00 AM 18.44 65.192 0.264 7.39 2.7 8.33
6/7/2022 3:00:00 AM 18.37 65.066 0.263 7.38 3.11 8.33
6/7/2022 3:15:00 AM 18.3 64.94 0.262 7.39 2.8 8.35
6/7/2022 3:30:00 AM 18.23 64.814 0.261 7.39 3.14 8.37
6/7/2022 3:45:00 AM 18.16 64.688 0.262 7.39 2.78 8.38
6/7/2022 4:00:00 AM 18.09 64.562 0.262 7.39 2.85 8.39
6/7/2022 4:15:00 AM 18.02 64.436 0.261 7.39 3.11 8.41
6/7/2022 4:30:00 AM 17.94 64.292 0.26 7.38 3.18 8.41
6/7/2022 4:45:00 AM 17.87 64.166 0.26 7.39 2.81 8.44
6/7/2022 5:00:00 AM 17.8 64.04 0.261 7.38 2.83 8.45
6/7/2022 5:15:00 AM 17.72 63.896 0.26 7.38 3.13 8.46
6/7/2022 5:30:00 AM 17.65 63.77 0.262 7.38 3.05 8.48
6/7/2022 5:45:00 AM 17.57 63.626 0.262 7.37 2.71 8.49
6/7/2022 6:00:00 AM 17.53 63.554 0.262 7.38 3.1 8.56
6/7/2022 6:15:00 AM 17.48 63.464 0.26 7.39 2.56 8.63
6/7/2022 6:30:00 AM 17.43 63.374 0.263 7.4 3.43 8.7
6/7/2022 6:45:00 AM 17.4 63.32 0.262 7.4 3.31 8.75
6/7/2022 7:00:00 AM 17.37 63.266 0.261 7.41 3.23 8.83
6/7/2022 7:15:00 AM 17.37 63.266 0.26 7.43 4.15 8.94
6/7/2022 7:30:00 AM 17.41 63.338 0.263 7.46 3.04 9.08
6/7/2022 7:45:00 AM 17.43 63.374 0.271 7.48 2.49 9.15
6/7/2022 8:00:00 AM 17.48 63.464 0.274 7.51 2.66 9.24
6/7/2022 8:15:00 AM 17.49 63.482 0.274 7.53 2.57 9.28
6/7/2022 8:30:00 AM 17.54 63.572 0.276 7.55 3.97 9.34
6/7/2022 8:45:00 AM 17.6 63.68 0.277 7.57 2.61 9.38
6/7/2022 9:00:00 AM 17.64 63.752 0.279 7.59 2.68 9.43
6/7/2022 9:15:00 AM 17.74 63.932 0.278 7.61 2.43 9.49
6/7/2022 9:30:00 AM 17.8 64.04 0.28 7.63 2.47 9.54
6/7/2022 9:45:00 AM 17.82 64.076 0.28 7.65 2.3 9.57
6/7/2022 10:00:00 AM 17.86 64.148 0.282 7.67 2.51 9.58
6/7/2022 10:15:00 AM 17.92 64.256 0.283 7.69 2.19 9.62
6/7/2022 10:30:00 AM 18.04 64.472 0.282 7.71 2.46 9.65
6/7/2022 10:45:00 AM 18.17 64.706 0.284 7.74 2.2 9.68
6/7/2022 11:00:00 AM 18.28 64.904 0.282 7.76 2.23 9.7
6/7/2022 11:15:00 AM 18.36 65.048 0.282 7.78 2.46 9.7
6/7/2022 11:30:00 AM 18.47 65.246 0.282 7.8 2.69 9.72
6/7/2022 11:45:00 AM 18.64 65.552 0.282 7.82 2.19 9.75
6/7/2022 12:00:00 PM 18.84 65.912 0.283 7.85 2.1 9.77
6/7/2022 12:15:00 PM 18.97 66.146 0.282 7.86 2.59 9.75
6/7/2022 12:30:00 PM 19.03 66.254 0.283 7.87 2.11 9.72
6/7/2022 12:45:00 PM 19.01 66.218 0.283 7.84 2.29 9.57
6/7/2022 1:00:00 PM 19 66.2 0.284 7.8 2.21 9.44
6/7/2022 1:15:00 PM 19.01 66.218 0.285 7.77 2.2 9.31
6/7/2022 1:30:00 PM 19.04 66.272 0.285 7.74 2.13 9.23
6/7/2022 1:45:00 PM 19.07 66.326 0.284 7.72 2.17 9.18
6/7/2022 2:00:00 PM 19.12 66.416 0.285 7.72 3.23 9.17
6/7/2022 2:15:00 PM 19.17 66.506 0.285 7.71 4.95 9.17
6/7/2022 2:30:00 PM 19.16 66.488 0.286 7.69 3.65 9.05
6/7/2022 2:45:00 PM 19.17 66.506 0.287 7.67 2.09 8.99
6/7/2022 3:00:00 PM 19.17 66.506 0.288 7.65 1.94 8.88
6/7/2022 3:15:00 PM 19.17 66.506 0.288 7.63 2.17 8.86
6/7/2022 3:30:00 PM 19.2 66.56 0.288 7.63 2.16 8.87
6/7/2022 3:45:00 PM 19.22 66.596 0.288 7.63 4.25 8.88
6/7/2022 4:00:00 PM 19.26 66.668 0.289 7.65 2.11 8.94
6/7/2022 4:15:00 PM 19.24 66.632 0.289 7.63 2.06 8.83
6/7/2022 4:30:00 PM 19.25 66.65 0.288 7.61 1.99 8.8
6/7/2022 4:45:00 PM 19.24 66.632 0.288 7.59 2.02 8.69
6/7/2022 5:00:00 PM 19.22 66.596 0.286 7.56 2.53 8.58
6/7/2022 5:15:00 PM 19.25 66.65 0.286 7.57 2.12 8.66
6/7/2022 5:30:00 PM 19.23 66.614 0.286 7.54 2.03 8.54
6/7/2022 5:45:00 PM 19.24 66.632 0.287 7.54 2.15 8.58
6/7/2022 6:00:00 PM 19.22 66.596 0.288 7.53 2.45 8.48
6/7/2022 6:15:00 PM 19.19 66.542 0.289 7.51 2.34 8.45
6/7/2022 6:30:00 PM 19.19 66.542 0.288 7.51 2.7 8.48
6/7/2022 6:45:00 PM 19.18 66.524 0.288 7.51 1.94 8.49
6/7/2022 7:00:00 PM 19.17 66.506 0.287 7.5 2.36 8.49
6/7/2022 7:15:00 PM 19.15 66.47 0.287 7.49 2.59 8.41
6/7/2022 7:30:00 PM 19.13 66.434 0.286 7.47 2 8.32
6/7/2022 7:45:00 PM 19.1 66.38 0.286 7.45 2.39 8.28
6/7/2022 8:00:00 PM 19.05 66.29 0.286 7.44 2.82 8.23
6/7/2022 8:15:00 PM 19 66.2 0.287 7.42 2.79 8.21
6/7/2022 8:30:00 PM 18.98 66.164 0.286 7.41 2.94 8.19
6/7/2022 8:45:00 PM 18.94 66.092 0.286 7.41 2.75 8.18
6/7/2022 9:00:00 PM 18.91 66.038 0.286 7.4 2.84 8.17
6/7/2022 9:15:00 PM 18.88 65.984 0.285 7.4 3.09 8.17
6/7/2022 9:30:00 PM 18.84 65.912 0.285 7.4 3.11 8.18
6/7/2022 9:45:00 PM 18.8 65.84 0.286 7.4 2.82 8.19
6/7/2022 10:00:00 PM 18.77 65.786 0.286 7.39 3.07 8.19
6/7/2022 10:15:00 PM 18.73 65.714 0.288 7.39 2.82 8.21
6/7/2022 10:30:00 PM 18.71 65.67799 0.287 7.39 2.89 8.22
6/7/2022 10:45:00 PM 18.69 65.642 0.286 7.39 2.64 8.22
6/7/2022 11:00:00 PM 18.67 65.606 0.286 7.39 3.06 8.23
6/7/2022 11:15:00 PM 18.65 65.57 0.285 7.39 3 8.24
6/7/2022 11:30:00 PM 18.63 65.534 0.285 7.39 3.14 8.24
6/7/2022 11:45:00 PM 18.6 65.48 0.286 7.39 2.89 8.25
6/8/2022 12:00:00 AM 18.58 65.444 0.286 7.39 3.19 8.27
6/8/2022 12:15:00 AM 18.55 65.39 0.287 7.39 2.72 8.27
6/8/2022 12:30:00 AM 18.53 65.354 0.289 7.39 3.27 8.28
6/8/2022 12:45:00 AM 18.5 65.3 0.289 7.39 3.2 8.3
6/8/2022 1:00:00 AM 18.45 65.21 0.289 7.39 3 8.3
6/8/2022 1:15:00 AM 18.42 65.156 0.288 7.38 3.29 8.3
6/8/2022 1:30:00 AM 18.39 65.102 0.289 7.38 3.08 8.3
6/8/2022 1:45:00 AM 18.37 65.066 0.288 7.38 3.19 8.32
6/8/2022 2:00:00 AM 18.36 65.048 0.291 7.39 3.22 8.32
6/8/2022 2:15:00 AM 18.34 65.012 0.291 7.38 3.16 8.33
6/8/2022 2:30:00 AM 18.33 64.994 0.293 7.39 2.88 8.34
6/8/2022 2:45:00 AM 18.31 64.958 0.293 7.38 3.08 8.34
6/8/2022 3:00:00 AM 18.3 64.94 0.295 7.39 3.09 8.37
6/8/2022 3:15:00 AM 18.28 64.904 0.295 7.39 2.95 8.37
6/8/2022 3:30:00 AM 18.26 64.868 0.296 7.39 3.18 8.36
6/8/2022 3:45:00 AM 18.25 64.85 0.295 7.39 3.08 8.37
6/8/2022 4:00:00 AM 18.23 64.814 0.296 7.38 2.95 8.37
6/8/2022 4:15:00 AM 18.21 64.778 0.295 7.39 2.93 8.38
6/8/2022 4:30:00 AM 18.2 64.76 0.296 7.38 2.91 8.38
6/8/2022 4:45:00 AM 18.19 64.742 0.296 7.39 2.8 8.39
6/8/2022 5:00:00 AM 18.17 64.706 0.293 7.39 3.19 8.39
6/8/2022 5:15:00 AM 18.14 64.652 0.292 7.4 2.96 8.4
6/8/2022 5:30:00 AM 18.09 64.562 0.291 7.4 3.43 8.41
6/8/2022 5:45:00 AM 18.05 64.49 0.289 7.41 4.18 8.44
6/8/2022 6:00:00 AM 17.99 64.382 0.287 7.41 3.02 8.47
6/8/2022 6:15:00 AM 17.95 64.31 0.289 7.42 3.05 8.53
6/8/2022 6:30:00 AM 17.89 64.202 0.288 7.43 3.1 8.56
6/8/2022 6:45:00 AM 17.83 64.094 0.29 7.43 3.13 8.59
6/8/2022 7:00:00 AM 17.79 64.022 0.289 7.44 5.68 8.62
6/8/2022 7:15:00 AM 17.76 63.968 0.29 7.45 2.95 8.67
6/8/2022 7:30:00 AM 17.77 63.986 0.29 7.46 2.57 8.77
6/8/2022 7:45:00 AM 17.79 64.022 0.293 7.48 3.67 8.86
6/8/2022 8:00:00 AM 17.8 64.04 0.296 7.49 3.64 8.9
6/8/2022 8:15:00 AM 17.84 64.112 0.297 7.51 2.92 8.97
6/8/2022 8:30:00 AM 17.87 64.166 0.298 7.52 2.93 9.05
6/8/2022 8:45:00 AM 17.79 64.022 0.296 7.52 2.54 9.01
6/8/2022 9:00:00 AM 17.92 64.256 0.297 7.55 2.45 9.15
6/8/2022 9:15:00 AM 18.01 64.418 0.298 7.57 2.59 9.21
6/8/2022 9:30:00 AM 18.07 64.526 0.295 7.58 2.82 9.22
6/8/2022 9:45:00 AM 18.13 64.634 0.294 7.59 2.41 9.24
6/8/2022 10:00:00 AM 18.2 64.76 0.293 7.61 2.42 9.29
6/8/2022 10:15:00 AM 18.16 64.688 0.29 7.61 2.2 9.24
6/8/2022 10:30:00 AM 18.28 64.904 0.29 7.63 2.35 9.33
6/8/2022 10:45:00 AM 18.41 65.138 0.289 7.65 2.11 9.38
6/8/2022 11:00:00 AM 18.45 65.21 0.288 7.67 2.11 9.38
6/8/2022 11:15:00 AM 18.48 65.264 0.288 7.67 5.33 9.35
6/8/2022 11:30:00 AM 18.58 65.444 0.288 7.69 2.14 9.41
6/8/2022 11:45:00 AM 18.8 65.84 0.288 7.71 2.23 9.46
6/8/2022 12:00:00 PM 18.97 66.146 0.287 7.74 2.5 9.47
6/8/2022 12:15:00 PM 19.14 66.452 0.286 7.77 2.23 9.49
6/8/2022 12:30:00 PM 19.32 66.776 0.286 7.78 2.24 9.48
6/8/2022 12:45:00 PM 19.6 67.28 0.287 7.81 2.16 9.53
6/8/2022 1:00:00 PM 19.87 67.766 0.286 7.83 2.02 9.5
6/8/2022 1:15:00 PM 20.05 68.09 0.287 7.84 7.67 9.45
6/8/2022 1:30:00 PM 20.13 68.234 0.287 7.84 2.32 9.4
6/8/2022 1:45:00 PM 20.37 68.666 0.287 7.85 2.1 9.39
6/8/2022 2:00:00 PM 20.55 68.99 0.286 7.86 3.1 9.35
6/8/2022 2:15:00 PM 20.7 69.26 0.286 7.86 3.18 9.31
6/8/2022 2:30:00 PM 20.84 69.512 0.286 7.86 2.69 9.29
6/8/2022 2:45:00 PM 20.99 69.782 0.285 7.87 1.89 9.27
6/8/2022 3:00:00 PM 21.12 70.016 0.285 7.87 2.06 9.2
6/8/2022 3:15:00 PM 21.25 70.25 0.284 7.86 1.98 9.15
6/8/2022 3:30:00 PM 21.35 70.43 0.283 7.85 2.05 9.08
6/8/2022 3:45:00 PM 21.43 70.574 0.283 7.84 2.1 9.01
6/8/2022 4:00:00 PM 21.46 70.628 0.283 7.82 1.79 8.94
6/8/2022 4:15:00 PM 21.46 70.628 0.282 7.81 1.89 8.88
6/8/2022 4:30:00 PM 21.43 70.574 0.283 7.8 1.85 8.83
6/8/2022 4:45:00 PM 21.41 70.538 0.282 7.77 1.9 8.78
6/8/2022 5:00:00 PM 21.38 70.484 0.28 7.76 2.03 8.73
6/8/2022 5:15:00 PM 21.34 70.412 0.28 7.73 1.93 8.67
6/8/2022 5:30:00 PM 21.3 70.34 0.281 7.72 1.9 8.62
6/8/2022 5:45:00 PM 21.26 70.268 0.281 7.7 2.07 8.57
6/8/2022 6:00:00 PM 21.2 70.16 0.28 7.68 2.22 8.51
6/8/2022 6:15:00 PM 21.17 70.106 0.281 7.66 1.99 8.48
6/8/2022 6:30:00 PM 21.13 70.034 0.28 7.65 2 8.45
6/8/2022 6:45:00 PM 21.03 69.854 0.281 7.61 2.09 8.33
6/8/2022 7:00:00 PM 20.97 69.746 0.28 7.59 1.94 8.29
6/8/2022 7:15:00 PM 20.9 69.62 0.278 7.57 2.11 8.22
6/8/2022 7:30:00 PM 20.85 69.53 0.278 7.55 2.02 8.2
6/8/2022 7:45:00 PM 20.78 69.404 0.279 7.54 2.27 8.16
6/8/2022 8:00:00 PM 20.71 69.278 0.279 7.52 2.28 8.11
6/8/2022 8:15:00 PM 20.63 69.134 0.279 7.51 2.08 8.07
6/8/2022 8:30:00 PM 20.55 68.99 0.278 7.49 2.24 8.02
6/8/2022 8:45:00 PM 20.45 68.81 0.28 7.48 2.36 8
6/8/2022 9:00:00 PM 20.35 68.63 0.28 7.46 2.75 7.97
6/8/2022 9:15:00 PM 20.25 68.45 0.28 7.45 2.97 7.96
6/8/2022 9:30:00 PM 20.14 68.252 0.28 7.45 2.32 7.97
6/8/2022 9:45:00 PM 20.02 68.036 0.28 7.44 2.55 7.97
6/8/2022 10:00:00 PM 19.91 67.838 0.28 7.44 2.45 7.99
6/8/2022 10:15:00 PM 19.8 67.64 0.28 7.43 2.35 8
6/8/2022 10:30:00 PM 19.69 67.442 0.281 7.43 2.54 8.02
6/8/2022 10:45:00 PM 19.58 67.244 0.281 7.42 2.39 8.04
6/8/2022 11:00:00 PM 19.48 67.064 0.281 7.42 2.67 8.05
6/8/2022 11:15:00 PM 19.38 66.884 0.281 7.41 2.87 8.07
6/8/2022 11:30:00 PM 19.28 66.704 0.279 7.41 2.5 8.09
6/8/2022 11:45:00 PM 19.2 66.56 0.279 7.41 2.51 8.11
6/9/2022 12:00:00 AM 19.12 66.416 0.279 7.4 2.33 8.12
6/9/2022 12:15:00 AM 19.05 66.29 0.282 7.4 2.47 8.14
6/9/2022 12:30:00 AM 18.97 66.146 0.281 7.4 2.59 8.14
6/9/2022 12:45:00 AM 18.91 66.038 0.278 7.4 2.5 8.17
6/9/2022 1:00:00 AM 18.84 65.912 0.282 7.4 2.49 8.17
6/9/2022 1:15:00 AM 18.79 65.82201 0.279 7.4 2.47 8.18
6/9/2022 1:30:00 AM 18.72 65.696 0.276 7.4 2.64 8.2
6/9/2022 1:45:00 AM 18.66 65.588 0.274 7.4 2.64 8.21
6/9/2022 2:00:00 AM 18.6 65.48 0.278 7.39 2.84 8.22
6/9/2022 2:15:00 AM 18.49 65.282 0.267 7.4 3.21 8.27
6/9/2022 2:30:00 AM 18.44 65.192 0.262 7.39 4.52 8.27
6/9/2022 2:45:00 AM 18.36 65.048 0.258 7.39 4.57 8.29
6/9/2022 3:00:00 AM 18.28 64.904 0.256 7.38 8.15 8.3
6/9/2022 3:15:00 AM 18.19 64.742 0.249 7.37 7.68 8.34
6/9/2022 3:30:00 AM 18.08 64.544 0.243 7.36 10.6 8.35
6/9/2022 3:45:00 AM 17.97 64.346 0.238 7.35 14.01 8.39
6/9/2022 4:00:00 AM 17.88 64.184 0.235 7.34 18.6 8.42
6/9/2022 4:15:00 AM 17.78 64.004 0.229 7.34 20.89 8.45
6/9/2022 4:30:00 AM 17.72 63.896 0.23 7.34 22.27 8.47
6/9/2022 4:45:00 AM 17.64 63.752 0.241 7.34 24.56 8.49
6/9/2022 5:00:00 AM 17.48 63.464 0.241 7.33 38.79 8.54
6/9/2022 5:15:00 AM 17.38 63.284 0.225 7.33 54.39 8.6
6/9/2022 5:30:00 AM 17.34 63.212 0.202 7.32 56.8 8.64
6/9/2022 5:45:00 AM 17.35 63.23 0.195 7.32 49.04 8.65
6/9/2022 6:00:00 AM 17.32 63.176 0.191 7.32 42.72 8.65
6/9/2022 6:15:00 AM 17.23 63.014 0.189 7.31 47.66 8.68
6/9/2022 6:30:00 AM 17.12 62.816 0.195 7.31 50.66 8.72
6/9/2022 6:45:00 AM 17.05 62.69 0.201 7.31 53.41 8.75
6/9/2022 7:00:00 AM 17.05 62.69 0.218 7.33 47.62 8.76
6/9/2022 7:15:00 AM 17.09 62.762 0.247 7.35 42.73 8.77
6/9/2022 7:30:00 AM 17.12 62.816 0.263 7.36 46.59 8.78
6/9/2022 7:45:00 AM 17.23 63.014 0.251 7.37 42.24 8.76
6/9/2022 8:00:00 AM 17.39 63.302 0.252 7.38 38.38 8.74
6/9/2022 8:15:00 AM 17.51 63.518 0.249 7.39 35.02 8.74
6/9/2022 8:30:00 AM 17.6 63.68 0.245 7.39 31.08 8.74
6/9/2022 8:45:00 AM 17.7 63.86 0.242 7.4 30.06 8.76
6/9/2022 9:00:00 AM 17.76 63.968 0.24 7.41 27.13 8.75
6/9/2022 9:15:00 AM 17.85 64.13 0.238 7.43 23.63 8.75
6/9/2022 9:30:00 AM 17.93 64.274 0.24 7.43 20.64 8.74
6/9/2022 9:45:00 AM 18.01 64.418 0.24 7.44 18.79 8.71
6/9/2022 10:00:00 AM 18.11 64.598 0.242 7.45 17.39 8.7
6/9/2022 10:15:00 AM 18.25 64.85 0.243 7.46 16.95 8.72
6/9/2022 10:30:00 AM 18.39 65.102 0.245 7.48 15.1 8.72
6/9/2022 10:45:00 AM 18.55 65.39 0.243 7.49 14.47 8.75
6/9/2022 11:00:00 AM 18.73 65.714 0.243 7.51 13.6 8.76
6/9/2022 11:15:00 AM 18.89 66.002 0.244 7.53 12.18 8.78
6/9/2022 11:30:00 AM 19.07 66.326 0.243 7.55 11.54 8.81
6/9/2022 11:45:00 AM 19.18 66.524 0.241 7.56 10.93 8.77
6/9/2022 12:00:00 PM 19.3 66.74 0.242 7.56 11.01 8.76
6/9/2022 12:15:00 PM 19.35 66.83 0.242 7.56 9.99 8.69
6/9/2022 12:30:00 PM 19.42 66.956 0.241 7.56 9.5 8.66
6/9/2022 12:45:00 PM 19.51 67.118 0.241 7.57 9.27 8.69
6/9/2022 1:00:00 PM 19.72 67.496 0.243 7.59 8.88 8.77
6/9/2022 1:15:00 PM 19.84 67.712 0.213 7.62 8.3 8.82
6/9/2022 1:30:00 PM 19.98 67.964 0.212 7.64 8.33 8.87
6/9/2022 1:45:00 PM 20.06 68.108 0.212 7.65 8.05 8.86
6/9/2022 2:00:00 PM 20.15 68.27 0.211 7.66 7.72 8.86
6/9/2022 2:15:00 PM 20.2 68.36 0.211 7.67 7.87 8.85
6/9/2022 2:30:00 PM 20.19 68.342 0.212 7.66 7.77 8.8
6/9/2022 2:45:00 PM 20.23 68.414 0.212 7.67 7.28 8.81
6/9/2022 3:00:00 PM 20.26 68.468 0.212 7.67 6.84 8.79
6/9/2022 3:15:00 PM 20.21 68.378 0.213 7.64 7.04 8.68
6/9/2022 3:30:00 PM 20.23 68.414 0.212 7.65 6.81 8.72
6/9/2022 3:45:00 PM 20.24 68.432 0.213 7.65 6.83 8.72
6/9/2022 4:00:00 PM 20.28 68.504 0.213 7.66 6.57 8.74
6/9/2022 4:15:00 PM 20.26 68.468 0.214 7.65 6.42 8.72
6/9/2022 4:30:00 PM 20.16 68.288 0.215 7.63 6.18 8.67
6/9/2022 4:45:00 PM 20.1 68.18 0.215 7.63 6.04 8.67
6/9/2022 5:00:00 PM 20.05 68.09 0.215 7.62 6.51 8.64
6/9/2022 5:15:00 PM 20.01 68.018 0.217 7.61 6.04 8.63
6/9/2022 5:30:00 PM 19.95 67.91 0.223 7.6 5.92 8.58
6/9/2022 5:45:00 PM 19.89 67.802 0.229 7.58 6.1 8.53
6/9/2022 6:00:00 PM 19.85 67.73 0.233 7.57 5.72 8.54
6/9/2022 6:15:00 PM 19.83 67.694 0.232 7.58 5.99 8.58
6/9/2022 6:30:00 PM 19.76 67.568 0.235 7.57 6.24 8.54
6/9/2022 6:45:00 PM 19.69 67.442 0.236 7.56 5.76 8.5
6/9/2022 7:00:00 PM 19.6 67.28 0.229 7.54 5.99 8.44
6/9/2022 7:15:00 PM 19.53 67.154 0.232 7.52 6.51 8.42
6/9/2022 7:30:00 PM 19.47 67.046 0.235 7.52 5.64 8.41
6/9/2022 7:45:00 PM 19.44 66.992 0.238 7.51 5.97 8.41
6/9/2022 8:00:00 PM 19.39 66.902 0.242 7.5 5.74 8.39
6/9/2022 8:15:00 PM 19.34 66.812 0.238 7.49 5.81 8.37
6/9/2022 8:30:00 PM 19.3 66.74 0.239 7.49 5.87 8.36
6/9/2022 8:45:00 PM 19.26 66.668 0.243 7.47 5.75 8.35
6/9/2022 9:00:00 PM 19.21 66.578 0.241 7.47 5.65 8.33
6/9/2022 9:15:00 PM 19.17 66.506 0.245 7.46 5.54 8.33
6/9/2022 9:30:00 PM 19.12 66.416 0.243 7.46 5.81 8.32
6/9/2022 9:45:00 PM 19.08 66.344 0.246 7.45 6.13 8.33
6/9/2022 10:00:00 PM 19.04 66.272 0.245 7.45 6.23 8.33
6/9/2022 10:15:00 PM 19.02 66.236 0.254 7.44 5.6 8.32
6/9/2022 10:30:00 PM 18.99 66.182 0.248 7.44 6.02 8.32
6/9/2022 10:45:00 PM 18.97 66.146 0.228 7.44 5.53 8.33
6/9/2022 11:00:00 PM 18.95 66.11 0.237 7.43 6 8.33
6/9/2022 11:15:00 PM 18.9 66.02 0.242 7.43 6.08 8.34
6/9/2022 11:30:00 PM 18.87 65.966 0.242 7.43 5.89 8.34
6/9/2022 11:45:00 PM 18.82 65.876 0.242 7.43 5.92 8.35
6/10/2022 12:00:00 AM 18.77 65.786 0.236 7.42 5.92 8.36
6/10/2022 12:15:00 AM 18.71 65.67799 0.236 7.42 5.59 8.37
6/10/2022 12:30:00 AM 18.65 65.57 0.234 7.42 5.8 8.38
6/10/2022 12:45:00 AM 18.59 65.462 0.236 7.42 5.45 8.4
6/10/2022 1:00:00 AM 18.53 65.354 0.233 7.42 5.42 8.4
6/10/2022 1:15:00 AM 18.47 65.246 0.232 7.42 5.78 8.41
6/10/2022 1:30:00 AM 18.42 65.156 0.233 7.42 5.64 8.43
6/10/2022 1:45:00 AM 18.37 65.066 0.233 7.41 5.47 8.44
6/10/2022 2:00:00 AM 18.32 64.976 0.231 7.41 5.32 8.45
6/10/2022 2:15:00 AM 18.27 64.886 0.232 7.41 5.26 8.46
6/10/2022 2:30:00 AM 18.22 64.796 0.231 7.41 5.2 8.46
6/10/2022 2:45:00 AM 18.17 64.706 0.232 7.4 5.25 8.47
6/10/2022 3:00:00 AM 18.12 64.616 0.232 7.41 5.39 8.49
6/10/2022 3:15:00 AM 18.07 64.526 0.231 7.4 4.94 8.48
6/10/2022 3:30:00 AM 18.02 64.436 0.232 7.4 5.04 8.49
6/10/2022 3:45:00 AM 17.96 64.328 0.233 7.4 4.95 8.51
6/10/2022 4:00:00 AM 17.9 64.22 0.231 7.4 4.88 8.52
6/10/2022 4:15:00 AM 17.84 64.112 0.231 7.39 5.07 8.52
6/10/2022 4:30:00 AM 17.78 64.004 0.231 7.39 4.77 8.54
6/10/2022 4:45:00 AM 17.73 63.914 0.233 7.39 5.39 8.55
6/10/2022 5:00:00 AM 17.67 63.806 0.232 7.38 4.73 8.56
6/10/2022 5:15:00 AM 17.62 63.716 0.23 7.38 4.88 8.57
6/10/2022 5:30:00 AM 17.57 63.626 0.231 7.38 4.91 8.59
6/10/2022 5:45:00 AM 17.52 63.536 0.233 7.38 4.93 8.6
6/10/2022 6:00:00 AM 17.47 63.446 0.233 7.38 4.58 8.63
6/10/2022 6:15:00 AM 17.43 63.374 0.233 7.38 4.55 8.65
6/10/2022 6:30:00 AM 17.39 63.302 0.232 7.38 4.65 8.67
6/10/2022 6:45:00 AM 17.36 63.248 0.229 7.38 4.53 8.7
6/10/2022 7:00:00 AM 17.34 63.212 0.23 7.39 4.34 8.73
6/10/2022 7:15:00 AM 17.33 63.194 0.227 7.4 4.19 8.76
6/10/2022 7:30:00 AM 17.33 63.194 0.225 7.41 4.36 8.82
6/10/2022 7:45:00 AM 17.36 63.248 0.223 7.42 4.28 8.88
6/10/2022 8:00:00 AM 17.4 63.32 0.223 7.44 4.3 8.92
6/10/2022 8:15:00 AM 17.44 63.392 0.229 7.45 4.25 8.95
6/10/2022 8:30:00 AM 17.48 63.464 0.228 7.47 3.69 8.99
6/10/2022 8:45:00 AM 17.54 63.572 0.224 7.48 3.8 9.02
6/10/2022 9:00:00 AM 17.6 63.68 0.224 7.49 3.98 9.04
6/10/2022 9:15:00 AM 17.66 63.788 0.224 7.51 3.78 9.07
6/10/2022 9:30:00 AM 17.73 63.914 0.224 7.52 3.7 9.08
6/10/2022 9:45:00 AM 17.82 64.076 0.225 7.53 3.51 9.1
6/10/2022 10:00:00 AM 17.92 64.256 0.225 7.54 3.5 9.12
6/10/2022 10:15:00 AM 18.03 64.454 0.225 7.56 3.45 9.13
6/10/2022 10:30:00 AM 18.15 64.67 0.225 7.57 3.4 9.15
6/10/2022 10:45:00 AM 18.28 64.904 0.225 7.59 3.73 9.16
6/10/2022 11:00:00 AM 18.43 65.174 0.225 7.59 3.48 9.17
6/10/2022 11:15:00 AM 18.61 65.498 0.226 7.62 3.38 9.2
6/10/2022 11:30:00 AM 18.78 65.804 0.226 7.63 3.79 9.2
6/10/2022 11:45:00 AM 18.98 66.164 0.226 7.66 3.53 9.23
6/10/2022 12:00:00 PM 19.17 66.506 0.226 7.67 3.65 9.23
6/10/2022 12:15:00 PM 19.38 66.884 0.226 7.69 3.4 9.23
6/10/2022 12:30:00 PM 19.57 67.226 0.227 7.7 3.49 9.21
6/10/2022 12:45:00 PM 19.72 67.496 0.227 7.72 3.29 9.21
6/10/2022 1:00:00 PM 19.91 67.838 0.227 7.74 3.46 9.22
6/10/2022 1:15:00 PM 20.13 68.234 0.227 7.75 3.24 9.2
6/10/2022 1:30:00 PM 20.22 68.396 0.227 7.75 3.29 9.12
6/10/2022 1:45:00 PM 20.31 68.558 0.227 7.75 3.46 9.08
6/10/2022 2:00:00 PM 20.49 68.882 0.227 7.76 3.04 9.09
6/10/2022 2:15:00 PM 20.55 68.99 0.228 7.75 3.2 9.02
6/10/2022 2:30:00 PM 20.61 69.098 0.228 7.76 3.18 9.03
6/10/2022 2:45:00 PM 20.8 69.44 0.228 7.78 3.22 9.06
6/10/2022 3:00:00 PM 20.83 69.494 0.228 7.79 3.5 9.01
6/10/2022 3:15:00 PM 20.84 69.512 0.228 7.77 3.71 8.95
6/10/2022 3:30:00 PM 20.88 69.584 0.228 7.77 3.62 8.94
6/10/2022 3:45:00 PM 20.86 69.548 0.229 7.76 3.2 8.91
6/10/2022 4:00:00 PM 20.93 69.674 0.229 7.76 3.27 8.91
6/10/2022 4:15:00 PM 20.94 69.692 0.229 7.76 3.96 8.88
6/10/2022 4:30:00 PM 21.01 69.818 0.229 7.76 3.8 8.86
6/10/2022 4:45:00 PM 20.96 69.728 0.23 7.73 3.41 8.79
6/10/2022 5:00:00 PM 20.99 69.782 0.233 7.73 3.18 8.77
6/10/2022 5:15:00 PM 20.93 69.674 0.232 7.7 3.51 8.69
6/10/2022 5:30:00 PM 20.9 69.62 0.231 7.69 3.56 8.66
6/10/2022 5:45:00 PM 20.81 69.458 0.231 7.67 4.44 8.61
6/10/2022 6:00:00 PM 20.74 69.332 0.231 7.65 3.69 8.59
6/10/2022 6:15:00 PM 20.66 69.188 0.231 7.64 3.92 8.58
6/10/2022 6:30:00 PM 20.59 69.062 0.231 7.63 3.96 8.53
6/10/2022 6:45:00 PM 20.51 68.918 0.231 7.6 3.51 8.51
6/10/2022 7:00:00 PM 20.4 68.72 0.232 7.59 3.36 8.44
6/10/2022 7:15:00 PM 20.29 68.522 0.232 7.56 3.38 8.36
6/10/2022 7:30:00 PM 20.2 68.36 0.232 7.55 3.24 8.35
6/10/2022 7:45:00 PM 20.1 68.18 0.233 7.53 3.52 8.33
6/10/2022 8:00:00 PM 19.98 67.964 0.233 7.51 3.39 8.28
6/10/2022 8:15:00 PM 19.87 67.766 0.233 7.5 3.5 8.26
6/10/2022 8:30:00 PM 19.76 67.568 0.246 7.48 3.33 8.23
6/10/2022 8:45:00 PM 19.66 67.388 0.246 7.47 3.51 8.21
6/10/2022 9:00:00 PM 19.55 67.19 0.233 7.45 3.7 8.19
6/10/2022 9:15:00 PM 19.45 67.01 0.233 7.45 3.72 8.19
6/10/2022 9:30:00 PM 19.35 66.83 0.233 7.44 3.84 8.19
6/10/2022 9:45:00 PM 19.24 66.632 0.233 7.43 3.74 8.2
6/10/2022 10:00:00 PM 19.15 66.47 0.233 7.43 3.83 8.2
6/10/2022 10:15:00 PM 19.05 66.29 0.233 7.42 3.77 8.22
6/10/2022 10:30:00 PM 18.96 66.128 0.234 7.42 4.07 8.22
6/10/2022 10:45:00 PM 18.88 65.984 0.233 7.42 3.76 8.25
6/10/2022 11:00:00 PM 18.78 65.804 0.233 7.41 3.73 8.27
6/10/2022 11:15:00 PM 18.69 65.642 0.233 7.41 3.68 8.28
6/10/2022 11:30:00 PM 18.6 65.48 0.233 7.41 3.61 8.3
6/10/2022 11:45:00 PM 18.52 65.336 0.233 7.4 3.54 8.31
6/11/2022 12:00:00 AM 18.43 65.174 0.234 7.4 3.94 8.33
6/11/2022 12:15:00 AM 18.34 65.012 0.234 7.4 3.38 8.34
6/11/2022 12:30:00 AM 18.27 64.886 0.235 7.4 3.94 8.37
6/11/2022 12:45:00 AM 18.18 64.724 0.235 7.39 3.51 8.39
6/11/2022 1:00:00 AM 18.1 64.58 0.235 7.39 3.7 8.41
6/11/2022 1:15:00 AM 18.02 64.436 0.235 7.38 3.55 8.41
6/11/2022 1:30:00 AM 17.94 64.292 0.235 7.38 3.96 8.43
6/11/2022 1:45:00 AM 17.86 64.148 0.235 7.38 3.66 8.44
6/11/2022 2:00:00 AM 17.78 64.004 0.235 7.37 3.62 8.47
6/11/2022 2:15:00 AM 17.71 63.878 0.235 7.37 4 8.48
6/11/2022 2:30:00 AM 17.63 63.734 0.235 7.36 3.52 8.5
6/11/2022 2:45:00 AM 17.57 63.626 0.236 7.36 3.62 8.52
6/11/2022 3:00:00 AM 17.49 63.482 0.236 7.36 3.64 8.53
6/11/2022 3:15:00 AM 17.42 63.356 0.239 7.35 3.39 8.54
6/11/2022 3:30:00 AM 17.35 63.23 0.237 7.35 3.37 8.55
6/11/2022 3:45:00 AM 17.29 63.122 0.237 7.35 3.46 8.56
6/11/2022 4:00:00 AM 17.23 63.014 0.237 7.35 3.29 8.58
6/11/2022 4:15:00 AM 17.17 62.906 0.236 7.34 3.67 8.58
6/11/2022 4:30:00 AM 17.11 62.798 0.236 7.35 4.06 8.61
6/11/2022 4:45:00 AM 17.06 62.708 0.236 7.35 3.45 8.61
6/11/2022 5:00:00 AM 17.01 62.618 0.236 7.35 3.9 8.63
6/11/2022 5:15:00 AM 16.95 62.51 0.236 7.34 3.5 8.63
6/11/2022 5:30:00 AM 16.9 62.42 0.236 7.34 3.49 8.65
6/11/2022 5:45:00 AM 16.86 62.348 0.237 7.34 4.77 8.67
6/11/2022 6:00:00 AM 16.81 62.258 0.237 7.35 3.39 8.71
6/11/2022 6:15:00 AM 16.77 62.186 0.237 7.35 3.79 8.75
6/11/2022 6:30:00 AM 16.73 62.114 0.237 7.36 3.66 8.79
6/11/2022 6:45:00 AM 16.71 62.078 0.237 7.37 3.76 8.84
6/11/2022 7:00:00 AM 16.68 62.024 0.237 7.38 4.31 8.89
6/11/2022 7:15:00 AM 16.68 62.024 0.237 7.39 12.86 8.98
6/11/2022 7:30:00 AM 16.69 62.042 0.237 7.41 3.22 9.06
6/11/2022 7:45:00 AM 16.67 62.006 0.237 7.42 3.3 9.05
6/11/2022 8:00:00 AM 16.72 62.096 0.237 7.45 3.12 9.21
6/11/2022 8:15:00 AM 16.83 62.294 0.237 7.48 5.04 9.34
6/11/2022 8:30:00 AM 16.83 62.294 0.238 7.5 3.01 9.33
6/11/2022 8:45:00 AM 16.83 62.294 0.238 7.5 3.05 9.34
6/11/2022 9:00:00 AM 16.86 62.348 0.238 7.52 2.8 9.39
6/11/2022 9:15:00 AM 16.89 62.402 0.238 7.54 2.95 9.41
6/11/2022 9:30:00 AM 16.93 62.474 0.238 7.54 3.05 9.41
6/11/2022 9:45:00 AM 17.01 62.618 0.238 7.57 3.06 9.5
6/11/2022 10:00:00 AM 17.1 62.78 0.238 7.6 2.85 9.59
6/11/2022 10:15:00 AM 17.19 62.942 0.238 7.63 2.85 9.64
6/11/2022 10:30:00 AM 17.26 63.068 0.238 7.64 2.71 9.66
6/11/2022 10:45:00 AM 17.38 63.284 0.238 7.67 2.87 9.7
6/11/2022 11:00:00 AM 17.52 63.536 0.238 7.7 2.81 9.72
6/11/2022 11:15:00 AM 17.66 63.788 0.238 7.72 2.67 9.75
6/11/2022 11:30:00 AM 17.85 64.13 0.238 7.76 2.77 9.8
6/11/2022 11:45:00 AM 18.04 64.472 0.238 7.78 2.83 9.82
6/11/2022 12:00:00 PM 18.22 64.796 0.239 7.81 2.69 9.82
6/11/2022 12:15:00 PM 18.41 65.138 0.239 7.84 2.82 9.83
6/11/2022 12:30:00 PM 18.62 65.516 0.239 7.87 3.02 9.84
6/11/2022 12:45:00 PM 18.74 65.732 0.239 7.88 2.94 9.79
6/11/2022 1:00:00 PM 18.81 65.858 0.239 7.88 2.81 9.73
6/11/2022 1:15:00 PM 18.87 65.966 0.239 7.88 2.59 9.68
6/11/2022 1:30:00 PM 18.94 66.092 0.239 7.87 2.5 9.61
6/11/2022 1:45:00 PM 18.99 66.182 0.239 7.86 2.94 9.54
6/11/2022 2:00:00 PM 19.05 66.29 0.239 7.85 2.57 9.51
6/11/2022 2:15:00 PM 19.13 66.434 0.239 7.86 2.69 9.5
6/11/2022 2:30:00 PM 19.21 66.578 0.239 7.87 2.62 9.5
6/11/2022 2:45:00 PM 19.27 66.686 0.239 7.87 2.51 9.49
6/11/2022 3:00:00 PM 19.33 66.794 0.239 7.87 2.57 9.46
6/11/2022 3:15:00 PM 19.48 67.064 0.24 7.9 2.41 9.51
6/11/2022 3:30:00 PM 19.61 67.298 0.24 7.9 2.49 9.49
6/11/2022 3:45:00 PM 19.8 67.64 0.24 7.91 2.54 9.49
6/11/2022 4:00:00 PM 19.84 67.712 0.24 7.91 3.33 9.44
6/11/2022 4:15:00 PM 19.94 67.892 0.24 7.91 2.79 9.41
6/11/2022 4:30:00 PM 19.99 67.982 0.24 7.89 2.79 9.32
6/11/2022 4:45:00 PM 19.99 67.982 0.24 7.86 2.52 9.23
6/11/2022 5:00:00 PM 19.93 67.874 0.24 7.81 2.87 9.1
6/11/2022 5:15:00 PM 19.95 67.91 0.24 7.79 4.95 9.07
6/11/2022 5:30:00 PM 19.94 67.892 0.241 7.76 2.68 8.99
6/11/2022 5:45:00 PM 19.9 67.82 0.241 7.73 3.16 8.9
6/11/2022 6:00:00 PM 19.89 67.802 0.241 7.71 2.6 8.85
6/11/2022 6:15:00 PM 19.86 67.748 0.242 7.68 2.71 8.78
6/11/2022 6:30:00 PM 19.8 67.64 0.242 7.65 2.65 8.72
6/11/2022 6:45:00 PM 19.75 67.55 0.242 7.63 2.76 8.67
6/11/2022 7:00:00 PM 19.65 67.37 0.242 7.59 2.7 8.52
6/11/2022 7:15:00 PM 19.61 67.298 0.242 7.57 2.61 8.5
6/11/2022 7:30:00 PM 19.56 67.208 0.242 7.56 2.59 8.44
6/11/2022 7:45:00 PM 19.48 67.064 0.243 7.53 2.59 8.39
6/11/2022 8:00:00 PM 19.43 66.974 0.243 7.52 2.75 8.35
6/11/2022 8:15:00 PM 19.36 66.848 0.252 7.5 2.66 8.31
6/11/2022 8:30:00 PM 19.29 66.722 0.243 7.49 2.88 8.27
6/11/2022 8:45:00 PM 19.22 66.596 0.243 7.47 2.82 8.24
6/11/2022 9:00:00 PM 19.14 66.452 0.243 7.46 5.72 8.21
6/11/2022 9:15:00 PM 19.06 66.308 0.243 7.45 2.97 8.21
6/11/2022 9:30:00 PM 18.97 66.146 0.243 7.45 2.87 8.22
6/11/2022 9:45:00 PM 18.88 65.984 0.243 7.44 3.02 8.23
6/11/2022 10:00:00 PM 18.78 65.804 0.243 7.43 3.02 8.23
6/11/2022 10:15:00 PM 18.69 65.642 0.243 7.43 2.98 8.25
6/11/2022 10:30:00 PM 18.59 65.462 0.243 7.43 2.98 8.27
6/11/2022 10:45:00 PM 18.49 65.282 0.243 7.43 3.14 8.29
6/11/2022 11:00:00 PM 18.39 65.102 0.243 7.42 3.39 8.31
6/11/2022 11:15:00 PM 18.28 64.904 0.243 7.42 2.93 8.33
6/11/2022 11:30:00 PM 18.18 64.724 0.243 7.42 2.87 8.35
6/11/2022 11:45:00 PM 18.08 64.544 0.243 7.41 3.02 8.37
6/12/2022 12:00:00 AM 17.99 64.382 0.243 7.41 2.98 8.39
6/12/2022 12:15:00 AM 17.89 64.202 0.243 7.41 3.13 8.41
6/12/2022 12:30:00 AM 17.8 64.04 0.243 7.41 2.87 8.43
6/12/2022 12:45:00 AM 17.72 63.896 0.244 7.4 3.09 8.45
6/12/2022 1:00:00 AM 17.65 63.77 0.243 7.4 2.93 8.48
6/12/2022 1:15:00 AM 17.56 63.608 0.243 7.4 3.05 8.49
6/12/2022 1:30:00 AM 17.48 63.464 0.243 7.4 3.07 8.5
6/12/2022 1:45:00 AM 17.41 63.338 0.243 7.4 3.16 8.52
6/12/2022 2:00:00 AM 17.34 63.212 0.243 7.4 2.94 8.53
6/12/2022 2:15:00 AM 17.27 63.086 0.243 7.39 3.1 8.55
6/12/2022 2:30:00 AM 17.22 62.996 0.243 7.39 3.09 8.57
6/12/2022 2:45:00 AM 17.14 62.852 0.243 7.39 2.93 8.58
6/12/2022 3:00:00 AM 17.09 62.762 0.244 7.39 3.28 8.6
6/12/2022 3:15:00 AM 17.02 62.636 0.244 7.39 3.03 8.61
6/12/2022 3:30:00 AM 16.97 62.546 0.244 7.39 2.93 8.62
6/12/2022 3:45:00 AM 16.92 62.456 0.244 7.39 2.98 8.64
6/12/2022 4:00:00 AM 16.86 62.348 0.244 7.38 3.19 8.64
6/12/2022 4:15:00 AM 16.82 62.276 0.244 7.38 3.02 8.66
6/12/2022 4:30:00 AM 16.77 62.186 0.244 7.38 3.1 8.66
6/12/2022 4:45:00 AM 16.73 62.114 0.244 7.38 2.98 8.67
6/12/2022 5:00:00 AM 16.69 62.042 0.244 7.37 3.21 8.68
6/12/2022 5:15:00 AM 16.65 61.97 0.244 7.38 3.16 8.69
6/12/2022 5:30:00 AM 16.62 61.916 0.244 7.37 3.15 8.69
6/12/2022 5:45:00 AM 16.6 61.88 0.244 7.37 3.85 8.72
6/12/2022 6:00:00 AM 16.57 61.826 0.244 7.37 3.2 8.74
6/12/2022 6:15:00 AM 16.55 61.79 0.244 7.38 3.18 8.77
6/12/2022 6:30:00 AM 16.54 61.772 0.244 7.39 2.68 8.82
6/12/2022 6:45:00 AM 16.54 61.772 0.244 7.4 2.84 8.9
6/12/2022 7:00:00 AM 16.53 61.754 0.244 7.4 3.26 8.93
6/12/2022 7:15:00 AM 16.55 61.79 0.244 7.42 3.03 9.01
6/12/2022 7:30:00 AM 16.59 61.862 0.244 7.44 3.13 9.14
6/12/2022 7:45:00 AM 16.61 61.898 0.244 7.46 2.92 9.19
6/12/2022 8:00:00 AM 16.64 61.952 0.244 7.47 2.59 9.16
6/12/2022 8:15:00 AM 16.73 62.114 0.244 7.49 2.63 9.33
6/12/2022 8:30:00 AM 16.81 62.258 0.244 7.53 2.67 9.42
6/12/2022 8:45:00 AM 16.86 62.348 0.244 7.55 2.55 9.46
6/12/2022 9:00:00 AM 16.94 62.492 0.244 7.58 2.59 9.53
6/12/2022 9:15:00 AM 17.02 62.636 0.246 7.61 2.67 9.6
6/12/2022 9:30:00 AM 17.16 62.888 0.243 7.63 3.6 9.64
6/12/2022 9:45:00 AM 17.26 63.068 0.243 7.66 2.59 9.7
6/12/2022 10:00:00 AM 17.3 63.14 0.244 7.67 2.48 9.62
6/12/2022 10:15:00 AM 17.31 63.158 0.244 7.65 2.63 9.51
6/12/2022 10:30:00 AM 17.39 63.302 0.244 7.67 2.55 9.6
6/12/2022 10:45:00 AM 17.47 63.446 0.244 7.69 2.46 9.57
6/12/2022 11:00:00 AM 17.51 63.518 0.244 7.66 2.42 9.43
6/12/2022 11:15:00 AM 17.57 63.626 0.244 7.66 2.49 9.39
6/12/2022 11:30:00 AM 17.63 63.734 0.248 7.67 2.47 9.45
6/12/2022 11:45:00 AM 17.7 63.86 0.244 7.7 3.01 9.52
6/12/2022 12:00:00 PM 17.74 63.932 0.244 7.68 2.51 9.45
6/12/2022 12:15:00 PM 17.78 64.004 0.245 7.69 2.54 9.42
6/12/2022 12:30:00 PM 17.84 64.112 0.245 7.68 2.58 9.4
6/12/2022 12:45:00 PM 17.92 64.256 0.252 7.7 2.32 9.46
6/12/2022 1:00:00 PM 18.04 64.472 0.25 7.74 2.39 9.53
6/12/2022 1:15:00 PM 18.11 64.598 0.262 7.73 2.81 9.5
6/12/2022 1:30:00 PM 18.28 64.904 0.265 7.78 2.65 9.62
6/12/2022 1:45:00 PM 18.37 65.066 0.26 7.8 2.26 9.62
6/12/2022 2:00:00 PM 18.44 65.192 0.245 7.81 2.4 9.58
6/12/2022 2:15:00 PM 18.65 65.57 0.245 7.84 2.3 9.68
6/12/2022 2:30:00 PM 18.73 65.714 0.245 7.85 2.22 9.61
6/12/2022 2:45:00 PM 18.93 66.074 0.244 7.88 2.32 9.67
6/12/2022 3:00:00 PM 18.97 66.146 0.244 7.86 2.22 9.57
6/12/2022 3:15:00 PM 19.06 66.308 0.245 7.86 2.25 9.55
6/12/2022 3:30:00 PM 19.2 66.56 0.245 7.89 2.39 9.58
6/12/2022 3:45:00 PM 19.29 66.722 0.245 7.9 2.37 9.53
6/12/2022 4:00:00 PM 19.34 66.812 0.245 7.89 2.23 9.49
6/12/2022 4:15:00 PM 19.43 66.974 0.246 7.88 2.35 9.46
6/12/2022 4:30:00 PM 19.48 67.064 0.246 7.89 2.36 9.45
6/12/2022 4:45:00 PM 19.55 67.19 0.246 7.88 2.26 9.41
6/12/2022 5:00:00 PM 19.56 67.208 0.246 7.86 2.51 9.3
6/12/2022 5:15:00 PM 19.57 67.226 0.246 7.81 2.65 9.19
6/12/2022 5:30:00 PM 19.68 67.424 0.247 7.83 2.6 9.29
6/12/2022 5:45:00 PM 19.65 67.37 0.247 7.8 2.28 9.12
6/12/2022 6:00:00 PM 19.65 67.37 0.252 7.78 2.41 9.05
6/12/2022 6:15:00 PM 19.65 67.37 0.257 7.73 2.32 8.92
6/12/2022 6:30:00 PM 19.64 67.352 0.256 7.7 2.32 8.83
6/12/2022 6:45:00 PM 19.65 67.37 0.255 7.68 2.32 8.8
6/12/2022 7:00:00 PM 19.63 67.334 0.257 7.64 2.42 8.62
6/12/2022 7:15:00 PM 19.61 67.298 0.259 7.6 2.99 8.51
6/12/2022 7:30:00 PM 19.59 67.262 0.258 7.56 2.51 8.39
6/12/2022 7:45:00 PM 19.58 67.244 0.253 7.53 2.56 8.32
6/12/2022 8:00:00 PM 19.56 67.208 0.256 7.51 2.43 8.26
6/12/2022 8:15:00 PM 19.55 67.19 0.25 7.5 2.55 8.23
6/12/2022 8:30:00 PM 19.52 67.136 0.248 7.48 2.78 8.19
6/12/2022 8:45:00 PM 19.47 67.046 0.243 7.47 3.12 8.2
6/12/2022 9:00:00 PM 19.44 66.992 0.243 7.45 3.43 8.17
6/12/2022 9:15:00 PM 19.39 66.902 0.242 7.44 5.26 8.15
6/12/2022 9:30:00 PM 19.37 66.866 0.236 7.42 6.63 8.13
6/12/2022 9:45:00 PM 19.28 66.704 0.236 7.41 10.11 8.13
6/12/2022 10:00:00 PM 19.19 66.542 0.238 7.39 10.15 8.12
6/12/2022 10:15:00 PM 19.12 66.416 0.241 7.39 8.68 8.12
6/12/2022 10:30:00 PM 19.09 66.362 0.241 7.39 7.46 8.14
6/12/2022 10:45:00 PM 19.06 66.308 0.241 7.39 6.86 8.15
6/12/2022 11:00:00 PM 19.02 66.236 0.24 7.39 6.88 8.16
6/12/2022 11:15:00 PM 18.98 66.164 0.24 7.39 6.78 8.16
6/12/2022 11:30:00 PM 18.94 66.092 0.239 7.39 5.75 8.17
6/12/2022 11:45:00 PM 18.91 66.038 0.246 7.38 5.47 8.17
6/13/2022 12:00:00 AM 18.88 65.984 0.239 7.38 5.25 8.19
6/13/2022 12:15:00 AM 18.83 65.894 0.239 7.38 4.89 8.21
6/13/2022 12:30:00 AM 18.75 65.75 0.24 7.38 5.1 8.23
6/13/2022 12:45:00 AM 18.69 65.642 0.241 7.38 4.9 8.25
6/13/2022 1:00:00 AM 18.62 65.516 0.242 7.38 5.12 8.26
6/13/2022 1:15:00 AM 18.55 65.39 0.243 7.38 4.72 8.28
6/13/2022 1:30:00 AM 18.43 65.174 0.251 7.39 5.32 8.33
6/13/2022 1:45:00 AM 18.28 64.904 0.258 7.39 5.03 8.36
6/13/2022 2:00:00 AM 18.18 64.724 0.262 7.39 4.95 8.39
6/13/2022 2:15:00 AM 18.13 64.634 0.263 7.39 4.96 8.39
6/13/2022 2:30:00 AM 18.09 64.562 0.263 7.39 4.44 8.41
6/13/2022 2:45:00 AM 18.07 64.526 0.264 7.39 4.18 8.42
6/13/2022 3:00:00 AM 18.04 64.472 0.264 7.39 4.06 8.42
6/13/2022 3:15:00 AM 18.03 64.454 0.265 7.4 4.49 8.44
6/13/2022 3:30:00 AM 18.01 64.418 0.266 7.4 3.82 8.44
6/13/2022 3:45:00 AM 18 64.4 0.266 7.39 4.2 8.43
6/13/2022 4:00:00 AM 17.99 64.382 0.267 7.39 3.64 8.43
6/13/2022 4:15:00 AM 17.99 64.382 0.267 7.39 3.73 8.45
6/13/2022 4:30:00 AM 17.98 64.364 0.267 7.39 3.94 8.45
6/13/2022 4:45:00 AM 17.98 64.364 0.268 7.39 3.63 8.44
6/13/2022 5:00:00 AM 17.98 64.364 0.267 7.39 4.02 8.44
6/13/2022 5:15:00 AM 17.97 64.346 0.268 7.38 3.49 8.44
6/13/2022 5:30:00 AM 17.97 64.346 0.269 7.38 3.51 8.44
6/13/2022 5:45:00 AM 17.96 64.328 0.271 7.39 3.36 8.45
6/13/2022 6:00:00 AM 17.96 64.328 0.272 7.38 3.28 8.47
6/13/2022 6:15:00 AM 17.95 64.31 0.274 7.39 3.31 8.49
6/13/2022 6:30:00 AM 17.95 64.31 0.274 7.38 3.3 8.5
6/13/2022 6:45:00 AM 17.96 64.328 0.274 7.4 3.24 8.56
6/13/2022 7:00:00 AM 17.97 64.346 0.273 7.4 3.33 8.6
6/13/2022 7:15:00 AM 17.99 64.382 0.271 7.41 3.36 8.67
6/13/2022 7:30:00 AM 18.01 64.418 0.269 7.42 3.01 8.71
6/13/2022 7:45:00 AM 18.03 64.454 0.267 7.43 3.21 8.76
6/13/2022 8:00:00 AM 18.07 64.526 0.264 7.44 3.4 8.81
6/13/2022 8:15:00 AM 18.1 64.58 0.262 7.46 3.05 8.84
6/13/2022 8:30:00 AM 18.14 64.652 0.259 7.47 3.25 8.88
6/13/2022 8:45:00 AM 18.19 64.742 0.257 7.49 2.89 8.98
6/13/2022 9:00:00 AM 18.24 64.832 0.254 7.51 3.08 9
6/13/2022 9:15:00 AM 18.3 64.94 0.252 7.53 2.92 9.1
6/13/2022 9:30:00 AM 18.37 65.066 0.25 7.56 2.78 9.16
6/13/2022 9:45:00 AM 18.44 65.192 0.248 7.58 3.09 9.22
6/13/2022 10:00:00 AM 18.5 65.3 0.247 7.6 2.84 9.25
6/13/2022 10:15:00 AM 18.57 65.426 0.246 7.62 2.76 9.3
6/13/2022 10:30:00 AM 18.68 65.624 0.245 7.65 2.69 9.4
6/13/2022 10:45:00 AM 18.8 65.84 0.244 7.68 2.82 9.43
6/13/2022 11:00:00 AM 18.99 66.182 0.243 7.71 2.99 9.47
6/13/2022 11:15:00 AM 19.17 66.506 0.243 7.73 2.66 9.49
6/13/2022 11:30:00 AM 19.37 66.866 0.243 7.75 3.28 9.49
6/13/2022 11:45:00 AM 19.51 67.118 0.242 7.77 3.19 9.51
6/13/2022 12:00:00 PM 19.55 67.19 0.242 7.78 2.68 9.43
6/13/2022 12:15:00 PM 19.76 67.568 0.242 7.8 2.63 9.49
6/13/2022 12:30:00 PM 19.95 67.91 0.242 7.81 2.61 9.44
6/13/2022 12:45:00 PM 20.16 68.288 0.25 7.83 2.86 9.45
6/13/2022 1:00:00 PM 20.28 68.504 0.256 7.83 3.09 9.36
6/13/2022 1:15:00 PM 20.44 68.792 0.26 7.83 2.7 9.32
6/13/2022 1:30:00 PM 20.67 69.206 0.261 7.85 2.55 9.35
6/13/2022 1:45:00 PM 20.95 69.71 0.262 7.87 2.43 9.32
6/13/2022 2:00:00 PM 21.23 70.214 0.263 7.87 2.52 9.28
6/13/2022 2:15:00 PM 21.53 70.754 0.265 7.89 2.48 9.24
6/13/2022 2:30:00 PM 21.8 71.24 0.267 7.89 2.52 9.18
6/13/2022 2:45:00 PM 22 71.6 0.269 7.88 2.64 9.12
6/13/2022 3:00:00 PM 22.18 71.924 0.282 7.88 2.57 9.06
6/13/2022 3:15:00 PM 22.3 72.14 0.242 7.87 2.5 8.99
6/13/2022 3:30:00 PM 22.41 72.338 0.28 7.86 2.69 8.93
6/13/2022 3:45:00 PM 22.5 72.5 0.243 7.85 2.82 8.87
6/13/2022 4:00:00 PM 22.54 72.57201 0.269 7.84 2.68 8.8
6/13/2022 4:15:00 PM 22.59 72.662 0.284 7.82 2.47 8.72
6/13/2022 4:30:00 PM 22.58 72.644 0.244 7.8 2.41 8.67
6/13/2022 4:45:00 PM 22.6 72.68 0.243 7.77 2.6 8.61
6/13/2022 5:00:00 PM 22.61 72.698 0.243 7.76 2.62 8.55
6/13/2022 5:15:00 PM 22.56 72.608 0.243 7.74 2.57 8.49
6/13/2022 5:30:00 PM 22.48 72.464 0.268 7.72 2.62 8.41
6/13/2022 5:45:00 PM 22.43 72.374 0.284 7.7 2.54 8.36
6/13/2022 6:00:00 PM 22.43 72.374 0.252 7.7 2.59 8.41
6/13/2022 6:15:00 PM 22.41 72.338 0.248 7.7 2.92 8.4
6/13/2022 6:30:00 PM 22.38 72.284 0.248 7.69 2.84 8.4
6/13/2022 6:45:00 PM 22.33 72.194 0.27 7.67 2.51 8.3
6/13/2022 7:00:00 PM 22.25 72.05 0.271 7.64 2.58 8.19
6/13/2022 7:15:00 PM 22.16 71.888 0.271 7.6 2.71 8.08
6/13/2022 7:30:00 PM 22.08 71.744 0.287 7.57 2.73 8
6/13/2022 7:45:00 PM 21.99 71.582 0.261 7.54 2.57 7.92
6/13/2022 8:00:00 PM 21.9 71.42 0.286 7.53 2.62 7.88
6/13/2022 8:15:00 PM 21.8 71.24 0.271 7.5 2.63 7.84
6/13/2022 8:30:00 PM 21.69 71.042 0.272 7.49 2.7 7.81
6/13/2022 8:45:00 PM 21.57 70.826 0.269 7.47 2.86 7.79
6/13/2022 9:00:00 PM 21.45 70.61 0.265 7.46 3.15 7.78
6/13/2022 9:15:00 PM 21.31 70.358 0.262 7.45 3.21 7.77
6/13/2022 9:30:00 PM 21.17 70.106 0.262 7.44 2.95 7.77
6/13/2022 9:45:00 PM 21.03 69.854 0.261 7.43 2.92 7.8
6/13/2022 10:00:00 PM 20.88 69.584 0.26 7.43 3.91 7.81
6/13/2022 10:15:00 PM 20.74 69.332 0.259 7.42 3.09 7.83
6/13/2022 10:30:00 PM 20.59 69.062 0.259 7.42 3.33 7.86
6/13/2022 10:45:00 PM 20.45 68.81 0.257 7.42 3.28 7.89
6/13/2022 11:00:00 PM 20.32 68.576 0.258 7.41 3.49 7.91
6/13/2022 11:15:00 PM 20.18 68.324 0.258 7.41 3.18 7.94
6/13/2022 11:30:00 PM 20.06 68.108 0.258 7.41 3.25 7.95
6/13/2022 11:45:00 PM 19.94 67.892 0.258 7.41 3.18 7.98
6/14/2022 12:00:00 AM 19.82 67.676 0.258 7.41 2.99 8
6/14/2022 12:15:00 AM 19.7 67.46 0.258 7.4 3.37 8.03
6/14/2022 12:30:00 AM 19.58 67.244 0.258 7.4 3.31 8.04
6/14/2022 12:45:00 AM 19.49 67.082 0.258 7.4 3.01 8.07
6/14/2022 1:00:00 AM 19.41 66.938 0.259 7.4 10.04 8.08
6/14/2022 1:15:00 AM 19.33 66.794 0.259 7.4 3.22 8.11
6/14/2022 1:30:00 AM 19.25 66.65 0.26 7.4 2.95 8.13
6/14/2022 1:45:00 AM 19.19 66.542 0.261 7.39 3.07 8.13
6/14/2022 2:00:00 AM 19.14 66.452 0.266 7.39 2.81 8.15
6/14/2022 2:15:00 AM 19.09 66.362 0.263 7.39 2.78 8.16
6/14/2022 2:30:00 AM 19.04 66.272 0.264 7.39 3.01 8.16
6/14/2022 2:45:00 AM 19.01 66.218 0.266 7.39 2.99 8.17
6/14/2022 3:00:00 AM 18.98 66.164 0.266 7.39 2.96 8.18
6/14/2022 3:15:00 AM 18.95 66.11 0.269 7.39 2.83 8.18
6/14/2022 3:30:00 AM 18.92 66.056 0.271 7.38 2.91 8.18
6/14/2022 3:45:00 AM 18.9 66.02 0.274 7.38 2.79 8.19
6/14/2022 4:00:00 AM 18.88 65.984 0.276 7.38 2.98 8.19
6/14/2022 4:15:00 AM 18.86 65.948 0.276 7.38 2.78 8.2
6/14/2022 4:30:00 AM 18.84 65.912 0.277 7.38 2.61 8.2
6/14/2022 4:45:00 AM 18.82 65.876 0.278 7.38 2.67 8.22
6/14/2022 5:00:00 AM 18.79 65.82201 0.278 7.38 2.9 8.22
6/14/2022 5:15:00 AM 18.77 65.786 0.278 7.38 2.78 8.21
6/14/2022 5:30:00 AM 18.75 65.75 0.279 7.38 2.91 8.22
6/14/2022 5:45:00 AM 18.72 65.696 0.277 7.38 2.78 8.24
6/14/2022 6:00:00 AM 18.71 65.67799 0.277 7.39 3.59 8.27
6/14/2022 6:15:00 AM 18.68 65.624 0.277 7.39 8.65 8.31
6/14/2022 6:30:00 AM 18.67 65.606 0.273 7.4 3.23 8.37
6/14/2022 6:45:00 AM 18.66 65.588 0.276 7.42 2.57 8.45
6/14/2022 7:00:00 AM 18.67 65.606 0.278 7.43 9.31 8.53
6/14/2022 7:15:00 AM 18.68 65.624 0.277 7.45 2.55 8.58
6/14/2022 7:30:00 AM 18.67 65.606 0.28 7.45 4.49 8.59
6/14/2022 7:45:00 AM 18.68 65.624 0.279 7.46 3.09 8.66
6/14/2022 8:00:00 AM 18.68 65.624 0.278 7.48 4.44 8.72
6/14/2022 8:15:00 AM 18.68 65.624 0.278 7.48 2.75 8.7
6/14/2022 8:30:00 AM 18.67 65.606 0.275 7.49 2.63 8.69
6/14/2022 8:45:00 AM 18.68 65.624 0.276 7.5 2.9 8.74
6/14/2022 9:00:00 AM 18.69 65.642 0.277 7.51 2.58 8.83
6/14/2022 9:15:00 AM 18.73 65.714 0.276 7.54 2.23 8.95
6/14/2022 9:30:00 AM 18.8 65.84 0.277 7.58 2.65 9.12
6/14/2022 9:45:00 AM 18.87 65.966 0.276 7.62 2.55 9.24
6/14/2022 10:00:00 AM 18.95 66.11 0.273 7.65 2.2 9.32
6/14/2022 10:15:00 AM 19.09 66.362 0.273 7.69 2.34 9.4
6/14/2022 10:30:00 AM 19.19 66.542 0.271 7.71 2.17 9.4
6/14/2022 10:45:00 AM 19.32 66.776 0.271 7.73 2.11 9.41
6/14/2022 11:00:00 AM 19.45 67.01 0.265 7.75 2.14 9.43
6/14/2022 11:15:00 AM 19.57 67.226 0.261 7.77 2.04 9.44
6/14/2022 11:30:00 AM 19.71 67.478 0.261 7.79 3.8 9.45
6/14/2022 11:45:00 AM 19.91 67.838 0.259 7.81 2.12 9.45
6/14/2022 12:00:00 PM 20.11 68.198 0.258 7.83 2.03 9.45
6/14/2022 12:15:00 PM 20.33 68.594 0.258 7.85 2 9.47
6/14/2022 12:30:00 PM 20.51 68.918 0.258 7.87 2.01 9.45
6/14/2022 12:45:00 PM 20.74 69.332 0.256 7.88 2.03 9.41
6/14/2022 1:00:00 PM 20.97 69.746 0.254 7.88 2.1 9.35
6/14/2022 1:15:00 PM 21.23 70.214 0.253 7.89 1.96 9.32
6/14/2022 1:30:00 PM 21.46 70.628 0.253 7.89 1.89 9.28
6/14/2022 1:45:00 PM 21.71 71.078 0.253 7.9 2 9.23
6/14/2022 2:00:00 PM 21.95 71.51 0.252 7.9 1.93 9.19
6/14/2022 2:15:00 PM 22.17 71.906 0.253 7.9 1.95 9.14
6/14/2022 2:30:00 PM 22.38 72.284 0.253 7.91 2.29 9.11
6/14/2022 2:45:00 PM 22.54 72.57201 0.254 7.92 1.97 9.09
6/14/2022 3:00:00 PM 22.69 72.842 0.254 7.92 1.81 9.03
6/14/2022 3:15:00 PM 22.82 73.076 0.255 7.91 2 8.97
6/14/2022 3:30:00 PM 22.91 73.238 0.257 7.9 1.98 8.93
6/14/2022 3:45:00 PM 22.99 73.382 0.259 7.89 1.93 8.85
6/14/2022 4:00:00 PM 23.03 73.454 0.259 7.86 2.1 8.76
6/14/2022 4:15:00 PM 23.07 73.526 0.259 7.84 2.06 8.68
6/14/2022 4:30:00 PM 23.1 73.58 0.26 7.83 1.99 8.62
6/14/2022 4:45:00 PM 23.09 73.562 0.261 7.8 2.08 8.55
6/14/2022 5:00:00 PM 23.07 73.526 0.263 7.77 2.14 8.48
6/14/2022 5:15:00 PM 23.04 73.472 0.265 7.75 2.02 8.4
6/14/2022 5:30:00 PM 23.01 73.418 0.265 7.73 2 8.33
6/14/2022 5:45:00 PM 22.97 73.346 0.265 7.71 2.08 8.27
6/14/2022 6:00:00 PM 22.92 73.256 0.266 7.68 2.14 8.21
6/14/2022 6:15:00 PM 22.88 73.184 0.267 7.67 2.14 8.16
6/14/2022 6:30:00 PM 22.84 73.112 0.266 7.65 2.24 8.11
6/14/2022 6:45:00 PM 22.79 73.022 0.268 7.63 2.34 8.04
6/14/2022 7:00:00 PM 22.72 72.896 0.269 7.6 2.27 7.98
6/14/2022 7:15:00 PM 22.66 72.788 0.27 7.57 2.36 7.86
6/14/2022 7:30:00 PM 22.59 72.662 0.271 7.55 2.3 7.8
6/14/2022 7:45:00 PM 22.53 72.554 0.272 7.52 2.26 7.74
6/14/2022 8:00:00 PM 22.44 72.392 0.272 7.5 2.13 7.69
6/14/2022 8:15:00 PM 22.37 72.266 0.274 7.49 2.11 7.65
6/14/2022 8:30:00 PM 22.28 72.104 0.27 7.47 2.26 7.62
6/14/2022 8:45:00 PM 22.18 71.924 0.27 7.46 2.21 7.6
6/14/2022 9:00:00 PM 22.07 71.726 0.266 7.45 2.42 7.59
6/14/2022 9:15:00 PM 21.95 71.51 0.264 7.44 2.62 7.58
6/14/2022 9:30:00 PM 21.83 71.294 0.263 7.43 15.22 7.59
6/14/2022 9:45:00 PM 21.7 71.06 0.262 7.42 3.34 7.6
6/14/2022 10:00:00 PM 21.57 70.826 0.262 7.42 2.86 7.61
6/14/2022 10:15:00 PM 21.43 70.574 0.262 7.41 2.41 7.48
6/14/2022 10:30:00 PM 21.29 70.32201 0.261 7.41 61.02 7.65
6/14/2022 10:45:00 PM 21.15 70.07 0.261 7.41 3.07 7.69
6/14/2022 11:00:00 PM 21.01 69.818 0.262 7.41 11.59 7.72
6/14/2022 11:15:00 PM 20.87 69.566 0.261 7.4 2.88 7.75
6/14/2022 11:30:00 PM 20.74 69.332 0.261 7.4 3.57 7.78
6/14/2022 11:45:00 PM 20.61 69.098 0.261 7.4 3.85 7.8
6/15/2022 12:00:00 AM 20.47 68.846 0.261 7.4 2.64 7.82
6/15/2022 12:15:00 AM 20.34 68.612 0.261 7.39 2.85 7.84
6/15/2022 12:30:00 AM 20.22 68.396 0.261 7.4 2.51 7.88
6/15/2022 12:45:00 AM 20.11 68.198 0.262 7.39 2.35 7.9
6/15/2022 1:00:00 AM 20 68 0.263 7.39 2.48 7.93
6/15/2022 1:15:00 AM 19.88 67.784 0.262 7.39 2.43 7.95
6/15/2022 1:30:00 AM 19.79 67.622 0.263 7.39 2.99 7.96
6/15/2022 1:45:00 AM 19.7 67.46 0.264 7.39 2.7 7.99
6/15/2022 2:00:00 AM 19.61 67.298 0.263 7.39 2.64 8.01
6/15/2022 2:15:00 AM 19.52 67.136 0.263 7.38 3.27 8.02
6/15/2022 2:30:00 AM 19.45 67.01 0.264 7.38 2.78 8.03
6/15/2022 2:45:00 AM 19.36 66.848 0.264 7.38 2.75 8.05
6/15/2022 3:00:00 AM 19.28 66.704 0.264 7.38 2.63 8.08
6/15/2022 3:15:00 AM 19.21 66.578 0.264 7.38 2.92 8.09
6/15/2022 3:30:00 AM 19.14 66.452 0.265 7.38 2.52 8.11
6/15/2022 3:45:00 AM 19.05 66.29 0.266 7.37 2.92 8.12
6/15/2022 4:00:00 AM 18.97 66.146 0.265 7.37 2.79 8.14
6/15/2022 4:15:00 AM 18.89 66.002 0.265 7.37 2.64 8.15
6/15/2022 4:30:00 AM 18.83 65.894 0.266 7.37 2.92 8.17
6/15/2022 4:45:00 AM 18.74 65.732 0.267 7.37 2.51 8.18
6/15/2022 5:00:00 AM 18.67 65.606 0.266 7.37 2.77 8.19
6/15/2022 5:15:00 AM 18.6 65.48 0.269 7.37 2.5 8.22
6/15/2022 5:30:00 AM 18.53 65.354 0.266 7.37 3 8.24
6/15/2022 5:45:00 AM 18.46 65.228 0.266 7.37 5.72 8.26
6/15/2022 6:00:00 AM 18.39 65.102 0.266 7.37 2.68 8.32
6/15/2022 6:15:00 AM 18.32 64.976 0.266 7.37 3.01 8.35
6/15/2022 6:30:00 AM 18.27 64.886 0.265 7.34 5.24 8.4
6/15/2022 6:45:00 AM 18.2 64.76 0.266 7.36 3.02 8.44
6/15/2022 7:00:00 AM 18.18 64.724 0.268 7.37 4.55 8.5
6/15/2022 7:15:00 AM 18.15 64.67 0.267 7.38 2.48 8.57
6/15/2022 7:30:00 AM 18.16 64.688 0.267 7.4 2.83 8.68
6/15/2022 7:45:00 AM 18.21 64.778 0.269 7.43 2.38 8.82
6/15/2022 8:00:00 AM 18.26 64.868 0.269 7.46 2.64 8.89
6/15/2022 8:15:00 AM 18.32 64.976 0.273 7.48 2.53 8.97
6/15/2022 8:30:00 AM 18.38 65.084 0.28 7.5 2.34 9.02
6/15/2022 8:45:00 AM 18.45 65.21 0.282 7.52 2.8 9.07
6/15/2022 9:00:00 AM 18.52 65.336 0.283 7.54 4.13 9.12
6/15/2022 9:15:00 AM 18.6 65.48 0.284 7.56 1.99 9.15
6/15/2022 9:30:00 AM 18.69 65.642 0.285 7.57 1.98 9.18
6/15/2022 9:45:00 AM 18.79 65.82201 0.285 7.59 2.18 9.21
6/15/2022 10:00:00 AM 18.9 66.02 0.284 7.6 4.05 9.23
6/15/2022 10:15:00 AM 19.04 66.272 0.284 7.62 3.09 9.24
6/15/2022 10:30:00 AM 19.18 66.524 0.284 7.64 2.6 9.27
6/15/2022 10:45:00 AM 19.34 66.812 0.284 7.65 4.06 9.28
6/15/2022 11:00:00 AM 19.52 67.136 0.285 7.67 4.33 9.3
6/15/2022 11:15:00 AM 19.69 67.442 0.284 7.69 1.91 9.31
6/15/2022 11:30:00 AM 19.89 67.802 0.284 7.7 1.92 9.32
6/15/2022 11:45:00 AM 20.12 68.216 0.284 7.73 2.01 9.34
6/15/2022 12:00:00 PM 20.37 68.666 0.284 7.75 2.03 9.36
6/15/2022 12:15:00 PM 20.6 69.08 0.283 7.78 1.92 9.39
6/15/2022 12:30:00 PM 20.8 69.44 0.284 7.81 3.2 9.38
6/15/2022 12:45:00 PM 21.05 69.89 0.284 7.82 2.01 9.36
6/15/2022 1:00:00 PM 21.32 70.376 0.284 7.84 1.95 9.34
6/15/2022 1:15:00 PM 21.6 70.88 0.285 7.85 1.84 9.32
6/15/2022 1:30:00 PM 21.89 71.402 0.285 7.89 1.89 9.33
6/15/2022 1:45:00 PM 22.19 71.942 0.285 7.91 3.13 9.3
6/15/2022 2:00:00 PM 22.39 72.302 0.285 7.92 2.43 9.3
6/15/2022 2:15:00 PM 22.63 72.734 0.285 7.94 1.89 9.28
6/15/2022 2:30:00 PM 22.81 73.058 0.285 7.96 1.96 9.24
6/15/2022 2:45:00 PM 22.93 73.274 0.285 7.97 1.86 9.23
6/15/2022 3:00:00 PM 22.95 73.31 0.286 7.99 2.07 9.17
6/15/2022 3:15:00 PM 22.97 73.346 0.293 7.97 1.83 9.11
6/15/2022 3:30:00 PM 22.96 73.328 0.289 7.96 1.82 9.04
6/15/2022 3:45:00 PM 23.06 73.508 0.289 7.97 1.8 9.06
6/15/2022 4:00:00 PM 23.15 73.67 0.289 7.94 3.16 8.94
6/15/2022 4:15:00 PM 23.27 73.886 0.29 7.9 2.13 8.83
6/15/2022 4:30:00 PM 23.34 74.012 0.29 7.88 2.6 8.73
6/15/2022 4:45:00 PM 23.41 74.138 0.291 7.87 1.99 8.66
6/15/2022 5:00:00 PM 23.4 74.12 0.292 7.83 1.85 8.57
6/15/2022 5:15:00 PM 23.39 74.102 0.293 7.8 1.86 8.49
6/15/2022 5:30:00 PM 23.35 74.03 0.293 7.77 2 8.4
6/15/2022 5:45:00 PM 23.31 73.958 0.294 7.74 1.88 8.33
6/15/2022 6:00:00 PM 23.27 73.886 0.295 7.71 1.9 8.27
6/15/2022 6:15:00 PM 23.17 73.706 0.296 7.67 2 8.12
6/15/2022 6:30:00 PM 23.19 73.742 0.296 7.66 1.99 8.14
6/15/2022 6:45:00 PM 23.16 73.688 0.298 7.64 1.99 8.07
6/15/2022 7:00:00 PM 23.08 73.544 0.298 7.6 1.85 7.92
6/15/2022 7:15:00 PM 23.02 73.436 0.298 7.57 1.99 7.82
6/15/2022 7:30:00 PM 22.97 73.346 0.297 7.54 1.95 7.75
6/15/2022 7:45:00 PM 22.92 73.256 0.297 7.52 1.98 7.69
6/15/2022 8:00:00 PM 22.87 73.166 0.298 7.5 2.04 7.65
6/15/2022 8:15:00 PM 22.82 73.076 0.297 7.48 1.97 7.6
6/15/2022 8:30:00 PM 22.75 72.95 0.298 7.46 1.96 7.53
6/15/2022 8:45:00 PM 22.71 72.878 0.298 7.45 2.31 7.52
6/15/2022 9:00:00 PM 22.64 72.752 0.299 7.43 1.89 7.47
6/15/2022 9:15:00 PM 22.56 72.608 0.298 7.42 2.25 7.45
6/15/2022 9:30:00 PM 22.54 72.57201 0.3 7.42 2.44 7.44
6/15/2022 9:45:00 PM 22.46 72.42799 0.299 7.41 2.21 7.45
6/15/2022 10:00:00 PM 22.4 72.32 0.3 7.4 2.95 7.45
6/15/2022 10:15:00 PM 22.33 72.194 0.299 7.39 2.4 7.46
6/15/2022 10:30:00 PM 22.26 72.068 0.298 7.39 2.95 7.46
6/15/2022 10:45:00 PM 22.18 71.924 0.299 7.39 2.39 7.47
6/15/2022 11:00:00 PM 22.1 71.78 0.297 7.39 2.24 7.5
6/15/2022 11:15:00 PM 22.01 71.618 0.297 7.39 2.43 7.52
6/15/2022 11:30:00 PM 21.89 71.402 0.294 7.38 2.29 7.52
6/15/2022 11:45:00 PM 21.81 71.258 0.295 7.39 2.32 7.54
6/16/2022 12:00:00 AM 21.72 71.096 0.292 7.39 2.49 7.57
6/16/2022 12:15:00 AM 21.64 70.952 0.288 7.39 2.27 7.59
6/16/2022 12:30:00 AM 21.55 70.79 0.278 7.39 2.45 7.62
6/16/2022 12:45:00 AM 21.47 70.646 0.277 7.39 2.29 7.62
6/16/2022 1:00:00 AM 21.38 70.484 0.279 7.39 2.81 7.65
6/16/2022 1:15:00 AM 21.28 70.304 0.275 7.39 2.06 7.66
6/16/2022 1:30:00 AM 21.21 70.17799 0.274 7.39 2.54 7.69
6/16/2022 1:45:00 AM 21.13 70.034 0.275 7.39 2.47 7.7
6/16/2022 2:00:00 AM 21.04 69.872 0.274 7.39 2.32 7.7
6/16/2022 2:15:00 AM 20.97 69.746 0.275 7.39 2.41 7.73
6/16/2022 2:30:00 AM 20.89 69.602 0.275 7.39 2.53 7.74
6/16/2022 2:45:00 AM 20.82 69.476 0.275 7.39 2.58 7.76
6/16/2022 3:00:00 AM 20.76 69.368 0.274 7.39 2.68 7.79
6/16/2022 3:15:00 AM 20.69 69.242 0.274 7.38 2.58 7.78
6/16/2022 3:30:00 AM 20.62 69.116 0.277 7.38 2.74 7.79
6/16/2022 3:45:00 AM 20.57 69.026 0.276 7.39 2.3 7.81
6/16/2022 4:00:00 AM 20.51 68.918 0.276 7.39 2.5 7.83
6/16/2022 4:15:00 AM 20.38 68.684 0.272 7.4 2.92 7.91
6/16/2022 4:30:00 AM 20.34 68.612 0.27 7.39 2.71 7.88
6/16/2022 4:45:00 AM 20.27 68.486 0.27 7.39 3.53 7.89
6/16/2022 5:00:00 AM 20.19 68.342 0.27 7.38 3.02 7.88
6/16/2022 5:15:00 AM 20.14 68.252 0.271 7.38 3.05 7.89
6/16/2022 5:30:00 AM 20.07 68.126 0.271 7.38 102.2 7.9
6/16/2022 5:45:00 AM 19.99 67.982 0.272 7.38 2.75 7.9
6/16/2022 6:00:00 AM 19.92 67.856 0.272 7.38 10.02 7.93
6/16/2022 6:15:00 AM 19.88 67.784 0.272 7.39 6.59 7.96
6/16/2022 6:30:00 AM 19.83 67.694 0.272 7.39 5.56 7.99
6/16/2022 6:45:00 AM 19.79 67.622 0.273 7.4 3.1 8.05
6/16/2022 7:00:00 AM 19.76 67.568 0.273 7.41 2.97 8.11
6/16/2022 7:15:00 AM 19.71 67.478 0.276 7.42 2.57 8.16
6/16/2022 7:30:00 AM 19.66 67.388 0.28 7.44 2.48 8.25
6/16/2022 7:45:00 AM 19.62 67.316 0.282 7.44 2.35 8.26
6/16/2022 8:00:00 AM 19.63 67.334 0.282 7.46 2.58 8.39
6/16/2022 8:15:00 AM 19.65 67.37 0.282 7.48 2.94 8.48
6/16/2022 8:30:00 AM 19.68 67.424 0.29 7.51 2.35 8.65
6/16/2022 8:45:00 AM 19.72 67.496 0.294 7.55 2.31 8.82
6/16/2022 9:00:00 AM 19.75 67.55 0.295 7.58 2.74 8.89
6/16/2022 9:15:00 AM 19.78 67.604 0.296 7.61 2.36 9.02
6/16/2022 9:30:00 AM 19.81 67.658 0.297 7.64 4.82 9.1
6/16/2022 9:45:00 AM 19.81 67.658 0.296 7.65 2.81 9.1
6/16/2022 10:00:00 AM 19.81 67.658 0.296 7.65 2.11 9.06
6/16/2022 10:15:00 AM 19.78 67.604 0.295 7.62 2.07 8.88
6/16/2022 10:30:00 AM 19.81 67.658 0.295 7.64 2.3 9.01
6/16/2022 10:45:00 AM 19.85 67.73 0.295 7.67 3.88 9.07
6/16/2022 11:00:00 AM 19.84 67.712 0.296 7.65 2.95 8.97
6/16/2022 11:15:00 AM 19.85 67.73 0.263 7.66 2.41 9.01
6/16/2022 11:30:00 AM 19.9 67.82 0.262 7.68 3.36 9.12
6/16/2022 11:45:00 AM 19.95 67.91 0.26 7.71 3.03 9.22
6/16/2022 12:00:00 PM 19.94 67.892 0.261 7.71 3.68 9.15
6/16/2022 12:15:00 PM 19.97 67.946 0.259 7.72 3.46 9.18
6/16/2022 12:30:00 PM 20 68 0.26 7.73 2.79 9.2
6/16/2022 12:45:00 PM 20.03 68.054 0.26 7.74 2.65 9.19
6/16/2022 1:00:00 PM 20.08 68.144 0.26 7.76 2.71 9.24
6/16/2022 1:15:00 PM 20.12 68.216 0.26 7.77 2.76 9.22
6/16/2022 1:30:00 PM 20.14 68.252 0.261 7.77 3.77 9.19
6/16/2022 1:45:00 PM 20.17 68.306 0.26 7.78 3.2 9.21
6/16/2022 2:00:00 PM 20.2 68.36 0.26 7.78 4.47 9.18
6/16/2022 2:15:00 PM 20.24 68.432 0.26 7.78 3.47 9.18
6/16/2022 2:30:00 PM 20.28 68.504 0.261 7.79 3.66 9.17
6/16/2022 2:45:00 PM 20.34 68.612 0.26 7.8 3 9.21
6/16/2022 3:00:00 PM 20.4 68.72 0.261 7.82 2.16 9.23
6/16/2022 3:15:00 PM 20.42 68.756 0.261 7.81 3.58 9.17
6/16/2022 3:30:00 PM 20.41 68.738 0.261 7.77 1.94 9
6/16/2022 3:45:00 PM 20.45 68.81 0.261 7.76 3.57 9.01
6/16/2022 4:00:00 PM 20.49 68.882 0.261 7.77 2.98 9.02
6/16/2022 4:15:00 PM 20.51 68.918 0.261 7.76 3.03 8.96
6/16/2022 4:30:00 PM 20.53 68.954 0.261 7.74 4.14 8.87
6/16/2022 4:45:00 PM 20.55 68.99 0.261 7.71 9.8 8.79
6/16/2022 5:00:00 PM 20.56 69.008 0.262 7.69 2.25 8.69
6/16/2022 5:15:00 PM 20.58 69.044 0.261 7.68 3.99 8.65
6/16/2022 5:30:00 PM 20.62 69.116 0.262 7.67 2.7 8.64
6/16/2022 5:45:00 PM 20.62 69.116 0.262 7.65 2 8.55
6/16/2022 6:00:00 PM 20.62 69.116 0.262 7.62 3.01 8.44
6/16/2022 6:15:00 PM 20.63 69.134 0.262 7.61 3.09 8.38
6/16/2022 6:30:00 PM 20.63 69.134 0.261 7.57 4.15 8.26
6/16/2022 6:45:00 PM 20.64 69.152 0.262 7.56 3.77 8.19
6/16/2022 7:00:00 PM 20.64 69.152 0.261 7.54 2.33 8.14
6/16/2022 7:15:00 PM 20.64 69.152 0.261 7.52 2.04 8.08
6/16/2022 7:30:00 PM 20.62 69.116 0.261 7.5 3.69 8.03
6/16/2022 7:45:00 PM 20.62 69.116 0.261 7.49 4.81 7.99
6/16/2022 8:00:00 PM 20.62 69.116 0.261 7.48 62.59 7.96
6/16/2022 8:15:00 PM 20.6 69.08 0.261 7.47 2.1 7.92
6/16/2022 8:30:00 PM 20.59 69.062 0.261 7.46 1.96 7.9
6/16/2022 8:45:00 PM 20.59 69.062 0.26 7.45 3.74 7.9
6/16/2022 9:00:00 PM 20.59 69.062 0.26 7.45 2.46 7.9
6/16/2022 9:15:00 PM 20.59 69.062 0.26 7.44 2.48 7.88
6/16/2022 9:30:00 PM 20.58 69.044 0.259 7.43 2.32 7.86
6/16/2022 9:45:00 PM 20.58 69.044 0.26 7.43 2.36 7.87
6/16/2022 10:00:00 PM 20.58 69.044 0.259 7.42 4.57 7.86
6/16/2022 10:15:00 PM 20.56 69.008 0.259 7.42 2.22 7.87
6/16/2022 10:30:00 PM 20.55 68.99 0.259 7.42 2.55 7.87
6/16/2022 10:45:00 PM 20.54 68.972 0.258 7.42 2.48 7.87
6/16/2022 11:00:00 PM 20.53 68.954 0.259 7.42 3.04 7.87
6/16/2022 11:15:00 PM 20.52 68.936 0.258 7.42 2.75 7.87
6/16/2022 11:30:00 PM 20.52 68.936 0.258 7.42 2.61 7.88
6/16/2022 11:45:00 PM 20.51 68.918 0.258 7.42 2.8 7.9
6/17/2022 12:00:00 AM 20.49 68.882 0.258 7.42 2.41 7.89
6/17/2022 12:15:00 AM 20.45 68.81 0.258 7.41 2.73 7.89
6/17/2022 12:30:00 AM 20.42 68.756 0.257 7.41 2.8 7.89
6/17/2022 12:45:00 AM 20.39 68.702 0.257 7.41 2.62 7.9
6/17/2022 1:00:00 AM 20.35 68.63 0.257 7.41 21.01 7.91
6/17/2022 1:15:00 AM 20.32 68.576 0.262 7.4 2.65 7.91
6/17/2022 1:30:00 AM 20.28 68.504 0.265 7.4 2.6 7.91
6/17/2022 1:45:00 AM 20.24 68.432 0.268 7.4 2.47 7.92
6/17/2022 2:00:00 AM 20.2 68.36 0.269 7.4 2.74 7.93
6/17/2022 2:15:00 AM 20.16 68.288 0.268 7.4 2.95 7.94
6/17/2022 2:30:00 AM 20.11 68.198 0.269 7.4 2.59 7.94
6/17/2022 2:45:00 AM 20.06 68.108 0.269 7.39 2.67 7.95
6/17/2022 3:00:00 AM 20.01 68.018 0.268 7.39 2.71 7.95
6/17/2022 3:15:00 AM 19.98 67.964 0.27 7.39 3.48 7.95
6/17/2022 3:30:00 AM 19.94 67.892 0.268 7.39 2.52 7.97
6/17/2022 3:45:00 AM 19.9 67.82 0.268 7.4 2.44 7.98
6/17/2022 4:00:00 AM 19.85 67.73 0.27 7.39 2.5 7.98
6/17/2022 4:15:00 AM 19.81 67.658 0.268 7.39 3.03 7.99
6/17/2022 4:30:00 AM 19.77 67.586 0.269 7.39 2.58 8
6/17/2022 4:45:00 AM 19.72 67.496 0.268 7.39 3.41 8
6/17/2022 5:00:00 AM 19.68 67.424 0.268 7.39 2.71 8.02
6/17/2022 5:15:00 AM 19.63 67.334 0.276 7.39 3.31 8.01
6/17/2022 5:30:00 AM 19.59 67.262 0.274 7.39 5.05 8.02
6/17/2022 5:45:00 AM 19.56 67.208 0.269 7.4 4.75 8.06
6/17/2022 6:00:00 AM 19.53 67.154 0.267 7.4 8.23 8.11
6/17/2022 6:15:00 AM 19.52 67.136 0.27 7.4 16.23 8.15
6/17/2022 6:30:00 AM 19.51 67.118 0.269 7.4 10.85 8.16
6/17/2022 6:45:00 AM 19.51 67.118 0.269 7.42 3.25 8.23
6/17/2022 7:00:00 AM 19.48 67.064 0.268 7.42 4.68 8.24
6/17/2022 7:15:00 AM 19.48 67.064 0.267 7.43 3.46 8.3
6/17/2022 7:30:00 AM 19.5 67.1 0.268 7.44 4.43 8.38
6/17/2022 7:45:00 AM 19.57 67.226 0.268 7.46 4.87 8.47
6/17/2022 8:00:00 AM 19.63 67.334 0.268 7.48 4.8 8.56
6/17/2022 8:15:00 AM 19.71 67.478 0.268 7.5 5.25 8.62
6/17/2022 8:30:00 AM 19.78 67.604 0.264 7.51 4.64 8.66
6/17/2022 8:45:00 AM 19.87 67.766 0.264 7.54 3.02 8.72
6/17/2022 9:00:00 AM 19.96 67.92799 0.265 7.56 5.75 8.76
6/17/2022 9:15:00 AM 20.07 68.126 0.264 7.58 3.29 8.78
6/17/2022 9:30:00 AM 20.17 68.306 0.264 7.6 3.4 8.83
6/17/2022 9:45:00 AM 20.28 68.504 0.263 7.62 8.41 8.89
6/17/2022 10:00:00 AM 20.41 68.738 0.265 7.64 3.38 8.91
6/17/2022 10:15:00 AM 20.55 68.99 0.251 7.67 4.65 8.94
6/17/2022 10:30:00 AM 20.69 69.242 0.251 7.69 6.19 8.99
6/17/2022 10:45:00 AM 20.69 69.242 0.251 7.69 4.62 8.92
6/17/2022 11:00:00 AM 20.8 69.44 0.251 7.71 3.73 8.95
6/17/2022 11:15:00 AM 20.76 69.368 0.251 7.69 3.92 8.85
6/17/2022 11:30:00 AM 20.95 69.71 0.251 7.71 4.39 8.9
6/17/2022 11:45:00 AM 21.18 70.124 0.252 7.74 6 8.96
6/17/2022 12:00:00 PM 21.29 70.32201 0.252 7.75 4.19 8.93
6/17/2022 12:15:00 PM 21.5 70.7 0.252 7.77 3 8.96
6/17/2022 12:30:00 PM 21.74 71.132 0.252 7.8 3.61 8.99
6/17/2022 12:45:00 PM 21.79 71.222 0.262 7.81 3.88 8.97
6/17/2022 1:00:00 PM 21.85 71.33 0.252 7.8 3.35 8.89
6/17/2022 1:15:00 PM 22.1 71.78 0.254 7.83 7 8.91
6/17/2022 1:30:00 PM 22.07 71.726 0.262 7.81 77.79 8.79
6/17/2022 1:45:00 PM 22.26 72.068 0.253 7.82 2.35 8.83
6/17/2022 2:00:00 PM 22.36 72.248 0.253 7.84 2.24 8.83
6/17/2022 2:15:00 PM 22.58 72.644 0.253 7.86 3.19 8.84
6/17/2022 2:30:00 PM 22.72 72.896 0.253 7.85 5.34 8.76
6/17/2022 2:45:00 PM 23.04 73.472 0.263 7.88 3.3 8.85
6/17/2022 3:00:00 PM 23.19 73.742 0.254 7.88 4.08 8.8
6/17/2022 3:15:00 PM 23.32 73.976 0.266 7.88 8.89 8.74
6/17/2022 3:30:00 PM 23.27 73.886 0.265 7.86 4.8 8.64
6/17/2022 3:45:00 PM 23.27 73.886 0.266 7.84 5.08 8.56
6/17/2022 4:00:00 PM 23.33 73.994 0.269 7.83 14.2 8.55
6/17/2022 4:15:00 PM 23.35 74.03 0.255 7.83 3.49 8.53
6/17/2022 4:30:00 PM 23.34 74.012 0.264 7.82 6.22 8.5
6/17/2022 4:45:00 PM 23.38 74.084 0.254 7.82 7.16 8.48
6/17/2022 5:00:00 PM 23.37 74.066 0.253 7.8 8.76 8.43
6/17/2022 5:15:00 PM 23.32 73.976 0.254 7.78 7.91 8.36
6/17/2022 5:30:00 PM 23.29 73.922 0.254 7.77 6.42 8.33
6/17/2022 5:45:00 PM 23.23 73.814 0.254 7.75 3.83 8.26
6/17/2022 6:00:00 PM 23.13 73.634 0.255 7.72 2.21 8.17
6/17/2022 6:15:00 PM 23.07 73.526 0.254 7.69 4.49 8.08
6/17/2022 6:30:00 PM 23.03 73.454 0.254 7.66 9.54 8.03
6/17/2022 6:45:00 PM 22.95 73.31 0.254 7.65 2.61 7.94
6/17/2022 7:00:00 PM 22.87 73.166 0.254 7.62 4.21 7.89
6/17/2022 7:15:00 PM 22.77 72.986 0.255 7.59 5.23 7.81
6/17/2022 7:30:00 PM 22.71 72.878 0.255 7.57 24.31 7.75
6/17/2022 7:45:00 PM 22.64 72.752 0.263 7.55 2.93 7.7
6/17/2022 8:00:00 PM 22.56 72.608 0.266 7.53 3.09 7.65
6/17/2022 8:15:00 PM 22.48 72.464 0.269 7.51 2.34 7.61
6/17/2022 8:30:00 PM 22.4 72.32 0.27 7.5 3.83 7.58
6/17/2022 8:45:00 PM 22.29 72.122 0.269 7.48 7.39 7.53
6/17/2022 9:00:00 PM 22.19 71.942 0.269 7.46 3.81 7.51
6/17/2022 9:15:00 PM 22.09 71.762 0.27 7.46 2.54 7.51
6/17/2022 9:30:00 PM 21.98 71.564 0.268 7.45 2.29 7.52
6/17/2022 9:45:00 PM 21.87 71.366 0.266 7.44 19.63 7.5
6/17/2022 10:00:00 PM 21.76 71.168 0.266 7.43 2.08 7.53
6/17/2022 10:15:00 PM 21.66 70.988 0.265 7.44 2.38 7.57
6/17/2022 10:30:00 PM 21.53 70.754 0.278 7.43 2.24 7.57
6/17/2022 10:45:00 PM 21.43 70.574 0.267 7.43 2.26 7.6
6/17/2022 11:00:00 PM 21.32 70.376 0.265 7.43 2.26 7.63
6/17/2022 11:15:00 PM 21.18 70.124 0.267 7.42 2.37 7.61
6/17/2022 11:30:00 PM 21.05 69.89 0.267 7.41 2.42 7.64
6/17/2022 11:45:00 PM 20.93 69.674 0.267 7.42 2.99 7.67
6/18/2022 12:00:00 AM 20.82 69.476 0.267 7.42 2.14 7.7
6/18/2022 12:15:00 AM 20.72 69.296 0.265 7.42 2.3 7.73
6/18/2022 12:30:00 AM 20.62 69.116 0.267 7.42 2.27 7.73
6/18/2022 12:45:00 AM 20.52 68.936 0.264 7.42 2.62 7.76
6/18/2022 1:00:00 AM 20.43 68.774 0.267 7.42 2.66 7.78
6/18/2022 1:15:00 AM 20.34 68.612 0.266 7.42 2.22 7.79
6/18/2022 1:30:00 AM 20.23 68.414 0.267 7.42 2.54 7.82
6/18/2022 1:45:00 AM 20.1 68.18 0.264 7.42 2.54 7.85
6/18/2022 2:00:00 AM 19.99 67.982 0.268 7.42 2.5 7.85
6/18/2022 2:15:00 AM 19.88 67.784 0.267 7.42 2.67 7.85
6/18/2022 2:30:00 AM 19.78 67.604 0.268 7.42 3.07 7.9
6/18/2022 2:45:00 AM 19.69 67.442 0.267 7.42 3.42 7.92
6/18/2022 3:00:00 AM 19.59 67.262 0.268 7.43 2.06 7.95
6/18/2022 3:15:00 AM 19.49 67.082 0.269 7.43 2.21 7.98
6/18/2022 3:30:00 AM 19.37 66.866 0.271 7.42 2.44 7.99
6/18/2022 3:45:00 AM 19.3 66.74 0.269 7.42 2.39 8
6/18/2022 4:00:00 AM 19.23 66.614 0.272 7.42 5.25 8.03
6/18/2022 4:15:00 AM 19.17 66.506 0.27 7.42 2.82 8.04
6/18/2022 4:30:00 AM 19.09 66.362 0.269 7.41 9.01 8.03
6/18/2022 4:45:00 AM 19.04 66.272 0.269 7.41 2.3 8.05
6/18/2022 5:00:00 AM 18.98 66.164 0.27 7.41 2.31 8.09
6/18/2022 5:15:00 AM 18.91 66.038 0.27 7.39 3.76 8.06
6/18/2022 5:30:00 AM 18.85 65.93 0.269 7.39 8.33 8.1
6/18/2022 5:45:00 AM 18.8 65.84 0.268 7.39 59.26 8.13
6/18/2022 6:00:00 AM 18.73 65.714 0.266 7.39 2.24 8.12
6/18/2022 6:15:00 AM 18.7 65.66 0.267 7.39 9.17 8.16
6/18/2022 6:30:00 AM 18.64 65.552 0.266 7.4 11.85 8.24
6/18/2022 6:45:00 AM 18.6 65.48 0.267 7.42 3.83 8.3
6/18/2022 7:00:00 AM 18.52 65.336 0.267 7.43 35.57 8.36
6/18/2022 7:15:00 AM 18.45 65.21 0.267 7.44 68.5 8.43
6/18/2022 7:30:00 AM 18.41 65.138 0.27 7.45 2.99 8.53
6/18/2022 7:45:00 AM 18.38 65.084 0.271 7.49 2.04 8.72
6/18/2022 8:00:00 AM 18.37 65.066 0.27 7.52 59.55 8.87
6/18/2022 8:15:00 AM 18.38 65.084 0.27 7.56 3.21 8.98
6/18/2022 8:30:00 AM 18.29 64.922 0.268 7.56 3.85 8.92
6/18/2022 8:45:00 AM 18.26 64.868 0.267 7.58 7.52 9.04
6/18/2022 9:00:00 AM 18.23 64.814 0.267 7.61 2.03 9.15
6/18/2022 9:15:00 AM 18.2 64.76 0.267 7.63 2.51 9.2
6/18/2022 9:30:00 AM 18.16 64.688 0.266 7.63 1.95 9.17
6/18/2022 9:45:00 AM 18.11 64.598 0.267 7.63 3.19 9.16
6/18/2022 10:00:00 AM 18.13 64.634 0.267 7.64 2.94 9.18
6/18/2022 10:15:00 AM 18.17 64.706 0.28 7.67 3.23 9.28
6/18/2022 10:30:00 AM 18.09 64.562 0.28 7.66 2.86 9.23
6/18/2022 10:45:00 AM 18.14 64.652 0.282 7.69 5.06 9.35
6/18/2022 11:00:00 AM 18.05 64.49 0.279 7.68 2.25 9.29
6/18/2022 11:15:00 AM 18.03 64.454 0.279 7.7 1.89 9.35
6/18/2022 11:30:00 AM 18.05 64.49 0.286 7.73 1.73 9.44
6/18/2022 11:45:00 AM 18.12 64.616 0.258 7.77 2.06 9.54
6/18/2022 12:00:00 PM 18.07 64.526 0.268 7.77 2.9 9.46
6/18/2022 12:15:00 PM 18.02 64.436 0.277 7.76 2.34 9.45
6/18/2022 12:30:00 PM 18.02 64.436 0.281 7.77 2.93 9.49
6/18/2022 12:45:00 PM 18.04 64.472 0.278 7.79 3.82 9.54
6/18/2022 1:00:00 PM 18.01 64.418 0.277 7.79 1.99 9.51
6/18/2022 1:15:00 PM 17.93 64.274 0.273 7.78 3.6 9.47
6/18/2022 1:30:00 PM 17.86 64.148 0.272 7.76 2.67 9.42
6/18/2022 1:45:00 PM 17.79 64.022 0.272 7.74 1.95 9.36
6/18/2022 2:00:00 PM 17.75 63.95 0.275 7.73 1.67 9.36
6/18/2022 2:15:00 PM 17.76 63.968 0.278 7.75 2.34 9.45
6/18/2022 2:30:00 PM 17.76 63.968 0.28 7.76 3.2 9.47
6/18/2022 2:45:00 PM 17.78 64.004 0.276 7.79 3.04 9.54
6/18/2022 3:00:00 PM 17.81 64.058 0.274 7.81 3.18 9.62
6/18/2022 3:15:00 PM 17.88 64.184 0.273 7.84 3.16 9.66
6/18/2022 3:30:00 PM 17.9 64.22 0.272 7.85 2.67 9.69
6/18/2022 3:45:00 PM 17.93 64.274 0.271 7.87 3.22 9.68
6/18/2022 4:00:00 PM 18.01 64.418 0.27 7.89 3.37 9.74
6/18/2022 4:15:00 PM 17.98 64.364 0.271 7.89 3.65 9.69
6/18/2022 4:30:00 PM 17.95 64.31 0.269 7.87 3.54 9.64
6/18/2022 4:45:00 PM 17.88 64.184 0.268 7.82 3.2 9.46
6/18/2022 5:00:00 PM 17.87 64.166 0.265 7.8 3.16 9.45
6/18/2022 5:15:00 PM 17.85 64.13 0.267 7.79 3.15 9.41
6/18/2022 5:30:00 PM 17.83 64.094 0.264 7.76 1.72 9.27
6/18/2022 5:45:00 PM 17.81 64.058 0.265 7.74 2.19 9.28
6/18/2022 6:00:00 PM 17.88 64.184 0.263 7.76 3.1 9.36
6/18/2022 6:15:00 PM 17.9 64.22 0.264 7.76 3.08 9.34
6/18/2022 6:30:00 PM 17.85 64.13 0.263 7.74 2.73 9.27
6/18/2022 6:45:00 PM 17.73 63.914 0.27 7.7 2.71 9.17
6/18/2022 7:00:00 PM 17.71 63.878 0.27 7.69 3.1 9.17
6/18/2022 7:15:00 PM 17.65 63.77 0.263 7.66 3.22 9.09
6/18/2022 7:30:00 PM 17.57 63.626 0.263 7.64 9.71 9
6/18/2022 7:45:00 PM 17.49 63.482 0.269 7.61 2.66 8.92
6/18/2022 8:00:00 PM 17.41 63.338 0.272 7.58 3.25 8.83
6/18/2022 8:15:00 PM 17.34 63.212 0.284 7.55 3.96 8.78
6/18/2022 8:30:00 PM 17.27 63.086 0.276 7.53 1.9 8.72
6/18/2022 8:45:00 PM 17.21 62.978 0.276 7.5 2.68 8.65
6/18/2022 9:00:00 PM 17.17 62.906 0.273 7.5 3.1 8.64
6/18/2022 9:15:00 PM 17.11 62.798 0.266 7.48 1.78 8.61
6/18/2022 9:30:00 PM 17.04 62.672 0.271 7.47 2.85 8.6
6/18/2022 9:45:00 PM 16.97 62.546 0.274 7.45 2.38 8.58
6/18/2022 10:00:00 PM 16.88 62.384 0.267 7.45 1.95 8.58
6/18/2022 10:15:00 PM 16.82 62.276 0.265 7.44 2.03 8.58
6/18/2022 10:30:00 PM 16.73 62.114 0.265 7.44 1.84 8.59
6/18/2022 10:45:00 PM 16.67 62.006 0.269 7.44 1.96 8.62
6/18/2022 11:00:00 PM 16.6 61.88 0.266 7.43 2.04 8.63
6/18/2022 11:15:00 PM 16.52 61.736 0.266 7.43 1.97 8.64
6/18/2022 11:30:00 PM 16.44 61.592 0.275 7.42 1.89 8.65
6/18/2022 11:45:00 PM 16.37 61.466 0.266 7.41 1.91 8.66
6/19/2022 12:00:00 AM 16.31 61.358 0.266 7.41 1.91 8.7
6/19/2022 12:15:00 AM 16.24 61.232 0.266 7.41 1.99 8.7
6/19/2022 12:30:00 AM 16.16 61.088 0.266 7.4 1.93 8.7
6/19/2022 12:45:00 AM 16.1 60.98 0.266 7.41 1.92 8.73
6/19/2022 1:00:00 AM 16.02 60.836 0.267 7.4 2.12 8.74
6/19/2022 1:15:00 AM 15.95 60.71 0.267 7.4 1.92 8.76
6/19/2022 1:30:00 AM 15.87 60.566 0.273 7.4 1.84 8.78
6/19/2022 1:45:00 AM 15.8 60.44 0.268 7.4 1.85 8.78
6/19/2022 2:00:00 AM 15.73 60.314 0.277 7.41 1.8 8.81
6/19/2022 2:15:00 AM 15.66 60.188 0.274 7.41 1.79 8.83
6/19/2022 2:30:00 AM 15.58 60.044 0.274 7.4 1.87 8.84
6/19/2022 2:45:00 AM 15.53 59.954 0.277 7.41 1.91 8.89
6/19/2022 3:00:00 AM 15.43 59.774 0.268 7.4 4.94 8.87
6/19/2022 3:15:00 AM 15.35 59.63 0.268 7.4 1.86 8.88
6/19/2022 3:30:00 AM 15.28 59.504 0.268 7.4 1.89 8.9
6/19/2022 3:45:00 AM 15.19 59.342 0.268 7.4 1.82 8.93
6/19/2022 4:00:00 AM 15.13 59.234 0.268 7.41 2.17 8.96
6/19/2022 4:15:00 AM 15.05 59.09 0.274 7.4 3.51 8.97
6/19/2022 4:30:00 AM 14.97 58.946 0.268 7.4 3.41 8.98
6/19/2022 4:45:00 AM 14.88 58.784 0.268 7.4 2 9
6/19/2022 5:00:00 AM 14.82 58.676 0.268 7.4 2.32 9.03
6/19/2022 5:15:00 AM 14.73 58.514 0.268 7.39 3.09 9.03
6/19/2022 5:30:00 AM 14.68 58.424 0.268 7.4 3.61 9.07
6/19/2022 5:45:00 AM 14.61 58.298 0.268 7.41 1.99 9.11
6/19/2022 6:00:00 AM 14.54 58.172 0.268 7.41 4.87 9.14
6/19/2022 6:15:00 AM 14.48 58.064 0.268 7.42 274.93 9.2
6/19/2022 6:30:00 AM 14.43 57.974 0.268 7.42 86.74 9.24
6/19/2022 6:45:00 AM 14.39 57.902 0.268 7.44 12.89 9.3
6/19/2022 7:00:00 AM 14.36 57.848 0.268 7.45 22.09 9.34
6/19/2022 7:15:00 AM 14.34 57.812 0.268 7.46 4.31 9.41
6/19/2022 7:30:00 AM 14.35 57.83 0.268 7.49 2.02 9.51
6/19/2022 7:45:00 AM 14.42 57.956 0.268 7.51 1.98 9.62
6/19/2022 8:00:00 AM 14.48 58.064 0.261 7.53 3.43 9.7
6/19/2022 8:15:00 AM 14.55 58.19 0.267 7.55 4.42 9.77
6/19/2022 8:30:00 AM 14.61 58.298 0.267 7.58 1.56 9.82
6/19/2022 8:45:00 AM 14.67 58.406 0.267 7.6 3.46 9.86
6/19/2022 9:00:00 AM 14.75 58.55 0.267 7.61 4.96 9.9
6/19/2022 9:15:00 AM 14.81 58.658 0.267 7.63 5.34 9.93
6/19/2022 9:30:00 AM 14.89 58.802 0.267 7.65 2.79 9.96
6/19/2022 9:45:00 AM 14.96 58.928 0.232 7.65 4.09 10
6/19/2022 10:00:00 AM 14.92 58.856 0.299 7.67 3.03 9.97
6/19/2022 10:15:00 AM 15.08 59.144 0.267 7.68 12.22 10.04
6/19/2022 10:30:00 AM 15.13 59.234 0.169 7.7 4.66 10.04
6/19/2022 10:45:00 AM 15.25 59.45 0.266 7.71 1.69 10.08
6/19/2022 11:00:00 AM 15.43 59.774 0.267 7.74 2.81 10.13
6/19/2022 11:15:00 AM 15.53 59.954 0.267 7.77 34.44 10.16
6/19/2022 11:30:00 AM 15.69 60.242 0.266 7.78 2.15 10.2
6/19/2022 11:45:00 AM 15.95 60.71 0.267 7.81 5.78 10.21
6/19/2022 12:00:00 PM 16.14 61.052 0.267 7.83 3.1 10.21
6/19/2022 12:15:00 PM 16.34 61.412 0.266 7.85 3.75 10.2
6/19/2022 12:30:00 PM 16.56 61.808 0.266 7.87 1.85 10.18
6/19/2022 12:45:00 PM 16.8 62.24 0.266 7.89 111.82 10.17
6/19/2022 1:00:00 PM 17.06 62.708 0.266 7.9 1.68 10.15
6/19/2022 1:15:00 PM 17.28 63.104 0.266 7.91 3.15 10.1
6/19/2022 1:30:00 PM 17.59 63.662 0.266 7.93 1.61 10.07
6/19/2022 1:45:00 PM 17.9 64.22 0.267 7.95 2.64 10.03
6/19/2022 2:00:00 PM 18.14 64.652 0.267 7.95 3.74 9.98
6/19/2022 2:15:00 PM 18.36 65.048 0.27 7.95 2.96 9.91
6/19/2022 2:30:00 PM 18.58 65.444 0.274 7.95 2.98 9.86
6/19/2022 2:45:00 PM 18.74 65.732 0.278 7.95 2 9.81
6/19/2022 3:00:00 PM 18.92 66.056 0.28 7.95 2.63 9.76
6/19/2022 3:15:00 PM 19.08 66.344 0.282 7.95 1.69 9.69
6/19/2022 3:30:00 PM 19.2 66.56 0.281 7.93 2.77 9.64
6/19/2022 3:45:00 PM 19.3 66.74 0.281 7.93 3.42 9.57
6/19/2022 4:00:00 PM 19.34 66.812 0.286 7.92 3.3 9.52
6/19/2022 4:15:00 PM 19.34 66.812 0.267 7.91 3.07 9.46
6/19/2022 4:30:00 PM 19.34 66.812 0.269 7.89 2.66 9.42
6/19/2022 4:45:00 PM 19.31 66.758 0.267 7.87 3.16 9.36
6/19/2022 5:00:00 PM 19.24 66.632 0.268 7.86 3.05 9.32
6/19/2022 5:15:00 PM 19.19 66.542 0.268 7.84 3.1 9.25
6/19/2022 5:30:00 PM 19.11 66.398 0.268 7.82 9.31 9.21
6/19/2022 5:45:00 PM 19.02 66.236 0.269 7.81 103.09 9.17
6/19/2022 6:00:00 PM 18.93 66.074 0.269 7.78 3.65 9.11
6/19/2022 6:15:00 PM 18.84 65.912 0.273 7.77 4.32 9.09
6/19/2022 6:30:00 PM 18.73 65.714 0.283 7.74 3.44 9.03
6/19/2022 6:45:00 PM 18.65 65.57 0.288 7.73 3.5 8.98
6/19/2022 7:00:00 PM 18.55 65.39 0.288 7.7 3.42 8.91
6/19/2022 7:15:00 PM 18.41 65.138 0.289 7.66 3.62 8.8
6/19/2022 7:30:00 PM 18.31 64.958 0.288 7.63 3.07 8.72
6/19/2022 7:45:00 PM 18.2 64.76 0.288 7.61 2.99 8.65
6/19/2022 8:00:00 PM 18.14 64.652 0.287 7.59 3.16 8.58
6/19/2022 8:15:00 PM 18.07 64.526 0.288 7.56 1.83 8.54
6/19/2022 8:30:00 PM 18 64.4 0.287 7.54 1.54 8.48
6/19/2022 8:45:00 PM 17.94 64.292 0.287 7.53 1.62 8.44
6/19/2022 9:00:00 PM 17.86 64.148 0.289 7.52 2.66 8.42
6/19/2022 9:15:00 PM 17.77 63.986 0.288 7.5 2.17 8.4
6/19/2022 9:30:00 PM 17.68 63.824 0.287 7.49 1.64 8.38
6/19/2022 9:45:00 PM 17.6 63.68 0.288 7.48 1.78 8.39
6/19/2022 10:00:00 PM 17.53 63.554 0.288 7.47 2.06 8.36
6/19/2022 10:15:00 PM 17.43 63.374 0.288 7.46 2.22 8.4
6/19/2022 10:30:00 PM 17.33 63.194 0.288 7.46 3.27 8.41
6/19/2022 10:45:00 PM 17.21 62.978 0.288 7.46 1.73 8.42
6/19/2022 11:00:00 PM 17.1 62.78 0.286 7.45 1.74 8.43
6/19/2022 11:15:00 PM 17 62.6 0.286 7.45 1.68 8.47
6/19/2022 11:30:00 PM 16.89 62.402 0.287 7.45 1.73 8.5
6/19/2022 11:45:00 PM 16.77 62.186 0.287 7.44 1.71 8.51
6/20/2022 12:00:00 AM 16.67 62.006 0.286 7.44 1.94 8.55
6/20/2022 12:15:00 AM 16.55 61.79 0.286 7.44 1.83 8.59
6/20/2022 12:30:00 AM 16.41 61.538 0.287 7.43 1.68 8.6
6/20/2022 12:45:00 AM 16.29 61.322 0.287 7.43 1.83 8.63
6/20/2022 1:00:00 AM 16.15 61.07 0.287 7.43 1.7 8.65
6/20/2022 1:15:00 AM 16.03 60.854 0.288 7.43 1.79 8.7
6/20/2022 1:30:00 AM 15.91 60.638 0.288 7.42 1.76 8.71
6/20/2022 1:45:00 AM 15.78 60.404 0.29 7.43 1.75 8.75
6/20/2022 2:00:00 AM 15.65 60.17 0.288 7.42 2.7 8.78
6/20/2022 2:15:00 AM 15.53 59.954 0.287 7.42 1.84 8.82
6/20/2022 2:30:00 AM 15.4 59.72 0.288 7.41 1.67 8.82
6/20/2022 2:45:00 AM 15.29 59.522 0.287 7.39 1.72 8.87
6/20/2022 3:00:00 AM 15.16 59.288 0.287 7.39 3.83 8.9
6/20/2022 3:15:00 AM 15.04 59.072 0.288 7.39 4.2 8.92
6/20/2022 3:30:00 AM 14.92 58.856 0.286 7.38 2.25 8.96
6/20/2022 3:45:00 AM 14.82 58.676 0.283 7.38 3.57 8.99
6/20/2022 4:00:00 AM 14.7 58.46 0.281 7.38 3.46 9.01
6/20/2022 4:15:00 AM 14.59 58.262 0.286 7.38 3.33 9.04
6/20/2022 4:30:00 AM 14.47 58.046 0.286 7.37 1.69 9.06
6/20/2022 4:45:00 AM 14.38 57.884 0.285 7.38 2.11 9.11
6/20/2022 5:00:00 AM 14.26 57.668 0.291 7.37 5.03 9.12
6/20/2022 5:15:00 AM 14.16 57.488 0.298 7.37 5.69 9.13
6/20/2022 5:30:00 AM 14.05 57.29 0.3 7.37 6.01 9.17
6/20/2022 5:45:00 AM 13.96 57.128 0.3 7.37 5.53 9.22
6/20/2022 6:00:00 AM 13.89 57.002 0.287 7.38 1.96 9.27
6/20/2022 6:15:00 AM 13.81 56.858 0.287 7.39 5.07 9.36
6/20/2022 6:30:00 AM 13.72 56.696 0.288 7.38 2.82 9.38
6/20/2022 6:45:00 AM 13.66 56.588 0.288 7.4 4.63 9.46
6/20/2022 7:00:00 AM 13.58 56.444 0.292 7.41 4.07 9.51
6/20/2022 7:15:00 AM 13.55 56.39 0.291 7.42 2.18 9.62
6/20/2022 7:30:00 AM 13.54 56.372 0.29 7.45 2.28 9.74
6/20/2022 7:45:00 AM 13.62 56.516 0.289 7.47 2.22 9.89
6/20/2022 8:00:00 AM 13.69 56.642 0.291 7.5 1.55 9.97
6/20/2022 8:15:00 AM 13.78 56.804 0.295 7.53 2.26 10.05
6/20/2022 8:30:00 AM 13.86 56.948 0.305 7.55 1.43 10.1
6/20/2022 8:45:00 AM 13.95 57.11 0.295 7.57 2.87 10.14
6/20/2022 9:00:00 AM 14.06 57.308 0.29 7.59 4.47 10.19
6/20/2022 9:15:00 AM 14.17 57.506 0.273 7.61 7.36 10.23
6/20/2022 9:30:00 AM 14.3 57.74 0.28 7.63 15.43 10.26
6/20/2022 9:45:00 AM 14.42 57.956 0.279 7.64 5.45 10.26
6/20/2022 10:00:00 AM 14.56 58.208 0.275 7.66 2.83 10.28
6/20/2022 10:15:00 AM 14.71 58.478 0.271 7.67 3.67 10.28
6/20/2022 10:30:00 AM 14.88 58.784 0.273 7.69 1.55 10.3
6/20/2022 10:45:00 AM 15.07 59.126 0.264 7.71 4.81 10.29
6/20/2022 11:00:00 AM 15.24 59.432 0.273 7.72 1.95 10.29
6/20/2022 11:15:00 AM 15.44 59.792 0.273 7.73 2.15 10.27
6/20/2022 11:30:00 AM 15.68 60.224 0.273 7.76 2.49 10.29
6/20/2022 11:45:00 AM 15.89 60.602 0.26 7.76 3.25 10.26
6/20/2022 12:00:00 PM 16.15 61.07 0.273 7.79 4.6 10.26
6/20/2022 12:15:00 PM 16.4 61.52 0.273 7.8 3.8 10.24
6/20/2022 12:30:00 PM 16.71 62.078 0.272 7.82 1.38 10.23
6/20/2022 12:45:00 PM 17.02 62.636 0.273 7.84 3.79 10.19
6/20/2022 1:00:00 PM 17.32 63.176 0.271 7.86 2.19 10.16
6/20/2022 1:15:00 PM 17.62 63.716 0.272 7.87 1.77 10.13
6/20/2022 1:30:00 PM 17.92 64.256 0.271 7.88 2.35 10.09
6/20/2022 1:45:00 PM 18.26 64.868 0.273 7.91 1.77 10.06
6/20/2022 2:00:00 PM 18.54 65.372 0.272 7.91 2.48 10
6/20/2022 2:15:00 PM 18.79 65.82201 0.274 7.9 2.77 9.93
6/20/2022 2:30:00 PM 19.07 66.326 0.273 7.91 88.37 9.87
6/20/2022 2:45:00 PM 19.32 66.776 0.273 7.93 3.48 9.84
6/20/2022 3:00:00 PM 19.52 67.136 0.274 7.93 3.78 9.79
6/20/2022 3:15:00 PM 19.72 67.496 0.274 7.93 2.37 9.74
6/20/2022 3:30:00 PM 19.88 67.784 0.274 7.94 2.84 9.69
6/20/2022 3:45:00 PM 20 68 0.274 7.93 3.55 9.62
6/20/2022 4:00:00 PM 20.1 68.18 0.275 7.93 2.3 9.56
6/20/2022 4:15:00 PM 20.14 68.252 0.275 7.92 1.59 9.51
6/20/2022 4:30:00 PM 20.15 68.27 0.276 7.91 1.57 9.44
6/20/2022 4:45:00 PM 20.16 68.288 0.274 7.89 2.32 9.36
6/20/2022 5:00:00 PM 20.16 68.288 0.275 7.87 1.52 9.31
6/20/2022 5:15:00 PM 20.11 68.198 0.276 7.85 2.63 9.24
6/20/2022 5:30:00 PM 20.03 68.054 0.276 7.83 2.32 9.19
6/20/2022 5:45:00 PM 19.95 67.91 0.276 7.82 2.06 9.15
6/20/2022 6:00:00 PM 19.88 67.784 0.276 7.79 2.42 9.06
6/20/2022 6:15:00 PM 19.84 67.712 0.276 7.77 1.49 9.05
6/20/2022 6:30:00 PM 19.82 67.676 0.276 7.76 1.39 8.99
6/20/2022 6:45:00 PM 19.79 67.622 0.277 7.74 3.4 8.9
6/20/2022 7:00:00 PM 19.74 67.532 0.278 7.7 5.64 8.8
6/20/2022 7:15:00 PM 19.66 67.388 0.277 7.67 18.59 8.66
6/20/2022 7:30:00 PM 19.57 67.226 0.278 7.63 4.42 8.53
6/20/2022 7:45:00 PM 19.5 67.1 0.279 7.59 2.66 8.42
6/20/2022 8:00:00 PM 19.43 66.974 0.281 7.57 4.38 8.34
6/20/2022 8:15:00 PM 19.35 66.83 0.281 7.54 2.09 8.26
6/20/2022 8:30:00 PM 19.27 66.686 0.284 7.52 3.35 8.2
6/20/2022 8:45:00 PM 19.2 66.56 0.288 7.5 4.14 8.15
6/20/2022 9:00:00 PM 19.11 66.398 0.292 7.49 1.46 8.1
6/20/2022 9:15:00 PM 19 66.2 0.295 7.47 1.52 8.07
6/20/2022 9:30:00 PM 18.94 66.092 0.296 7.46 1.59 8.05
6/20/2022 9:45:00 PM 18.84 65.912 0.297 7.45 1.63 8.04
6/20/2022 10:00:00 PM 18.77 65.786 0.297 7.45 2 8.06
6/20/2022 10:15:00 PM 18.68 65.624 0.297 7.44 1.54 8.05
6/20/2022 10:30:00 PM 18.62 65.516 0.297 7.44 1.68 8.08
6/20/2022 10:45:00 PM 18.53 65.354 0.297 7.43 1.83 8.06
6/20/2022 11:00:00 PM 18.44 65.192 0.296 7.43 1.9 8.09
6/20/2022 11:15:00 PM 18.35 65.03 0.296 7.42 1.65 8.1
6/20/2022 11:30:00 PM 18.29 64.922 0.296 7.43 2.04 8.14
6/20/2022 11:45:00 PM 18.19 64.742 0.296 7.42 2.33 8.13
6/21/2022 12:00:00 AM 18.1 64.58 0.296 7.42 1.81 8.16
6/21/2022 12:15:00 AM 18 64.4 0.295 7.42 1.7 8.18
6/21/2022 12:30:00 AM 17.93 64.274 0.296 7.42 1.73 8.22
6/21/2022 12:45:00 AM 17.82 64.076 0.296 7.42 1.75 8.23
6/21/2022 1:00:00 AM 17.7 63.86 0.296 7.41 2.61 8.24
6/21/2022 1:15:00 AM 17.59 63.662 0.296 7.41 1.75 8.27
6/21/2022 1:30:00 AM 17.49 63.482 0.296 7.41 2.04 8.3
6/21/2022 1:45:00 AM 17.4 63.32 0.296 7.42 1.63 8.36
6/21/2022 2:00:00 AM 17.28 63.104 0.296 7.41 1.73 8.36
6/21/2022 2:15:00 AM 17.16 62.888 0.294 7.41 1.62 8.39
6/21/2022 2:30:00 AM 17.04 62.672 0.294 7.41 1.67 8.42
6/21/2022 2:45:00 AM 16.93 62.474 0.293 7.4 6.95 8.45
6/21/2022 3:00:00 AM 16.81 62.258 0.293 7.4 1.6 8.46
6/21/2022 3:15:00 AM 16.71 62.078 0.292 7.4 1.63 8.51
6/21/2022 3:30:00 AM 16.61 61.898 0.292 7.41 1.66 8.54
6/21/2022 3:45:00 AM 16.48 61.664 0.292 7.4 1.75 8.54
6/21/2022 4:00:00 AM 16.39 61.502 0.291 7.4 2.45 8.59
6/21/2022 4:15:00 AM 16.26 61.268 0.292 7.4 2.49 8.6
6/21/2022 4:30:00 AM 16.16 61.088 0.292 7.39 2.12 8.63
6/21/2022 4:45:00 AM 16.06 60.908 0.292 7.39 2.48 8.64
6/21/2022 5:00:00 AM 15.95 60.71 0.292 7.39 2.57 8.66
6/21/2022 5:15:00 AM 15.85 60.53 0.294 7.39 2.84 8.7
6/21/2022 5:30:00 AM 15.74 60.332 0.295 7.39 4.96 8.74
6/21/2022 5:45:00 AM 15.66 60.188 0.295 7.39 5.24 8.79
6/21/2022 6:00:00 AM 15.58 60.044 0.294 7.38 4.5 8.84
6/21/2022 6:15:00 AM 15.51 59.918 0.293 7.39 5.54 8.95
6/21/2022 6:30:00 AM 15.43 59.774 0.297 7.39 3.16 8.97
6/21/2022 6:45:00 AM 15.36 59.648 0.291 7.39 4.76 9.03
6/21/2022 7:00:00 AM 15.33 59.594 0.294 7.41 1.77 9.13
6/21/2022 7:15:00 AM 15.3 59.54 0.296 7.42 7.1 9.24
6/21/2022 7:30:00 AM 15.3 59.54 0.293 7.44 2.77 9.36
6/21/2022 7:45:00 AM 15.32 59.576 0.292 7.47 1.72 9.56
6/21/2022 8:00:00 AM 15.34 59.612 0.291 7.51 2.4 9.66
6/21/2022 8:15:00 AM 15.31 59.558 0.29 7.5 2.48 9.61
6/21/2022 8:30:00 AM 15.32 59.576 0.29 7.52 2.83 9.68
6/21/2022 8:45:00 AM 15.32 59.576 0.291 7.53 1.92 9.71
6/21/2022 9:00:00 AM 15.33 59.594 0.29 7.54 2.34 9.72
6/21/2022 9:15:00 AM 15.38 59.684 0.29 7.55 2.53 9.8
6/21/2022 9:30:00 AM 15.51 59.918 0.29 7.62 1.88 10.04
6/21/2022 9:45:00 AM 15.53 59.954 0.289 7.62 2.64 9.98
6/21/2022 10:00:00 AM 15.6 60.08 0.289 7.65 9.96 10.09
6/21/2022 10:15:00 AM 15.69 60.242 0.29 7.68 2.83 10.17
6/21/2022 10:30:00 AM 15.85 60.53 0.29 7.72 3.34 10.3
6/21/2022 10:45:00 AM 16.02 60.836 0.287 7.77 1.75 10.37
6/21/2022 11:00:00 AM 16.08 60.944 0.318 7.8 2.99 10.4
6/21/2022 11:15:00 AM 16.09 60.962 0.277 7.79 2.53 10.26
6/21/2022 11:30:00 AM 16.14 61.052 0.299 7.79 3.18 10.26
6/21/2022 11:45:00 AM 16.24 61.232 0.294 7.81 1.48 10.29
6/21/2022 12:00:00 PM 16.43 61.574 0.276 7.85 9.75 10.38
6/21/2022 12:15:00 PM 16.51 61.718 0.299 7.87 1.68 10.36
6/21/2022 12:30:00 PM 16.76 62.168 0.289 7.92 5.52 10.45
6/21/2022 12:45:00 PM 16.92 62.456 0.284 7.95 1.85 10.48
6/21/2022 1:00:00 PM 17.01 62.618 0.287 7.98 1.43 10.47
6/21/2022 1:15:00 PM 17.19 62.942 0.292 8.02 1.43 10.53
6/21/2022 1:30:00 PM 17.25 63.05 0.295 8.05 1.73 10.5
6/21/2022 1:45:00 PM 17.34 63.212 0.294 8.04 2.39 10.45
6/21/2022 2:00:00 PM 17.37 63.266 0.293 8.02 2.59 10.31
6/21/2022 2:15:00 PM 17.37 63.266 0.292 7.99 2.99 10.18
6/21/2022 2:30:00 PM 17.42 63.356 0.291 7.97 1.85 10.13
6/21/2022 2:45:00 PM 17.62 63.716 0.332 8.01 2.49 10.25
6/21/2022 3:00:00 PM 17.85 64.13 0.275 8.05 1.35 10.29
6/21/2022 3:15:00 PM 17.97 64.346 0.275 8.06 1.34 10.25
6/21/2022 3:30:00 PM 18.16 64.688 0.276 8.08 1.79 10.28
6/21/2022 3:45:00 PM 18.21 64.778 0.276 8.07 1.88 10.22
6/21/2022 4:00:00 PM 18.3 64.94 0.275 8.08 3.38 10.2
6/21/2022 4:15:00 PM 18.44 65.192 0.275 8.1 1.99 10.22
6/21/2022 4:30:00 PM 18.48 65.264 0.275 8.11 3.15 10.16
6/21/2022 4:45:00 PM 18.45 65.21 0.275 8.05 2.61 9.93
6/21/2022 5:00:00 PM 18.43 65.174 0.275 7.98 5.67 9.73
6/21/2022 5:15:00 PM 18.41 65.138 0.276 7.91 2.14 9.57
6/21/2022 5:30:00 PM 18.44 65.192 0.275 7.9 2.89 9.6
6/21/2022 5:45:00 PM 18.54 65.372 0.275 7.92 1.5 9.66
6/21/2022 6:00:00 PM 18.56 65.408 0.276 7.9 3.59 9.59
6/21/2022 6:15:00 PM 18.57 65.426 0.274 7.88 2.62 9.52
6/21/2022 6:30:00 PM 18.59 65.462 0.275 7.86 1.66 9.43
6/21/2022 6:45:00 PM 18.61 65.498 0.275 7.82 6.1 9.37
6/21/2022 7:00:00 PM 18.66 65.588 0.275 7.81 3.83 9.32
6/21/2022 7:15:00 PM 18.64 65.552 0.277 7.76 53.56 9.14
6/21/2022 7:30:00 PM 18.61 65.498 0.278 7.71 2.27 8.98
6/21/2022 7:45:00 PM 18.57 65.426 0.281 7.65 4.07 8.82
6/21/2022 8:00:00 PM 18.55 65.39 0.287 7.61 1.98 8.7
6/21/2022 8:15:00 PM 18.53 65.354 0.288 7.58 1.45 8.59
6/21/2022 8:30:00 PM 18.51 65.318 0.289 7.55 2.28 8.48
6/21/2022 8:45:00 PM 18.5 65.3 0.293 7.52 1.85 8.38
6/21/2022 9:00:00 PM 18.47 65.246 0.295 7.49 3.31 8.3
6/21/2022 9:15:00 PM 18.45 65.21 0.298 7.48 1.35 8.26
6/21/2022 9:30:00 PM 18.43 65.174 0.298 7.46 1.57 8.21
6/21/2022 9:45:00 PM 18.42 65.156 0.298 7.45 1.51 8.2
6/21/2022 10:00:00 PM 18.4 65.12 0.301 7.44 1.49 8.18
6/21/2022 10:15:00 PM 18.37 65.066 0.302 7.43 2.46 8.15
6/21/2022 10:30:00 PM 18.37 65.066 0.303 7.43 1.54 8.16
6/21/2022 10:45:00 PM 18.34 65.012 0.303 7.42 1.51 8.16
6/21/2022 11:00:00 PM 18.32 64.976 0.303 7.42 1.49 8.16
6/21/2022 11:15:00 PM 18.3 64.94 0.303 7.42 1.62 8.15
6/21/2022 11:30:00 PM 18.29 64.922 0.303 7.42 2.61 8.17
6/21/2022 11:45:00 PM 18.23 64.814 0.302 7.41 1.65 8.15
6/22/2022 12:00:00 AM 18.19 64.742 0.302 7.41 1.54 8.15
6/22/2022 12:15:00 AM 18.17 64.706 0.302 7.41 1.53 8.15
6/22/2022 12:30:00 AM 18.13 64.634 0.301 7.41 1.58 8.17
6/22/2022 12:45:00 AM 18.08 64.544 0.302 7.4 1.58 8.16
6/22/2022 1:00:00 AM 18.04 64.472 0.302 7.4 1.84 8.18
6/22/2022 1:15:00 AM 18.02 64.436 0.301 7.41 2.04 8.2
6/22/2022 1:30:00 AM 17.96 64.328 0.304 7.4 2.04 8.2
6/22/2022 1:45:00 AM 17.93 64.274 0.305 7.4 1.84 8.21
6/22/2022 2:00:00 AM 17.87 64.166 0.305 7.4 1.77 8.22
6/22/2022 2:15:00 AM 17.85 64.13 0.305 7.4 1.86 8.22
6/22/2022 2:30:00 AM 17.78 64.004 0.302 7.4 1.62 8.22
6/22/2022 2:45:00 AM 17.74 63.932 0.304 7.4 1.61 8.23
6/22/2022 3:00:00 AM 17.68 63.824 0.304 7.4 2.1 8.25
6/22/2022 3:15:00 AM 17.64 63.752 0.303 7.4 1.58 8.26
6/22/2022 3:30:00 AM 17.59 63.662 0.302 7.4 1.76 8.27
6/22/2022 3:45:00 AM 17.54 63.572 0.301 7.4 1.71 8.28
6/22/2022 4:00:00 AM 17.49 63.482 0.303 7.4 1.66 8.29
6/22/2022 4:15:00 AM 17.43 63.374 0.305 7.39 1.54 8.3
6/22/2022 4:30:00 AM 17.39 63.302 0.304 7.39 2.26 8.32
6/22/2022 4:45:00 AM 17.35 63.23 0.302 7.4 11.74 8.34
6/22/2022 5:00:00 AM 17.3 63.14 0.301 7.39 2.2 8.34
6/22/2022 5:15:00 AM 17.25 63.05 0.302 7.39 2.28 8.35
6/22/2022 5:30:00 AM 17.21 62.978 0.302 7.39 1.88 8.35
6/22/2022 5:45:00 AM 17.17 62.906 0.303 7.4 5.15 8.4
6/22/2022 6:00:00 AM 17.13 62.834 0.303 7.4 3.39 8.46
6/22/2022 6:15:00 AM 17.1 62.78 0.305 7.42 2.19 8.53
6/22/2022 6:30:00 AM 17.07 62.726 0.302 7.42 3.41 8.59
6/22/2022 6:45:00 AM 17.04 62.672 0.301 7.43 2.37 8.66
6/22/2022 7:00:00 AM 17.02 62.636 0.301 7.44 3.76 8.71
6/22/2022 7:15:00 AM 17.01 62.618 0.304 7.45 2.26 8.8
6/22/2022 7:30:00 AM 17.04 62.672 0.304 7.48 2.14 8.95
6/22/2022 7:45:00 AM 17.08 62.744 0.305 7.5 3.5 9.1
6/22/2022 8:00:00 AM 17.2 62.96 0.304 7.53 1.51 9.25
6/22/2022 8:15:00 AM 17.23 63.014 0.3 7.56 5.51 9.34
6/22/2022 8:30:00 AM 17.38 63.284 0.295 7.6 3.71 9.51
6/22/2022 8:45:00 AM 17.54 63.572 0.283 7.64 1.88 9.65
6/22/2022 9:00:00 AM 17.68 63.824 0.279 7.68 1.61 9.79
6/22/2022 9:15:00 AM 17.64 63.752 0.279 7.72 2.17 9.82
6/22/2022 9:30:00 AM 17.69 63.842 0.281 7.74 2.62 9.87
6/22/2022 9:45:00 AM 17.75 63.95 0.285 7.77 1.56 9.92
6/22/2022 10:00:00 AM 17.84 64.112 0.285 7.81 2.57 10.02
6/22/2022 10:15:00 AM 17.94 64.292 0.281 7.86 1.62 10.09
6/22/2022 10:30:00 AM 18.08 64.544 0.279 7.9 1.65 10.16
6/22/2022 10:45:00 AM 18.12 64.616 0.278 7.92 2.54 10.11
6/22/2022 11:00:00 AM 18.27 64.886 0.279 7.94 2 10.15
6/22/2022 11:15:00 AM 18.49 65.282 0.278 7.98 4.84 10.22
6/22/2022 11:30:00 AM 18.57 65.426 0.278 8.02 3.66 10.22
6/22/2022 11:45:00 AM 18.76 65.768 0.279 8.05 2.41 10.28
6/22/2022 12:00:00 PM 18.95 66.11 0.279 8.08 1.71 10.28
6/22/2022 12:15:00 PM 19.24 66.632 0.278 8.12 1.93 10.3
6/22/2022 12:30:00 PM 19.46 67.028 0.279 8.13 4.5 10.29
6/22/2022 12:45:00 PM 19.65 67.37 0.277 8.16 2.54 10.29
6/22/2022 1:00:00 PM 19.84 67.712 0.278 8.19 12.82 10.3
6/22/2022 1:15:00 PM 19.96 67.92799 0.277 8.21 2.95 10.27
6/22/2022 1:30:00 PM 20.18 68.324 0.277 8.25 3.12 10.28
6/22/2022 1:45:00 PM 20.17 68.306 0.277 8.25 3.33 10.18
6/22/2022 2:00:00 PM 20.29 68.522 0.277 8.25 4.28 10.15
6/22/2022 2:15:00 PM 20.44 68.792 0.278 8.28 2.32 10.15
6/22/2022 2:30:00 PM 20.42 68.756 0.278 8.26 2.99 10.02
6/22/2022 2:45:00 PM 20.43 68.774 0.279 8.23 2.35 9.93
6/22/2022 3:00:00 PM 20.49 68.882 0.278 8.24 2.53 9.93
6/22/2022 3:15:00 PM 20.53 68.954 0.279 8.25 1.95 9.91
6/22/2022 3:30:00 PM 20.51 68.918 0.279 8.24 2.97 9.86
6/22/2022 3:45:00 PM 20.43 68.774 0.28 8.15 2.63 9.58
6/22/2022 4:00:00 PM 20.36 68.648 0.279 8.07 2.86 9.45
6/22/2022 4:15:00 PM 20.36 68.648 0.279 8.07 6.58 9.48
6/22/2022 4:30:00 PM 20.32 68.576 0.28 8.04 2.48 9.39
6/22/2022 4:45:00 PM 20.26 68.468 0.28 7.97 2.15 9.2
6/22/2022 5:00:00 PM 20.22 68.396 0.28 7.9 1.62 9.02
6/22/2022 5:15:00 PM 20.17 68.306 0.281 7.86 2 8.94
6/22/2022 5:30:00 PM 20.09 68.162 0.284 7.8 4.7 8.76
6/22/2022 5:45:00 PM 20.03 68.054 0.293 7.75 2.12 8.65
6/22/2022 6:00:00 PM 19.97 67.946 0.295 7.72 2.25 8.6
6/22/2022 6:15:00 PM 19.94 67.892 0.296 7.7 3.26 8.63
6/22/2022 6:30:00 PM 19.91 67.838 0.297 7.7 26.49 8.59
6/22/2022 6:45:00 PM 19.83 67.694 0.301 7.65 2.61 8.45
6/22/2022 7:00:00 PM 19.79 67.622 0.302 7.63 2.4 8.4
6/22/2022 7:15:00 PM 19.74 67.532 0.3 7.61 2.08 8.31
6/22/2022 7:30:00 PM 19.67 67.406 0.301 7.57 2.98 8.19
6/22/2022 7:45:00 PM 19.62 67.316 0.301 7.55 2.79 8.12
6/22/2022 8:00:00 PM 19.58 67.244 0.301 7.53 1.77 8.08
6/22/2022 8:15:00 PM 19.54 67.172 0.302 7.51 2.35 8.02
6/22/2022 8:30:00 PM 19.5 67.1 0.302 7.49 1.48 7.97
6/22/2022 8:45:00 PM 19.45 67.01 0.302 7.48 1.53 7.94
6/22/2022 9:00:00 PM 19.39 66.902 0.302 7.47 1.49 7.92
6/22/2022 9:15:00 PM 19.37 66.866 0.302 7.46 6.4 7.89
6/22/2022 9:30:00 PM 19.32 66.776 0.303 7.45 1.63 7.9
6/22/2022 9:45:00 PM 19.28 66.704 0.302 7.45 1.83 7.9
6/22/2022 10:00:00 PM 19.25 66.65 0.302 7.44 1.44 7.9
6/22/2022 10:15:00 PM 19.21 66.578 0.301 7.44 2.76 7.9
6/22/2022 10:30:00 PM 19.19 66.542 0.298 7.43 1.75 7.92
6/22/2022 10:45:00 PM 19.16 66.488 0.298 7.43 2.16 7.93
6/22/2022 11:00:00 PM 19.13 66.434 0.298 7.43 3.21 7.92
6/22/2022 11:15:00 PM 19.1 66.38 0.298 7.43 1.5 7.92
6/22/2022 11:30:00 PM 19.05 66.29 0.299 7.42 10.08 7.92
6/22/2022 11:45:00 PM 19.02 66.236 0.299 7.42 2.15 7.93
6/23/2022 12:00:00 AM 18.98 66.164 0.298 7.42 2.84 7.96
6/23/2022 12:15:00 AM 18.95 66.11 0.298 7.43 2.23 7.97
6/23/2022 12:30:00 AM 18.91 66.038 0.298 7.42 1.61 7.97
6/23/2022 12:45:00 AM 18.88 65.984 0.298 7.42 1.66 8
6/23/2022 1:00:00 AM 18.83 65.894 0.299 7.42 1.57 7.99
6/23/2022 1:15:00 AM 18.79 65.82201 0.298 7.42 1.48 8.02
6/23/2022 1:30:00 AM 18.75 65.75 0.297 7.41 1.52 7.98
6/23/2022 1:45:00 AM 18.71 65.67799 0.298 7.41 1.87 8.01
6/23/2022 2:00:00 AM 18.67 65.606 0.297 7.42 1.79 8.03
6/23/2022 2:15:00 AM 18.63 65.534 0.297 7.41 2.01 8.02
6/23/2022 2:30:00 AM 18.6 65.48 0.296 7.42 2.29 8.07
6/23/2022 2:45:00 AM 18.54 65.372 0.295 7.41 1.77 8.05
6/23/2022 3:00:00 AM 18.51 65.318 0.292 7.42 1.55 8.06
6/23/2022 3:15:00 AM 18.46 65.228 0.291 7.41 3.49 8.06
6/23/2022 3:30:00 AM 18.42 65.156 0.289 7.41 2.75 8.08
6/23/2022 3:45:00 AM 18.38 65.084 0.293 7.41 3.4 8.09
6/23/2022 4:00:00 AM 18.34 65.012 0.294 7.41 1.98 8.1
6/23/2022 4:15:00 AM 18.24 64.832 0.288 7.42 3.17 8.18
6/23/2022 4:30:00 AM 18.2 64.76 0.28 7.41 2.02 8.16
6/23/2022 4:45:00 AM 18.18 64.724 0.288 7.41 3.6 8.16
6/23/2022 5:00:00 AM 18.15 64.67 0.288 7.41 5.02 8.17
6/23/2022 5:15:00 AM 18.11 64.598 0.288 7.4 5.5 8.15
6/23/2022 5:30:00 AM 18.04 64.472 0.283 7.4 3.24 8.19
6/23/2022 5:45:00 AM 17.99 64.382 0.283 7.4 3.6 8.14
6/23/2022 6:00:00 AM 17.95 64.31 0.284 7.39 5.44 8.21
6/23/2022 6:15:00 AM 17.91 64.238 0.285 7.39 3.34 8.22
6/23/2022 6:30:00 AM 17.86 64.148 0.283 7.39 6.62 8.24
6/23/2022 6:45:00 AM 17.81 64.058 0.283 7.39 31.88 8.27
6/23/2022 7:00:00 AM 17.77 63.986 0.282 7.38 6.58 8.28
6/23/2022 7:15:00 AM 17.72 63.896 0.286 7.38 6.86 8.3
6/23/2022 7:30:00 AM 17.68 63.824 0.289 7.4 5.32 8.36
6/23/2022 7:45:00 AM 17.66 63.788 0.293 7.4 4.32 8.39
6/23/2022 8:00:00 AM 17.63 63.734 0.286 7.41 4.34 8.4
6/23/2022 8:15:00 AM 17.59 63.662 0.291 7.4 3.3 8.41
6/23/2022 8:30:00 AM 17.56 63.608 0.292 7.42 3.39 8.47
6/23/2022 8:45:00 AM 17.53 63.554 0.288 7.42 3.06 8.49
6/23/2022 9:00:00 AM 17.51 63.518 0.285 7.43 3.67 8.53
6/23/2022 9:15:00 AM 17.5 63.5 0.285 7.44 3.4 8.6
6/23/2022 9:30:00 AM 17.51 63.518 0.284 7.46 6.75 8.78
6/23/2022 9:45:00 AM 17.52 63.536 0.284 7.48 3.29 8.81
6/23/2022 10:00:00 AM 17.52 63.536 0.283 7.48 2.79 8.87
6/23/2022 10:15:00 AM 17.51 63.518 0.283 7.5 2.74 8.88
6/23/2022 10:30:00 AM 17.52 63.536 0.282 7.5 2.55 8.95
6/23/2022 10:45:00 AM 17.53 63.554 0.285 7.52 2.45 9.05
6/23/2022 11:00:00 AM 17.61 63.698 0.282 7.56 3 9.27
6/23/2022 11:15:00 AM 17.72 63.896 0.282 7.62 3.34 9.45
6/23/2022 11:30:00 AM 17.94 64.292 0.288 7.66 3.97 9.59
6/23/2022 11:45:00 AM 17.85 64.13 0.295 7.67 3.3 9.53
6/23/2022 12:00:00 PM 17.8 64.04 0.3 7.67 3.47 9.5
6/23/2022 12:15:00 PM 17.74 63.932 0.302 7.68 3.64 9.44
6/23/2022 12:30:00 PM 17.71 63.878 0.303 7.66 3.17 9.37
6/23/2022 12:45:00 PM 17.71 63.878 0.304 7.67 5.92 9.36
6/23/2022 1:00:00 PM 17.72 63.896 0.302 7.66 7.77 9.31
6/23/2022 1:15:00 PM 17.73 63.914 0.3 7.66 4.29 9.31
6/23/2022 1:30:00 PM 17.76 63.968 0.307 7.68 3.08 9.39
6/23/2022 1:45:00 PM 17.77 63.986 0.306 7.68 4.03 9.38
6/23/2022 2:00:00 PM 17.8 64.04 0.306 7.7 4.01 9.43
6/23/2022 2:15:00 PM 17.83 64.094 0.306 7.72 3.85 9.48
6/23/2022 2:30:00 PM 17.86 64.148 0.306 7.73 3.05 9.5
6/23/2022 2:45:00 PM 17.92 64.256 0.308 7.76 3.48 9.56
6/23/2022 3:00:00 PM 17.97 64.346 0.311 7.77 2.44 9.6
6/23/2022 3:15:00 PM 17.98 64.364 0.3 7.76 5.94 9.51
6/23/2022 3:30:00 PM 18.03 64.454 0.307 7.78 3.98 9.53
6/23/2022 3:45:00 PM 18.05 64.49 0.313 7.77 6.01 9.48
6/23/2022 4:00:00 PM 18.1 64.58 0.301 7.77 2.23 9.46
6/23/2022 4:15:00 PM 18.19 64.742 0.301 7.8 2.93 9.56
6/23/2022 4:30:00 PM 18.23 64.814 0.3 7.81 2.04 9.55
6/23/2022 4:45:00 PM 18.3 64.94 0.299 7.83 2.04 9.56
6/23/2022 5:00:00 PM 18.36 65.048 0.299 7.84 2.53 9.58
6/23/2022 5:15:00 PM 18.44 65.192 0.297 7.86 2.32 9.61
6/23/2022 5:30:00 PM 18.58 65.444 0.296 7.86 1.99 9.55
6/23/2022 5:45:00 PM 18.63 65.534 0.295 7.83 2.2 9.44
6/23/2022 6:00:00 PM 18.63 65.534 0.294 7.8 2.41 9.32
6/23/2022 6:15:00 PM 18.57 65.426 0.293 7.76 2.05 9.18
6/23/2022 6:30:00 PM 18.57 65.426 0.292 7.74 2.11 9.16
6/23/2022 6:45:00 PM 18.59 65.462 0.291 7.74 2.08 9.16
6/23/2022 7:00:00 PM 18.63 65.534 0.308 7.74 2.44 9.14
6/23/2022 7:15:00 PM 18.63 65.534 0.31 7.71 2.46 9.02
6/23/2022 7:30:00 PM 18.64 65.552 0.315 7.69 2.17 8.97
6/23/2022 7:45:00 PM 18.63 65.534 0.307 7.65 2.31 8.83
6/23/2022 8:00:00 PM 18.62 65.516 0.306 7.62 2.37 8.72
6/23/2022 8:15:00 PM 18.59 65.462 0.305 7.59 2.04 8.6
6/23/2022 8:30:00 PM 18.59 65.462 0.303 7.57 2.7 8.53
6/23/2022 8:45:00 PM 18.58 65.444 0.3 7.54 6.14 8.46
6/23/2022 9:00:00 PM 18.55 65.39 0.298 7.52 2.49 8.4
6/23/2022 9:15:00 PM 18.52 65.336 0.296 7.51 4.12 8.37
6/23/2022 9:30:00 PM 18.51 65.318 0.296 7.49 2.76 8.35
6/23/2022 9:45:00 PM 18.47 65.246 0.295 7.48 2.79 8.29
6/23/2022 10:00:00 PM 18.46 65.228 0.294 7.48 2.5 8.32
6/23/2022 10:15:00 PM 18.46 65.228 0.292 7.48 2.56 8.32
6/23/2022 10:30:00 PM 18.44 65.192 0.292 7.47 2.43 8.31
6/23/2022 10:45:00 PM 18.43 65.174 0.291 7.46 2.51 8.28
6/23/2022 11:00:00 PM 18.4 65.12 0.304 7.46 2.8 8.3
6/23/2022 11:15:00 PM 18.36 65.048 0.292 7.45 2.45 8.3
6/23/2022 11:30:00 PM 18.32 64.976 0.274 7.45 3.03 8.31
6/23/2022 11:45:00 PM 18.3 64.94 0.273 7.45 3.17 8.32
6/24/2022 12:00:00 AM 18.27 64.886 0.272 7.44 3.05 8.31
6/24/2022 12:15:00 AM 18.25 64.85 0.272 7.44 3 8.34
6/24/2022 12:30:00 AM 18.22 64.796 0.27 7.44 2.95 8.34
6/24/2022 12:45:00 AM 18.18 64.724 0.269 7.44 3.24 8.34
6/24/2022 1:00:00 AM 18.12 64.616 0.268 7.43 3.04 8.35
6/24/2022 1:15:00 AM 18.08 64.544 0.269 7.44 3.4 8.37
6/24/2022 1:30:00 AM 18.03 64.454 0.284 7.43 2.56 8.39
6/24/2022 1:45:00 AM 17.97 64.346 0.285 7.42 2.68 8.38
6/24/2022 2:00:00 AM 17.91 64.238 0.284 7.43 3.08 8.4
6/24/2022 2:15:00 AM 17.86 64.148 0.283 7.42 2.51 8.38
6/24/2022 2:30:00 AM 17.82 64.076 0.283 7.42 2.79 8.41
6/24/2022 2:45:00 AM 17.75 63.95 0.282 7.42 2.94 8.41
6/24/2022 3:00:00 AM 17.71 63.878 0.279 7.42 2.97 8.42
6/24/2022 3:15:00 AM 17.66 63.788 0.279 7.42 3.54 8.45
6/24/2022 3:30:00 AM 17.6 63.68 0.277 7.41 2.96 8.46
6/24/2022 3:45:00 AM 17.56 63.608 0.276 7.41 3.18 8.45
6/24/2022 4:00:00 AM 17.51 63.518 0.275 7.41 3.13 8.46
6/24/2022 4:15:00 AM 17.47 63.446 0.273 7.41 3.55 8.48
6/24/2022 4:30:00 AM 17.44 63.392 0.273 7.42 3.07 8.51
6/24/2022 4:45:00 AM 17.37 63.266 0.272 7.41 3.38 8.5
6/24/2022 5:00:00 AM 17.32 63.176 0.269 7.41 2.84 8.53
6/24/2022 5:15:00 AM 17.28 63.104 0.271 7.41 2.97 8.54
6/24/2022 5:30:00 AM 17.24 63.032 0.271 7.41 3.82 8.55
6/24/2022 5:45:00 AM 17.19 62.942 0.271 7.41 8.09 8.57
6/24/2022 6:00:00 AM 17.16 62.888 0.27 7.42 3.41 8.63
6/24/2022 6:15:00 AM 17.1 62.78 0.27 7.42 3.46 8.68
6/24/2022 6:30:00 AM 17.06 62.708 0.271 7.43 4.76 8.75
6/24/2022 6:45:00 AM 17.05 62.69 0.27 7.44 5.11 8.82
6/24/2022 7:00:00 AM 17.05 62.69 0.27 7.45 3.86 8.89
6/24/2022 7:15:00 AM 17.06 62.708 0.268 7.47 4.61 8.98
6/24/2022 7:30:00 AM 17.07 62.726 0.268 7.49 4.16 9.08
6/24/2022 7:45:00 AM 17.07 62.726 0.268 7.51 3.93 9.16
6/24/2022 8:00:00 AM 17.11 62.798 0.267 7.53 5.52 9.26
6/24/2022 8:15:00 AM 17.14 62.852 0.268 7.55 3 9.34
6/24/2022 8:30:00 AM 17.19 62.942 0.268 7.58 4.72 9.43
6/24/2022 8:45:00 AM 17.22 62.996 0.267 7.6 2.56 9.48
6/24/2022 9:00:00 AM 17.28 63.104 0.267 7.63 2.3 9.55
6/24/2022 9:15:00 AM 17.34 63.212 0.267 7.66 3.2 9.62
6/24/2022 9:30:00 AM 17.4 63.32 0.266 7.68 6.77 9.66
6/24/2022 9:45:00 AM 17.49 63.482 0.267 7.72 3.47 9.74
6/24/2022 10:00:00 AM 17.63 63.734 0.266 7.75 3.94 9.85
6/24/2022 10:15:00 AM 17.74 63.932 0.265 7.78 7.41 9.86
6/24/2022 10:30:00 AM 17.94 64.292 0.266 7.79 3.38 9.84
6/24/2022 10:45:00 AM 18.11 64.598 0.265 7.8 3.07 9.81
6/24/2022 11:00:00 AM 18.31 64.958 0.264 7.83 4.84 9.85
6/24/2022 11:15:00 AM 18.42 65.156 0.264 7.85 6.87 9.85
6/24/2022 11:30:00 AM 18.62 65.516 0.265 7.87 2.1 9.88
6/24/2022 11:45:00 AM 18.83 65.894 0.266 7.89 4.36 9.85
6/24/2022 12:00:00 PM 19.03 66.254 0.304 7.9 2.79 9.81
6/24/2022 12:15:00 PM 19.33 66.794 0.254 7.93 2.38 9.79
6/24/2022 12:30:00 PM 19.57 67.226 0.275 7.92 2.17 9.73
6/24/2022 12:45:00 PM 19.83 67.694 0.276 7.94 2.65 9.7
6/24/2022 1:00:00 PM 20.08 68.144 0.279 7.95 2.14 9.66
6/24/2022 1:15:00 PM 20.34 68.612 0.279 7.94 2.84 9.56
6/24/2022 1:30:00 PM 20.65 69.17 0.279 7.97 2.03 9.58
6/24/2022 1:45:00 PM 20.91 69.638 0.28 7.96 2.05 9.51
6/24/2022 2:00:00 PM 21.17 70.106 0.311 7.96 2.12 9.44
6/24/2022 2:15:00 PM 21.42 70.556 0.255 7.96 2.24 9.4
6/24/2022 2:30:00 PM 21.6 70.88 0.279 7.98 2.46 9.39
6/24/2022 2:45:00 PM 21.72 71.096 0.286 7.99 5.45 9.34
6/24/2022 3:00:00 PM 21.94 71.492 0.289 7.99 2.51 9.31
6/24/2022 3:15:00 PM 21.99 71.582 0.289 7.98 2.39 9.22
6/24/2022 3:30:00 PM 22.19 71.942 0.29 7.98 1.97 9.21
6/24/2022 3:45:00 PM 22.33 72.194 0.29 7.99 2.82 9.17
6/24/2022 4:00:00 PM 22.41 72.338 0.293 7.96 6.09 9.08
6/24/2022 4:15:00 PM 22.39 72.302 0.292 7.91 2.43 8.91
6/24/2022 4:30:00 PM 22.51 72.518 0.293 7.91 13.04 8.91
6/24/2022 4:45:00 PM 22.57 72.626 0.294 7.89 7 8.85
6/24/2022 5:00:00 PM 22.59 72.662 0.294 7.87 2.25 8.78
6/24/2022 5:15:00 PM 22.58 72.644 0.294 7.85 2.82 8.71
6/24/2022 5:30:00 PM 22.55 72.59 0.295 7.82 2.85 8.63
6/24/2022 5:45:00 PM 22.53 72.554 0.301 7.8 2.09 8.55
6/24/2022 6:00:00 PM 22.5 72.5 0.262 7.77 5.17 8.48
6/24/2022 6:15:00 PM 22.47 72.446 0.258 7.73 3.9 8.38
6/24/2022 6:30:00 PM 22.39 72.302 0.261 7.69 2.79 8.24
6/24/2022 6:45:00 PM 22.39 72.302 0.26 7.68 3 8.25
6/24/2022 7:00:00 PM 22.35 72.23 0.259 7.65 3.35 8.18
6/24/2022 7:15:00 PM 22.32 72.176 0.26 7.62 3.62 8.08
6/24/2022 7:30:00 PM 22.27 72.086 0.261 7.58 3.46 7.97
6/24/2022 7:45:00 PM 22.23 72.014 0.261 7.57 1.91 7.9
6/24/2022 8:00:00 PM 22.16 71.888 0.261 7.53 2.17 7.81
6/24/2022 8:15:00 PM 22.11 71.798 0.262 7.52 2 7.76
6/24/2022 8:30:00 PM 22.04 71.672 0.261 7.49 2.62 7.68
6/24/2022 8:45:00 PM 21.99 71.582 0.262 7.48 2.09 7.64
6/24/2022 9:00:00 PM 21.94 71.492 0.261 7.47 2.1 7.65
6/24/2022 9:15:00 PM 21.87 71.366 0.263 7.46 2.22 7.62
6/24/2022 9:30:00 PM 21.8 71.24 0.265 7.45 2.33 7.61
6/24/2022 9:45:00 PM 21.73 71.114 0.266 7.45 2.27 7.61
6/24/2022 10:00:00 PM 21.62 70.916 0.267 7.43 2.15 7.56
6/24/2022 10:15:00 PM 21.54 70.772 0.272 7.43 2.5 7.59
6/24/2022 10:30:00 PM 21.46 70.628 0.272 7.42 2.35 7.6
6/24/2022 10:45:00 PM 21.36 70.448 0.275 7.42 9.38 7.62
6/24/2022 11:00:00 PM 21.27 70.286 0.275 7.42 2.55 7.63
6/24/2022 11:15:00 PM 21.17 70.106 0.276 7.41 2.33 7.64
6/24/2022 11:30:00 PM 21.09 69.962 0.278 7.41 2.3 7.67
6/24/2022 11:45:00 PM 21 69.8 0.278 7.42 2.26 7.72
6/25/2022 12:00:00 AM 20.91 69.638 0.28 7.41 2.48 7.73
6/25/2022 12:15:00 AM 20.8 69.44 0.28 7.4 2.23 7.73
6/25/2022 12:30:00 AM 20.71 69.278 0.282 7.41 4.55 7.75
6/25/2022 12:45:00 AM 20.62 69.116 0.285 7.4 2.99 7.73
6/25/2022 1:00:00 AM 20.5 68.9 0.283 7.4 2.14 7.8
6/25/2022 1:15:00 AM 20.42 68.756 0.285 7.4 2.45 7.82
6/25/2022 1:30:00 AM 20.31 68.558 0.286 7.4 4.04 7.83
6/25/2022 1:45:00 AM 20.23 68.414 0.288 7.39 3.84 7.86
6/25/2022 2:00:00 AM 20.14 68.252 0.287 7.4 2.34 7.88
6/25/2022 2:15:00 AM 20.04 68.07201 0.286 7.39 2.33 7.91
6/25/2022 2:30:00 AM 19.94 67.892 0.289 7.4 2.63 7.94
6/25/2022 2:45:00 AM 19.83 67.694 0.287 7.39 2.47 7.94
6/25/2022 3:00:00 AM 19.73 67.514 0.288 7.39 2.34 7.95
6/25/2022 3:15:00 AM 19.66 67.388 0.29 7.39 2.47 7.99
6/25/2022 3:30:00 AM 19.56 67.208 0.288 7.39 2.39 8.02
6/25/2022 3:45:00 AM 19.45 67.01 0.289 7.38 2.47 8.03
6/25/2022 4:00:00 AM 19.34 66.812 0.29 7.38 3.47 8.05
6/25/2022 4:15:00 AM 19.25 66.65 0.291 7.38 4.88 8.06
6/25/2022 4:30:00 AM 19.16 66.488 0.29 7.39 2.31 8.1
6/25/2022 4:45:00 AM 19.06 66.308 0.291 7.39 2.32 8.13
6/25/2022 5:00:00 AM 18.97 66.146 0.295 7.38 2.16 8.13
6/25/2022 5:15:00 AM 18.89 66.002 0.291 7.38 2.72 8.14
6/25/2022 5:30:00 AM 18.82 65.876 0.292 7.38 5.58 8.19
6/25/2022 5:45:00 AM 18.75 65.75 0.294 7.38 6.3 8.23
6/25/2022 6:00:00 AM 18.69 65.642 0.293 7.38 2.18 8.27
6/25/2022 6:15:00 AM 18.63 65.534 0.292 7.39 3.36 8.34
6/25/2022 6:30:00 AM 18.58 65.444 0.294 7.4 6.14 8.41
6/25/2022 6:45:00 AM 18.55 65.39 0.29 7.42 5.92 8.53
6/25/2022 7:00:00 AM 18.5 65.3 0.292 7.43 6.56 8.58
6/25/2022 7:15:00 AM 18.46 65.228 0.291 7.44 2.55 8.62
6/25/2022 7:30:00 AM 18.45 65.21 0.292 7.45 63.72 8.71
6/25/2022 7:45:00 AM 18.51 65.318 0.281 7.48 16.52 8.86
6/25/2022 8:00:00 AM 18.57 65.426 0.272 7.51 1.9 8.99
6/25/2022 8:15:00 AM 18.64 65.552 0.264 7.53 2.22 9.05
6/25/2022 8:30:00 AM 18.72 65.696 0.264 7.55 2.52 9.11
6/25/2022 8:45:00 AM 18.8 65.84 0.263 7.58 8.44 9.16
6/25/2022 9:00:00 AM 18.89 66.002 0.263 7.59 2.67 9.21
6/25/2022 9:15:00 AM 18.99 66.182 0.263 7.61 1.52 9.24
6/25/2022 9:30:00 AM 19.1 66.38 0.263 7.63 1.98 9.28
6/25/2022 9:45:00 AM 19.21 66.578 0.263 7.65 3.77 9.3
6/25/2022 10:00:00 AM 19.35 66.83 0.263 7.67 2.82 9.34
6/25/2022 10:15:00 AM 19.49 67.082 0.263 7.68 2.53 9.34
6/25/2022 10:30:00 AM 19.64 67.352 0.263 7.69 2.66 9.35
6/25/2022 10:45:00 AM 19.8 67.64 0.264 7.71 3.6 9.37
6/25/2022 11:00:00 AM 19.97 67.946 0.263 7.73 3.99 9.37
6/25/2022 11:15:00 AM 20.16 68.288 0.264 7.75 3.29 9.39
6/25/2022 11:30:00 AM 20.37 68.666 0.264 7.77 1.5 9.39
6/25/2022 11:45:00 AM 20.59 69.062 0.263 7.78 9 9.38
6/25/2022 12:00:00 PM 20.86 69.548 0.262 7.82 5.65 9.41
6/25/2022 12:15:00 PM 21.1 69.98 0.264 7.82 2.65 9.38
6/25/2022 12:30:00 PM 21.38 70.484 0.264 7.86 3.9 9.39
6/25/2022 12:45:00 PM 21.63 70.934 0.262 7.87 4.74 9.37
6/25/2022 1:00:00 PM 21.94 71.492 0.263 7.92 3.02 9.41
6/25/2022 1:15:00 PM 22.19 71.942 0.263 7.91 6.8 9.36
6/25/2022 1:30:00 PM 22.47 72.446 0.264 7.94 3.7 9.36
6/25/2022 1:45:00 PM 22.75 72.95 0.265 7.95 4.35 9.31
6/25/2022 2:00:00 PM 23.01 73.418 0.265 7.98 3.9 9.3
6/25/2022 2:15:00 PM 23.29 73.922 0.264 7.99 3.4 9.27
6/25/2022 2:30:00 PM 23.51 74.318 0.264 7.99 3.45 9.2
6/25/2022 2:45:00 PM 23.76 74.768 0.265 7.99 3.32 9.15
6/25/2022 3:00:00 PM 23.96 75.128 0.264 8 3.79 9.11
6/25/2022 3:15:00 PM 24.13 75.434 0.266 8.01 2.74 9.06
6/25/2022 3:30:00 PM 24.27 75.686 0.265 8.02 3.7 9.03
6/25/2022 3:45:00 PM 24.42 75.956 0.265 8.03 3.32 8.99
6/25/2022 4:00:00 PM 24.49 76.082 0.264 8.01 1.62 8.93
6/25/2022 4:15:00 PM 24.52 76.136 0.265 8 1.42 8.86
6/25/2022 4:30:00 PM 24.54 76.172 0.264 7.96 4.09 8.74
6/25/2022 4:45:00 PM 24.54 76.172 0.266 7.93 1.66 8.66
6/25/2022 5:00:00 PM 24.51 76.118 0.267 7.91 1.82 8.6
6/25/2022 5:15:00 PM 24.47 76.046 0.267 7.88 1.69 8.52
6/25/2022 5:30:00 PM 24.41 75.938 0.269 7.85 4.78 8.44
6/25/2022 5:45:00 PM 24.34 75.812 0.268 7.8 3.1 8.36
6/25/2022 6:00:00 PM 24.27 75.686 0.27 7.78 1.57 8.27
6/25/2022 6:15:00 PM 24.2 75.56 0.27 7.76 1.53 8.21
6/25/2022 6:30:00 PM 24.15 75.47 0.272 7.74 1.64 8.16
6/25/2022 6:45:00 PM 24.08 75.344 0.274 7.7 1.51 8.1
6/25/2022 7:00:00 PM 24.02 75.236 0.276 7.67 1.51 7.98
6/25/2022 7:15:00 PM 23.93 75.074 0.278 7.62 1.64 7.83
6/25/2022 7:30:00 PM 23.84 74.912 0.281 7.58 1.54 7.71
6/25/2022 7:45:00 PM 23.77 74.786 0.283 7.55 1.7 7.61
6/25/2022 8:00:00 PM 23.73 74.714 0.285 7.52 1.88 7.52
6/25/2022 8:15:00 PM 23.65 74.57 0.286 7.5 1.57 7.45
6/25/2022 8:30:00 PM 23.58 74.444 0.287 7.48 1.64 7.4
6/25/2022 8:45:00 PM 23.5 74.3 0.288 7.45 4.27 7.3
6/25/2022 9:00:00 PM 23.44 74.192 0.289 7.45 1.65 7.31
6/25/2022 9:15:00 PM 23.37 74.066 0.289 7.44 1.79 7.29
6/25/2022 9:30:00 PM 23.29 73.922 0.29 7.42 1.92 7.26
6/25/2022 9:45:00 PM 23.23 73.814 0.291 7.42 1.92 7.25
6/25/2022 10:00:00 PM 23.15 73.67 0.3 7.41 1.85 7.26
6/25/2022 10:15:00 PM 23.07 73.526 0.276 7.41 1.9 7.26
6/25/2022 10:30:00 PM 22.99 73.382 0.279 7.4 1.75 7.26
6/25/2022 10:45:00 PM 22.9 73.22 0.286 7.4 1.9 7.28
6/25/2022 11:00:00 PM 22.81 73.058 0.289 7.4 2.02 7.28
6/25/2022 11:15:00 PM 22.73 72.914 0.291 7.4 2.09 7.3
6/25/2022 11:30:00 PM 22.66 72.788 0.292 7.4 1.8 7.34
6/25/2022 11:45:00 PM 22.55 72.59 0.292 7.39 1.97 7.34
6/26/2022 12:00:00 AM 22.45 72.41 0.292 7.39 2.02 7.37
6/26/2022 12:15:00 AM 22.38 72.284 0.293 7.4 1.88 7.41
6/26/2022 12:30:00 AM 22.25 72.05 0.292 7.39 2.03 7.41
6/26/2022 12:45:00 AM 22.15 71.87 0.293 7.39 2 7.42
6/26/2022 1:00:00 AM 22.05 71.69 0.293 7.39 2.13 7.45
6/26/2022 1:15:00 AM 21.94 71.492 0.293 7.39 2.01 7.46
6/26/2022 1:30:00 AM 21.85 71.33 0.293 7.39 2.23 7.5
6/26/2022 1:45:00 AM 21.74 71.132 0.293 7.39 2.19 7.51
6/26/2022 2:00:00 AM 21.65 70.97 0.291 7.39 2.08 7.55
6/26/2022 2:15:00 AM 21.52 70.736 0.291 7.39 1.96 7.57
6/26/2022 2:30:00 AM 21.42 70.556 0.291 7.38 1.94 7.59
6/26/2022 2:45:00 AM 21.32 70.376 0.291 7.38 2.08 7.61
6/26/2022 3:00:00 AM 21.22 70.196 0.291 7.38 1.96 7.63
6/26/2022 3:15:00 AM 21.13 70.034 0.292 7.39 2.04 7.66
6/26/2022 3:30:00 AM 21.02 69.836 0.291 7.38 2.06 7.67
6/26/2022 3:45:00 AM 20.92 69.656 0.291 7.38 1.89 7.69
6/26/2022 4:00:00 AM 20.82 69.476 0.291 7.38 2.15 7.72
6/26/2022 4:15:00 AM 20.72 69.296 0.291 7.38 2.05 7.73
6/26/2022 4:30:00 AM 20.62 69.116 0.291 7.38 2 7.74
6/26/2022 4:45:00 AM 20.54 68.972 0.29 7.38 2.74 7.77
6/26/2022 5:00:00 AM 20.46 68.828 0.291 7.38 2.11 7.81
6/26/2022 5:15:00 AM 20.36 68.648 0.291 7.38 2.16 7.82
6/26/2022 5:30:00 AM 20.27 68.486 0.29 7.38 2.21 7.84
6/26/2022 5:45:00 AM 20.18 68.324 0.288 7.38 2.12 7.88
6/26/2022 6:00:00 AM 20.11 68.198 0.287 7.39 2.01 7.94
6/26/2022 6:15:00 AM 20.04 68.07201 0.287 7.39 3.05 8
6/26/2022 6:30:00 AM 19.98 67.964 0.287 7.4 1.97 8.07
6/26/2022 6:45:00 AM 19.92 67.856 0.286 7.41 1.94 8.13
6/26/2022 7:00:00 AM 19.86 67.748 0.286 7.41 1.91 8.2
6/26/2022 7:15:00 AM 19.84 67.712 0.286 7.42 1.97 8.27
6/26/2022 7:30:00 AM 19.84 67.712 0.286 7.44 1.81 8.4
6/26/2022 7:45:00 AM 19.92 67.856 0.286 7.48 1.86 8.6
6/26/2022 8:00:00 AM 19.99 67.982 0.286 7.5 1.8 8.72
6/26/2022 8:15:00 AM 20.07 68.126 0.287 7.53 1.67 8.81
6/26/2022 8:30:00 AM 20.17 68.306 0.287 7.55 2.01 8.89
6/26/2022 8:45:00 AM 20.26 68.468 0.287 7.59 1.88 8.96
6/26/2022 9:00:00 AM 20.37 68.666 0.287 7.61 1.68 9.03
6/26/2022 9:15:00 AM 20.49 68.882 0.288 7.65 1.71 9.09
6/26/2022 9:30:00 AM 20.61 69.098 0.287 7.69 1.7 9.17
6/26/2022 9:45:00 AM 20.72 69.296 0.287 7.71 1.68 9.2
6/26/2022 10:00:00 AM 20.86 69.548 0.289 7.74 1.87 9.26
6/26/2022 10:15:00 AM 21.01 69.818 0.289 7.77 1.69 9.32
6/26/2022 10:30:00 AM 21.17 70.106 0.289 7.8 1.76 9.36
6/26/2022 10:45:00 AM 21.32 70.376 0.296 7.83 1.81 9.39
6/26/2022 11:00:00 AM 21.49 70.682 0.292 7.85 1.6 9.38
6/26/2022 11:15:00 AM 21.69 71.042 0.292 7.87 1.77 9.38
6/26/2022 11:30:00 AM 21.88 71.384 0.291 7.89 1.59 9.39
6/26/2022 11:45:00 AM 22.08 71.744 0.29 7.91 1.78 9.4
6/26/2022 12:00:00 PM 22.32 72.176 0.291 7.94 1.84 9.42
6/26/2022 12:15:00 PM 22.58 72.644 0.291 7.97 1.7 9.42
6/26/2022 12:30:00 PM 22.86 73.148 0.293 8.01 1.65 9.44
6/26/2022 12:45:00 PM 23.1 73.58 0.293 8.01 2.06 9.4
6/26/2022 1:00:00 PM 23.38 74.084 0.293 8.06 1.66 9.45
6/26/2022 1:15:00 PM 23.68 74.624 0.294 8.1 1.62 9.47
6/26/2022 1:30:00 PM 23.93 75.074 0.294 8.12 1.55 9.44
6/26/2022 1:45:00 PM 24.19 75.542 0.294 8.12 2.72 9.36
6/26/2022 2:00:00 PM 24.43 75.974 0.295 8.13 1.7 9.33
6/26/2022 2:15:00 PM 24.6 76.28 0.295 8.14 1.58 9.25
6/26/2022 2:30:00 PM 24.88 76.784 0.295 8.17 1.58 9.27
6/26/2022 2:45:00 PM 25.05 77.09 0.293 8.17 1.63 9.19
6/26/2022 3:00:00 PM 25.21 77.378 0.302 8.16 1.58 9.13
6/26/2022 3:15:00 PM 25.35 77.63 0.272 8.16 1.6 9.09
6/26/2022 3:30:00 PM 25.46 77.828 0.271 8.17 1.63 9.04
6/26/2022 3:45:00 PM 25.43 77.774 0.272 8.13 1.46 8.92
6/26/2022 4:00:00 PM 25.44 77.792 0.272 8.11 1.51 8.86
6/26/2022 4:15:00 PM 25.37 77.666 0.271 8.1 1.56 8.79
6/26/2022 4:30:00 PM 25.26 77.468 0.271 8.06 1.51 8.69
6/26/2022 4:45:00 PM 25.2 77.36 0.272 8.05 1.56 8.68
6/26/2022 5:00:00 PM 25.12 77.216 0.273 8.03 1.55 8.62
6/26/2022 5:15:00 PM 25 77 0.275 7.95 1.6 8.42
6/26/2022 5:30:00 PM 24.89 76.802 0.282 7.85 1.61 8.16
6/26/2022 5:45:00 PM 24.81 76.658 0.286 7.82 1.73 8.1
6/26/2022 6:00:00 PM 24.77 76.586 0.288 7.76 1.59 7.97
6/26/2022 6:15:00 PM 24.68 76.424 0.287 7.7 1.71 7.78
6/26/2022 6:30:00 PM 24.61 76.298 0.289 7.65 1.7 7.65
6/26/2022 6:45:00 PM 24.56 76.208 0.288 7.61 1.65 7.49
6/26/2022 7:00:00 PM 24.47 76.046 0.291 7.57 1.64 7.35
6/26/2022 7:15:00 PM 24.45 76.01 0.293 7.54 1.68 7.31
6/26/2022 7:30:00 PM 24.39 75.902 0.292 7.53 1.68 7.32
6/26/2022 7:45:00 PM 24.35 75.83 0.288 7.52 1.67 7.32
6/26/2022 8:00:00 PM 24.28 75.704 0.292 7.5 1.52 7.24
6/26/2022 8:15:00 PM 24.21 75.578 0.294 7.48 1.58 7.16
6/26/2022 8:30:00 PM 24.17 75.506 0.298 7.47 1.73 7.13
6/26/2022 8:45:00 PM 24.09 75.362 0.297 7.45 1.71 7.06
6/26/2022 9:00:00 PM 24.05 75.29 0.297 7.43 1.79 7.06
6/26/2022 9:15:00 PM 23.97 75.146 0.297 7.42 1.66 7.03
6/26/2022 9:30:00 PM 23.93 75.074 0.298 7.42 1.88 7.04
6/26/2022 9:45:00 PM 23.87 74.966 0.298 7.41 1.76 7.03
6/26/2022 10:00:00 PM 23.83 74.894 0.298 7.41 1.86 7.02
6/26/2022 10:15:00 PM 23.8 74.84 0.299 7.41 1.94 7.04
6/26/2022 10:30:00 PM 23.75 74.75 0.297 7.41 1.95 7.03
6/26/2022 10:45:00 PM 23.7 74.66 0.297 7.41 1.88 7.05
6/26/2022 11:00:00 PM 23.66 74.588 0.296 7.4 2.15 7.06
6/26/2022 11:15:00 PM 23.58 74.444 0.295 7.4 2.06 7.05
6/26/2022 11:30:00 PM 23.53 74.354 0.298 7.4 1.95 7.06
6/26/2022 11:45:00 PM 23.49 74.282 0.298 7.41 1.91 7.1
6/27/2022 12:00:00 AM 23.42 74.156 0.298 7.41 1.89 7.12
6/27/2022 12:15:00 AM 23.34 74.012 0.298 7.4 1.96 7.11
6/27/2022 12:30:00 AM 23.27 73.886 0.299 7.4 1.9 7.14
6/27/2022 12:45:00 AM 23.19 73.742 0.3 7.4 1.79 7.16
6/27/2022 1:00:00 AM 23.14 73.652 0.301 7.4 2.09 7.17
6/27/2022 1:15:00 AM 23.07 73.526 0.3 7.4 1.99 7.2
6/27/2022 1:30:00 AM 22.99 73.382 0.301 7.4 2.06 7.19
6/27/2022 1:45:00 AM 22.94 73.292 0.3 7.41 1.85 7.24
6/27/2022 2:00:00 AM 22.86 73.148 0.3 7.41 2.16 7.25
6/27/2022 2:15:00 AM 22.78 73.004 0.3 7.4 1.96 7.25
6/27/2022 2:30:00 AM 22.71 72.878 0.302 7.4 1.96 7.25
6/27/2022 2:45:00 AM 22.64 72.752 0.302 7.4 2.08 7.29
6/27/2022 3:00:00 AM 22.57 72.626 0.302 7.4 2.2 7.31
6/27/2022 3:15:00 AM 22.52 72.536 0.302 7.41 4.42 7.35
6/27/2022 3:30:00 AM 22.47 72.446 0.303 7.41 2.69 7.36
6/27/2022 3:45:00 AM 22.38 72.284 0.301 7.4 2.47 7.34
6/27/2022 4:00:00 AM 22.32 72.176 0.301 7.4 2.14 7.36
6/27/2022 4:15:00 AM 22.28 72.104 0.301 7.41 2.17 7.4
6/27/2022 4:30:00 AM 22.22 71.996 0.301 7.41 2.13 7.4
6/27/2022 4:45:00 AM 22.15 71.87 0.301 7.39 2.66 7.39
6/27/2022 5:00:00 AM 22.11 71.798 0.301 7.4 4.96 7.4
6/27/2022 5:15:00 AM 22.05 71.69 0.301 7.4 2.12 7.42
6/27/2022 5:30:00 AM 22.01 71.618 0.301 7.41 1.91 7.45
6/27/2022 5:45:00 AM 21.95 71.51 0.301 7.4 1.9 7.44
6/27/2022 6:00:00 AM 21.9 71.42 0.301 7.4 1.94 7.48
6/27/2022 6:15:00 AM 21.88 71.384 0.301 7.41 1.97 7.54
6/27/2022 6:30:00 AM 21.84 71.312 0.302 7.42 1.92 7.56
6/27/2022 6:45:00 AM 21.79 71.222 0.301 7.41 1.8 7.54
6/27/2022 7:00:00 AM 21.77 71.186 0.301 7.43 1.88 7.64
6/27/2022 7:15:00 AM 21.75 71.15 0.301 7.44 1.84 7.7
6/27/2022 7:30:00 AM 21.74 71.132 0.301 7.46 1.84 7.81
6/27/2022 7:45:00 AM 21.71 71.078 0.301 7.46 2.45 7.84
6/27/2022 8:00:00 AM 21.7 71.06 0.301 7.47 1.9 7.92
6/27/2022 8:15:00 AM 21.69 71.042 0.3 7.48 2.01 7.95
6/27/2022 8:30:00 AM 21.67 71.006 0.3 7.48 1.78 7.96
6/27/2022 8:45:00 AM 21.66 70.988 0.299 7.49 1.81 8
6/27/2022 9:00:00 AM 21.56 70.808 0.297 7.49 1.89 7.98
6/27/2022 9:15:00 AM 21.52 70.736 0.296 7.5 1.86 7.97
6/27/2022 9:30:00 AM 21.48 70.664 0.295 7.52 1.84 8.21
6/27/2022 9:45:00 AM 21.52 70.736 0.295 7.59 1.69 8.52
6/27/2022 10:00:00 AM 21.58 70.844 0.295 7.65 1.76 8.8
6/27/2022 10:15:00 AM 21.71 71.078 0.295 7.72 1.76 9.04
6/27/2022 10:30:00 AM 21.76 71.168 0.295 7.78 1.79 9.16
6/27/2022 10:45:00 AM 21.97 71.546